<?xml version="1.0" encoding="UTF-8" standalone="no" ?>
<gpx xmlns="http://www.topografix.com/GPX/1/1" xmlns:xsi="http://www.w3.org/2001/XMLSchema-instance" xsi:schemaLocation="http://www.topografix.com/GPX/1/1 http://www.topografix.com/GPX/1/1/gpx.xsd" version="1.1" creator="VisuGPX - https://www.visugpx.com">
  <metadata>
    <name>Palaiseau4807_Marche_Nordique_2012-10-07</name>
    <desc><![CDATA[Meudon, Carrefour de l'anémomètre]]></desc>
  </metadata>
  <trk>
    <name><![CDATA[2012-10-07 MEUDON]]></name>
    <trkseg>
      <trkpt lat="48.79959" lon="2.24788">
        <ele>132.1</ele>
        <time>2012-10-07T07:47:42Z</time>
      </trkpt>
      <trkpt lat="48.79959" lon="2.24788">
        <ele>132.1</ele>
        <time>2012-10-07T07:47:43Z</time>
      </trkpt>
      <trkpt lat="48.79958" lon="2.24789">
        <ele>132.1</ele>
        <time>2012-10-07T07:47:52Z</time>
      </trkpt>
      <trkpt lat="48.79957" lon="2.24789">
        <ele>132</ele>
        <time>2012-10-07T07:47:57Z</time>
      </trkpt>
      <trkpt lat="48.79956" lon="2.2479">
        <ele>131.8</ele>
        <time>2012-10-07T07:48:02Z</time>
      </trkpt>
      <trkpt lat="48.79956" lon="2.2479">
        <ele>131.8</ele>
        <time>2012-10-07T07:48:07Z</time>
      </trkpt>
      <trkpt lat="48.79955" lon="2.24789">
        <ele>133.3</ele>
        <time>2012-10-07T07:48:12Z</time>
      </trkpt>
      <trkpt lat="48.79955" lon="2.24789">
        <ele>133.3</ele>
        <time>2012-10-07T07:48:17Z</time>
      </trkpt>
      <trkpt lat="48.79955" lon="2.24789">
        <ele>133.3</ele>
        <time>2012-10-07T07:48:22Z</time>
      </trkpt>
      <trkpt lat="48.79955" lon="2.24789">
        <ele>133.3</ele>
        <time>2012-10-07T07:48:27Z</time>
      </trkpt>
      <trkpt lat="48.79955" lon="2.24789">
        <ele>133.3</ele>
        <time>2012-10-07T07:48:32Z</time>
      </trkpt>
      <trkpt lat="48.79954" lon="2.24789">
        <ele>132.6</ele>
        <time>2012-10-07T07:48:37Z</time>
      </trkpt>
      <trkpt lat="48.79954" lon="2.24789">
        <ele>132.6</ele>
        <time>2012-10-07T07:48:42Z</time>
      </trkpt>
      <trkpt lat="48.79954" lon="2.24789">
        <ele>132.6</ele>
        <time>2012-10-07T07:48:47Z</time>
      </trkpt>
      <trkpt lat="48.79954" lon="2.24789">
        <ele>132.6</ele>
        <time>2012-10-07T07:48:48Z</time>
      </trkpt>
      <trkpt lat="48.79954" lon="2.24789">
        <ele>132.6</ele>
        <time>2012-10-07T07:48:57Z</time>
      </trkpt>
      <trkpt lat="48.79954" lon="2.24789">
        <ele>132.6</ele>
        <time>2012-10-07T07:49:02Z</time>
      </trkpt>
      <trkpt lat="48.79954" lon="2.24789">
        <ele>132.6</ele>
        <time>2012-10-07T07:49:07Z</time>
      </trkpt>
      <trkpt lat="48.79954" lon="2.24789">
        <ele>133.8</ele>
        <time>2012-10-07T07:49:12Z</time>
      </trkpt>
      <trkpt lat="48.79954" lon="2.24789">
        <ele>134.1</ele>
        <time>2012-10-07T07:49:17Z</time>
      </trkpt>
      <trkpt lat="48.79954" lon="2.24788">
        <ele>134.1</ele>
        <time>2012-10-07T07:49:22Z</time>
      </trkpt>
      <trkpt lat="48.79955" lon="2.24787">
        <ele>135.1</ele>
        <time>2012-10-07T07:49:27Z</time>
      </trkpt>
      <trkpt lat="48.79952" lon="2.24782">
        <ele>135.8</ele>
        <time>2012-10-07T07:49:32Z</time>
      </trkpt>
      <trkpt lat="48.79946" lon="2.24779">
        <ele>136.1</ele>
        <time>2012-10-07T07:49:37Z</time>
      </trkpt>
      <trkpt lat="48.79942" lon="2.24777">
        <ele>136.8</ele>
        <time>2012-10-07T07:49:42Z</time>
      </trkpt>
      <trkpt lat="48.79937" lon="2.24771">
        <ele>137.3</ele>
        <time>2012-10-07T07:49:47Z</time>
      </trkpt>
      <trkpt lat="48.79934" lon="2.24766">
        <ele>137.3</ele>
        <time>2012-10-07T07:49:52Z</time>
      </trkpt>
      <trkpt lat="48.79933" lon="2.24765">
        <ele>137.3</ele>
        <time>2012-10-07T07:49:53Z</time>
      </trkpt>
      <trkpt lat="48.79925" lon="2.24755">
        <ele>139.1</ele>
        <time>2012-10-07T07:50:02Z</time>
      </trkpt>
      <trkpt lat="48.79917" lon="2.24749">
        <ele>139.1</ele>
        <time>2012-10-07T07:50:07Z</time>
      </trkpt>
      <trkpt lat="48.79912" lon="2.24745">
        <ele>140.3</ele>
        <time>2012-10-07T07:50:12Z</time>
      </trkpt>
      <trkpt lat="48.79907" lon="2.24741">
        <ele>140.6</ele>
        <time>2012-10-07T07:50:17Z</time>
      </trkpt>
      <trkpt lat="48.79901" lon="2.24735">
        <ele>142.3</ele>
        <time>2012-10-07T07:50:22Z</time>
      </trkpt>
      <trkpt lat="48.79898" lon="2.2473">
        <ele>143.8</ele>
        <time>2012-10-07T07:50:27Z</time>
      </trkpt>
      <trkpt lat="48.79895" lon="2.24725">
        <ele>144.3</ele>
        <time>2012-10-07T07:50:32Z</time>
      </trkpt>
      <trkpt lat="48.79886" lon="2.24717">
        <ele>144.1</ele>
        <time>2012-10-07T07:50:37Z</time>
      </trkpt>
      <trkpt lat="48.79882" lon="2.24709">
        <ele>144.6</ele>
        <time>2012-10-07T07:50:42Z</time>
      </trkpt>
      <trkpt lat="48.79876" lon="2.24702">
        <ele>145.8</ele>
        <time>2012-10-07T07:50:47Z</time>
      </trkpt>
      <trkpt lat="48.79874" lon="2.24692">
        <ele>146.5</ele>
        <time>2012-10-07T07:50:52Z</time>
      </trkpt>
      <trkpt lat="48.79865" lon="2.24685">
        <ele>145.6</ele>
        <time>2012-10-07T07:50:57Z</time>
      </trkpt>
      <trkpt lat="48.79863" lon="2.24685">
        <ele>144.8</ele>
        <time>2012-10-07T07:50:58Z</time>
      </trkpt>
      <trkpt lat="48.79857" lon="2.24674">
        <ele>146.6</ele>
        <time>2012-10-07T07:51:07Z</time>
      </trkpt>
      <trkpt lat="48.7985" lon="2.24669">
        <ele>149.1</ele>
        <time>2012-10-07T07:51:12Z</time>
      </trkpt>
      <trkpt lat="48.79845" lon="2.24663">
        <ele>148.3</ele>
        <time>2012-10-07T07:51:17Z</time>
      </trkpt>
      <trkpt lat="48.7984" lon="2.24658">
        <ele>149</ele>
        <time>2012-10-07T07:51:22Z</time>
      </trkpt>
      <trkpt lat="48.79833" lon="2.2465">
        <ele>149.6</ele>
        <time>2012-10-07T07:51:27Z</time>
      </trkpt>
      <trkpt lat="48.79825" lon="2.24648">
        <ele>150.3</ele>
        <time>2012-10-07T07:51:32Z</time>
      </trkpt>
      <trkpt lat="48.79817" lon="2.24639">
        <ele>149.8</ele>
        <time>2012-10-07T07:51:37Z</time>
      </trkpt>
      <trkpt lat="48.79815" lon="2.24633">
        <ele>151.3</ele>
        <time>2012-10-07T07:51:42Z</time>
      </trkpt>
      <trkpt lat="48.79814" lon="2.24623">
        <ele>152.8</ele>
        <time>2012-10-07T07:51:47Z</time>
      </trkpt>
      <trkpt lat="48.79809" lon="2.24618">
        <ele>155</ele>
        <time>2012-10-07T07:51:52Z</time>
      </trkpt>
      <trkpt lat="48.79803" lon="2.24614">
        <ele>155.8</ele>
        <time>2012-10-07T07:51:57Z</time>
      </trkpt>
      <trkpt lat="48.79797" lon="2.24604">
        <ele>153.6</ele>
        <time>2012-10-07T07:52:02Z</time>
      </trkpt>
      <trkpt lat="48.79796" lon="2.24603">
        <ele>153.8</ele>
        <time>2012-10-07T07:52:03Z</time>
      </trkpt>
      <trkpt lat="48.7979" lon="2.24586">
        <ele>155.1</ele>
        <time>2012-10-07T07:52:12Z</time>
      </trkpt>
      <trkpt lat="48.79785" lon="2.24581">
        <ele>155.1</ele>
        <time>2012-10-07T07:52:17Z</time>
      </trkpt>
      <trkpt lat="48.79785" lon="2.24575">
        <ele>155.8</ele>
        <time>2012-10-07T07:52:22Z</time>
      </trkpt>
      <trkpt lat="48.79782" lon="2.24569">
        <ele>154.8</ele>
        <time>2012-10-07T07:52:27Z</time>
      </trkpt>
      <trkpt lat="48.79777" lon="2.24563">
        <ele>155.1</ele>
        <time>2012-10-07T07:52:32Z</time>
      </trkpt>
      <trkpt lat="48.79772" lon="2.24558">
        <ele>156.6</ele>
        <time>2012-10-07T07:52:37Z</time>
      </trkpt>
      <trkpt lat="48.79769" lon="2.24548">
        <ele>155.8</ele>
        <time>2012-10-07T07:52:42Z</time>
      </trkpt>
      <trkpt lat="48.79766" lon="2.24542">
        <ele>156.8</ele>
        <time>2012-10-07T07:52:47Z</time>
      </trkpt>
      <trkpt lat="48.7976" lon="2.24533">
        <ele>157.5</ele>
        <time>2012-10-07T07:52:52Z</time>
      </trkpt>
      <trkpt lat="48.79758" lon="2.24527">
        <ele>156.1</ele>
        <time>2012-10-07T07:52:57Z</time>
      </trkpt>
      <trkpt lat="48.79754" lon="2.24516">
        <ele>158</ele>
        <time>2012-10-07T07:53:02Z</time>
      </trkpt>
      <trkpt lat="48.79755" lon="2.24506">
        <ele>159.3</ele>
        <time>2012-10-07T07:53:07Z</time>
      </trkpt>
      <trkpt lat="48.79754" lon="2.24504">
        <ele>159.1</ele>
        <time>2012-10-07T07:53:08Z</time>
      </trkpt>
      <trkpt lat="48.79748" lon="2.2449">
        <ele>157</ele>
        <time>2012-10-07T07:53:17Z</time>
      </trkpt>
      <trkpt lat="48.79742" lon="2.24488">
        <ele>157</ele>
        <time>2012-10-07T07:53:22Z</time>
      </trkpt>
      <trkpt lat="48.79737" lon="2.24477">
        <ele>154.8</ele>
        <time>2012-10-07T07:53:27Z</time>
      </trkpt>
      <trkpt lat="48.7973" lon="2.2447">
        <ele>155.3</ele>
        <time>2012-10-07T07:53:32Z</time>
      </trkpt>
      <trkpt lat="48.79725" lon="2.24466">
        <ele>158</ele>
        <time>2012-10-07T07:53:37Z</time>
      </trkpt>
      <trkpt lat="48.79723" lon="2.24461">
        <ele>158.3</ele>
        <time>2012-10-07T07:53:42Z</time>
      </trkpt>
      <trkpt lat="48.79717" lon="2.24454">
        <ele>156.3</ele>
        <time>2012-10-07T07:53:47Z</time>
      </trkpt>
      <trkpt lat="48.79713" lon="2.24448">
        <ele>157.6</ele>
        <time>2012-10-07T07:53:52Z</time>
      </trkpt>
      <trkpt lat="48.79706" lon="2.2444">
        <ele>158.5</ele>
        <time>2012-10-07T07:53:57Z</time>
      </trkpt>
      <trkpt lat="48.79703" lon="2.2443">
        <ele>157.1</ele>
        <time>2012-10-07T07:54:02Z</time>
      </trkpt>
      <trkpt lat="48.797" lon="2.24423">
        <ele>157.1</ele>
        <time>2012-10-07T07:54:07Z</time>
      </trkpt>
      <trkpt lat="48.79696" lon="2.24413">
        <ele>156.8</ele>
        <time>2012-10-07T07:54:12Z</time>
      </trkpt>
      <trkpt lat="48.79696" lon="2.24413">
        <ele>156.8</ele>
        <time>2012-10-07T07:54:13Z</time>
      </trkpt>
      <trkpt lat="48.79692" lon="2.24409">
        <ele>155.8</ele>
        <time>2012-10-07T07:54:22Z</time>
      </trkpt>
      <trkpt lat="48.79694" lon="2.24405">
        <ele>155.8</ele>
        <time>2012-10-07T07:54:27Z</time>
      </trkpt>
      <trkpt lat="48.79694" lon="2.24405">
        <ele>155.8</ele>
        <time>2012-10-07T07:54:32Z</time>
      </trkpt>
      <trkpt lat="48.79694" lon="2.24405">
        <ele>155.8</ele>
        <time>2012-10-07T07:54:37Z</time>
      </trkpt>
      <trkpt lat="48.79694" lon="2.24405">
        <ele>155.6</ele>
        <time>2012-10-07T07:54:42Z</time>
      </trkpt>
      <trkpt lat="48.79694" lon="2.24405">
        <ele>155.6</ele>
        <time>2012-10-07T07:54:47Z</time>
      </trkpt>
      <trkpt lat="48.79694" lon="2.24405">
        <ele>155.6</ele>
        <time>2012-10-07T07:54:52Z</time>
      </trkpt>
      <trkpt lat="48.79692" lon="2.24405">
        <ele>155.1</ele>
        <time>2012-10-07T07:54:57Z</time>
      </trkpt>
      <trkpt lat="48.79688" lon="2.24406">
        <ele>155</ele>
        <time>2012-10-07T07:55:02Z</time>
      </trkpt>
      <trkpt lat="48.79688" lon="2.24406">
        <ele>153.5</ele>
        <time>2012-10-07T07:55:07Z</time>
      </trkpt>
      <trkpt lat="48.7969" lon="2.24405">
        <ele>152.5</ele>
        <time>2012-10-07T07:55:12Z</time>
      </trkpt>
      <trkpt lat="48.79686" lon="2.24399">
        <ele>153.1</ele>
        <time>2012-10-07T07:55:17Z</time>
      </trkpt>
      <trkpt lat="48.79686" lon="2.24399">
        <ele>153.1</ele>
        <time>2012-10-07T07:55:18Z</time>
      </trkpt>
      <trkpt lat="48.79681" lon="2.24394">
        <ele>152.8</ele>
        <time>2012-10-07T07:55:27Z</time>
      </trkpt>
      <trkpt lat="48.79682" lon="2.24394">
        <ele>152.6</ele>
        <time>2012-10-07T07:55:32Z</time>
      </trkpt>
      <trkpt lat="48.79682" lon="2.24393">
        <ele>152.5</ele>
        <time>2012-10-07T07:55:37Z</time>
      </trkpt>
      <trkpt lat="48.79678" lon="2.24389">
        <ele>153.3</ele>
        <time>2012-10-07T07:55:42Z</time>
      </trkpt>
      <trkpt lat="48.79675" lon="2.24386">
        <ele>154.6</ele>
        <time>2012-10-07T07:55:47Z</time>
      </trkpt>
      <trkpt lat="48.7967" lon="2.2438">
        <ele>154.8</ele>
        <time>2012-10-07T07:55:52Z</time>
      </trkpt>
      <trkpt lat="48.79667" lon="2.24372">
        <ele>154.3</ele>
        <time>2012-10-07T07:55:57Z</time>
      </trkpt>
      <trkpt lat="48.79664" lon="2.24368">
        <ele>154.8</ele>
        <time>2012-10-07T07:56:02Z</time>
      </trkpt>
      <trkpt lat="48.79662" lon="2.24366">
        <ele>156.8</ele>
        <time>2012-10-07T07:56:07Z</time>
      </trkpt>
      <trkpt lat="48.79658" lon="2.24364">
        <ele>156.1</ele>
        <time>2012-10-07T07:56:12Z</time>
      </trkpt>
      <trkpt lat="48.79658" lon="2.24361">
        <ele>155.6</ele>
        <time>2012-10-07T07:56:17Z</time>
      </trkpt>
      <trkpt lat="48.79659" lon="2.24351">
        <ele>155.8</ele>
        <time>2012-10-07T07:56:22Z</time>
      </trkpt>
      <trkpt lat="48.79658" lon="2.2435">
        <ele>155.8</ele>
        <time>2012-10-07T07:56:23Z</time>
      </trkpt>
      <trkpt lat="48.79652" lon="2.24338">
        <ele>152.3</ele>
        <time>2012-10-07T07:56:32Z</time>
      </trkpt>
      <trkpt lat="48.79648" lon="2.2433">
        <ele>151</ele>
        <time>2012-10-07T07:56:37Z</time>
      </trkpt>
      <trkpt lat="48.79644" lon="2.24323">
        <ele>148.5</ele>
        <time>2012-10-07T07:56:42Z</time>
      </trkpt>
      <trkpt lat="48.7964" lon="2.24317">
        <ele>147.6</ele>
        <time>2012-10-07T07:56:47Z</time>
      </trkpt>
      <trkpt lat="48.79636" lon="2.24309">
        <ele>146.5</ele>
        <time>2012-10-07T07:56:52Z</time>
      </trkpt>
      <trkpt lat="48.79636" lon="2.24304">
        <ele>146</ele>
        <time>2012-10-07T07:56:57Z</time>
      </trkpt>
      <trkpt lat="48.79634" lon="2.24298">
        <ele>145.8</ele>
        <time>2012-10-07T07:57:02Z</time>
      </trkpt>
      <trkpt lat="48.7963" lon="2.24294">
        <ele>144.3</ele>
        <time>2012-10-07T07:57:07Z</time>
      </trkpt>
      <trkpt lat="48.7963" lon="2.24287">
        <ele>145.1</ele>
        <time>2012-10-07T07:57:12Z</time>
      </trkpt>
      <trkpt lat="48.79627" lon="2.24281">
        <ele>145.1</ele>
        <time>2012-10-07T07:57:17Z</time>
      </trkpt>
      <trkpt lat="48.79627" lon="2.24275">
        <ele>144.3</ele>
        <time>2012-10-07T07:57:22Z</time>
      </trkpt>
      <trkpt lat="48.79626" lon="2.24264">
        <ele>143.1</ele>
        <time>2012-10-07T07:57:27Z</time>
      </trkpt>
      <trkpt lat="48.79626" lon="2.24262">
        <ele>143.3</ele>
        <time>2012-10-07T07:57:28Z</time>
      </trkpt>
      <trkpt lat="48.79622" lon="2.24251">
        <ele>141.8</ele>
        <time>2012-10-07T07:57:37Z</time>
      </trkpt>
      <trkpt lat="48.7962" lon="2.24249">
        <ele>143.1</ele>
        <time>2012-10-07T07:57:42Z</time>
      </trkpt>
      <trkpt lat="48.79616" lon="2.24245">
        <ele>142.6</ele>
        <time>2012-10-07T07:57:47Z</time>
      </trkpt>
      <trkpt lat="48.79617" lon="2.24238">
        <ele>142.8</ele>
        <time>2012-10-07T07:57:52Z</time>
      </trkpt>
      <trkpt lat="48.79616" lon="2.24233">
        <ele>144.1</ele>
        <time>2012-10-07T07:57:57Z</time>
      </trkpt>
      <trkpt lat="48.79614" lon="2.24225">
        <ele>144.1</ele>
        <time>2012-10-07T07:58:02Z</time>
      </trkpt>
      <trkpt lat="48.79612" lon="2.24223">
        <ele>144.1</ele>
        <time>2012-10-07T07:58:07Z</time>
      </trkpt>
      <trkpt lat="48.79612" lon="2.24222">
        <ele>144.1</ele>
        <time>2012-10-07T07:58:12Z</time>
      </trkpt>
      <trkpt lat="48.79612" lon="2.24216">
        <ele>141.3</ele>
        <time>2012-10-07T07:58:17Z</time>
      </trkpt>
      <trkpt lat="48.79607" lon="2.24213">
        <ele>142.5</ele>
        <time>2012-10-07T07:58:22Z</time>
      </trkpt>
      <trkpt lat="48.79603" lon="2.24211">
        <ele>143</ele>
        <time>2012-10-07T07:58:27Z</time>
      </trkpt>
      <trkpt lat="48.79601" lon="2.24208">
        <ele>141.1</ele>
        <time>2012-10-07T07:58:32Z</time>
      </trkpt>
      <trkpt lat="48.79601" lon="2.24208">
        <ele>141.1</ele>
        <time>2012-10-07T07:58:33Z</time>
      </trkpt>
      <trkpt lat="48.796" lon="2.24207">
        <ele>141.1</ele>
        <time>2012-10-07T07:58:42Z</time>
      </trkpt>
      <trkpt lat="48.79601" lon="2.24202">
        <ele>141.3</ele>
        <time>2012-10-07T07:58:47Z</time>
      </trkpt>
      <trkpt lat="48.79599" lon="2.24197">
        <ele>139.6</ele>
        <time>2012-10-07T07:58:52Z</time>
      </trkpt>
      <trkpt lat="48.79596" lon="2.24196">
        <ele>138.8</ele>
        <time>2012-10-07T07:58:57Z</time>
      </trkpt>
      <trkpt lat="48.79594" lon="2.2419">
        <ele>138.5</ele>
        <time>2012-10-07T07:59:02Z</time>
      </trkpt>
      <trkpt lat="48.79593" lon="2.24188">
        <ele>137.8</ele>
        <time>2012-10-07T07:59:07Z</time>
      </trkpt>
      <trkpt lat="48.7959" lon="2.24184">
        <ele>136.8</ele>
        <time>2012-10-07T07:59:12Z</time>
      </trkpt>
      <trkpt lat="48.79584" lon="2.24183">
        <ele>135.1</ele>
        <time>2012-10-07T07:59:17Z</time>
      </trkpt>
      <trkpt lat="48.79582" lon="2.24179">
        <ele>133.8</ele>
        <time>2012-10-07T07:59:22Z</time>
      </trkpt>
      <trkpt lat="48.79579" lon="2.24175">
        <ele>133.5</ele>
        <time>2012-10-07T07:59:27Z</time>
      </trkpt>
      <trkpt lat="48.79578" lon="2.24174">
        <ele>132.8</ele>
        <time>2012-10-07T07:59:32Z</time>
      </trkpt>
      <trkpt lat="48.79576" lon="2.24172">
        <ele>131.1</ele>
        <time>2012-10-07T07:59:37Z</time>
      </trkpt>
      <trkpt lat="48.79576" lon="2.24172">
        <ele>131.1</ele>
        <time>2012-10-07T07:59:38Z</time>
      </trkpt>
      <trkpt lat="48.7957" lon="2.24157">
        <ele>128.3</ele>
        <time>2012-10-07T07:59:47Z</time>
      </trkpt>
      <trkpt lat="48.79568" lon="2.24157">
        <ele>127.5</ele>
        <time>2012-10-07T07:59:52Z</time>
      </trkpt>
      <trkpt lat="48.79568" lon="2.24157">
        <ele>127.5</ele>
        <time>2012-10-07T07:59:57Z</time>
      </trkpt>
      <trkpt lat="48.79564" lon="2.24154">
        <ele>128.3</ele>
        <time>2012-10-07T08:00:02Z</time>
      </trkpt>
      <trkpt lat="48.79564" lon="2.24154">
        <ele>128.3</ele>
        <time>2012-10-07T08:00:07Z</time>
      </trkpt>
      <trkpt lat="48.79564" lon="2.2415">
        <ele>126.9</ele>
        <time>2012-10-07T08:00:12Z</time>
      </trkpt>
      <trkpt lat="48.79566" lon="2.24144">
        <ele>123.6</ele>
        <time>2012-10-07T08:00:17Z</time>
      </trkpt>
      <trkpt lat="48.79566" lon="2.24144">
        <ele>123.6</ele>
        <time>2012-10-07T08:00:22Z</time>
      </trkpt>
      <trkpt lat="48.79566" lon="2.24144">
        <ele>123.6</ele>
        <time>2012-10-07T08:00:27Z</time>
      </trkpt>
      <trkpt lat="48.79566" lon="2.24144">
        <ele>123.8</ele>
        <time>2012-10-07T08:00:32Z</time>
      </trkpt>
      <trkpt lat="48.79566" lon="2.24144">
        <ele>123.8</ele>
        <time>2012-10-07T08:00:37Z</time>
      </trkpt>
      <trkpt lat="48.79566" lon="2.24143">
        <ele>123.9</ele>
        <time>2012-10-07T08:00:42Z</time>
      </trkpt>
      <trkpt lat="48.79566" lon="2.24143">
        <ele>123.9</ele>
        <time>2012-10-07T08:00:43Z</time>
      </trkpt>
      <trkpt lat="48.79571" lon="2.24134">
        <ele>122.6</ele>
        <time>2012-10-07T08:00:52Z</time>
      </trkpt>
      <trkpt lat="48.79576" lon="2.24128">
        <ele>125</ele>
        <time>2012-10-07T08:00:57Z</time>
      </trkpt>
      <trkpt lat="48.79579" lon="2.24127">
        <ele>127</ele>
        <time>2012-10-07T08:01:02Z</time>
      </trkpt>
      <trkpt lat="48.79582" lon="2.24124">
        <ele>125</ele>
        <time>2012-10-07T08:01:07Z</time>
      </trkpt>
      <trkpt lat="48.79582" lon="2.24121">
        <ele>127.1</ele>
        <time>2012-10-07T08:01:12Z</time>
      </trkpt>
      <trkpt lat="48.79583" lon="2.2412">
        <ele>129.6</ele>
        <time>2012-10-07T08:01:17Z</time>
      </trkpt>
      <trkpt lat="48.79587" lon="2.2412">
        <ele>128.3</ele>
        <time>2012-10-07T08:01:22Z</time>
      </trkpt>
      <trkpt lat="48.79591" lon="2.24122">
        <ele>129.5</ele>
        <time>2012-10-07T08:01:27Z</time>
      </trkpt>
      <trkpt lat="48.79595" lon="2.24123">
        <ele>131</ele>
        <time>2012-10-07T08:01:32Z</time>
      </trkpt>
      <trkpt lat="48.79598" lon="2.24128">
        <ele>130</ele>
        <time>2012-10-07T08:01:37Z</time>
      </trkpt>
      <trkpt lat="48.796" lon="2.24126">
        <ele>131.8</ele>
        <time>2012-10-07T08:01:42Z</time>
      </trkpt>
      <trkpt lat="48.796" lon="2.24126">
        <ele>131.6</ele>
        <time>2012-10-07T08:01:47Z</time>
      </trkpt>
      <trkpt lat="48.796" lon="2.24126">
        <ele>131.6</ele>
        <time>2012-10-07T08:01:48Z</time>
      </trkpt>
      <trkpt lat="48.79601" lon="2.24125">
        <ele>131.8</ele>
        <time>2012-10-07T08:01:57Z</time>
      </trkpt>
      <trkpt lat="48.79601" lon="2.24124">
        <ele>131.5</ele>
        <time>2012-10-07T08:02:02Z</time>
      </trkpt>
      <trkpt lat="48.79601" lon="2.24124">
        <ele>131.5</ele>
        <time>2012-10-07T08:02:07Z</time>
      </trkpt>
      <trkpt lat="48.79601" lon="2.24124">
        <ele>131.6</ele>
        <time>2012-10-07T08:02:12Z</time>
      </trkpt>
      <trkpt lat="48.79601" lon="2.24123">
        <ele>131.8</ele>
        <time>2012-10-07T08:02:17Z</time>
      </trkpt>
      <trkpt lat="48.79601" lon="2.24122">
        <ele>131.8</ele>
        <time>2012-10-07T08:02:22Z</time>
      </trkpt>
      <trkpt lat="48.79601" lon="2.24122">
        <ele>132.1</ele>
        <time>2012-10-07T08:02:27Z</time>
      </trkpt>
      <trkpt lat="48.79599" lon="2.24116">
        <ele>130.6</ele>
        <time>2012-10-07T08:02:32Z</time>
      </trkpt>
      <trkpt lat="48.79598" lon="2.24112">
        <ele>131.6</ele>
        <time>2012-10-07T08:02:37Z</time>
      </trkpt>
      <trkpt lat="48.79598" lon="2.24101">
        <ele>129.3</ele>
        <time>2012-10-07T08:02:42Z</time>
      </trkpt>
      <trkpt lat="48.796" lon="2.24092">
        <ele>127.5</ele>
        <time>2012-10-07T08:02:47Z</time>
      </trkpt>
      <trkpt lat="48.79611" lon="2.24075">
        <ele>126.6</ele>
        <time>2012-10-07T08:02:52Z</time>
      </trkpt>
      <trkpt lat="48.79613" lon="2.24073">
        <ele>126.4</ele>
        <time>2012-10-07T08:02:53Z</time>
      </trkpt>
      <trkpt lat="48.79618" lon="2.24061">
        <ele>127.3</ele>
        <time>2012-10-07T08:03:02Z</time>
      </trkpt>
      <trkpt lat="48.79622" lon="2.24058">
        <ele>127</ele>
        <time>2012-10-07T08:03:07Z</time>
      </trkpt>
      <trkpt lat="48.79622" lon="2.24058">
        <ele>127</ele>
        <time>2012-10-07T08:03:12Z</time>
      </trkpt>
      <trkpt lat="48.79622" lon="2.24058">
        <ele>126.4</ele>
        <time>2012-10-07T08:03:17Z</time>
      </trkpt>
      <trkpt lat="48.79623" lon="2.24056">
        <ele>126.8</ele>
        <time>2012-10-07T08:03:22Z</time>
      </trkpt>
      <trkpt lat="48.79626" lon="2.24058">
        <ele>126.1</ele>
        <time>2012-10-07T08:03:27Z</time>
      </trkpt>
      <trkpt lat="48.79627" lon="2.24058">
        <ele>125.3</ele>
        <time>2012-10-07T08:03:32Z</time>
      </trkpt>
      <trkpt lat="48.79627" lon="2.24056">
        <ele>125</ele>
        <time>2012-10-07T08:03:37Z</time>
      </trkpt>
      <trkpt lat="48.79627" lon="2.24055">
        <ele>125.1</ele>
        <time>2012-10-07T08:03:42Z</time>
      </trkpt>
      <trkpt lat="48.79626" lon="2.24052">
        <ele>124.4</ele>
        <time>2012-10-07T08:03:47Z</time>
      </trkpt>
      <trkpt lat="48.79624" lon="2.24048">
        <ele>122.6</ele>
        <time>2012-10-07T08:03:52Z</time>
      </trkpt>
      <trkpt lat="48.79625" lon="2.24046">
        <ele>122.4</ele>
        <time>2012-10-07T08:03:57Z</time>
      </trkpt>
      <trkpt lat="48.79626" lon="2.24043">
        <ele>122.9</ele>
        <time>2012-10-07T08:03:58Z</time>
      </trkpt>
      <trkpt lat="48.79641" lon="2.24022">
        <ele>121.9</ele>
        <time>2012-10-07T08:04:07Z</time>
      </trkpt>
      <trkpt lat="48.79642" lon="2.24019">
        <ele>122.5</ele>
        <time>2012-10-07T08:04:12Z</time>
      </trkpt>
      <trkpt lat="48.79653" lon="2.24003">
        <ele>124.9</ele>
        <time>2012-10-07T08:04:17Z</time>
      </trkpt>
      <trkpt lat="48.79658" lon="2.23993">
        <ele>125.3</ele>
        <time>2012-10-07T08:04:22Z</time>
      </trkpt>
      <trkpt lat="48.79667" lon="2.23982">
        <ele>124.4</ele>
        <time>2012-10-07T08:04:27Z</time>
      </trkpt>
      <trkpt lat="48.79676" lon="2.23973">
        <ele>122.5</ele>
        <time>2012-10-07T08:04:32Z</time>
      </trkpt>
      <trkpt lat="48.79683" lon="2.23966">
        <ele>121.6</ele>
        <time>2012-10-07T08:04:37Z</time>
      </trkpt>
      <trkpt lat="48.79689" lon="2.23959">
        <ele>119.6</ele>
        <time>2012-10-07T08:04:42Z</time>
      </trkpt>
      <trkpt lat="48.79687" lon="2.23954">
        <ele>116.6</ele>
        <time>2012-10-07T08:04:47Z</time>
      </trkpt>
      <trkpt lat="48.79686" lon="2.23952">
        <ele>111.6</ele>
        <time>2012-10-07T08:04:52Z</time>
      </trkpt>
      <trkpt lat="48.79686" lon="2.23952">
        <ele>111.5</ele>
        <time>2012-10-07T08:04:57Z</time>
      </trkpt>
      <trkpt lat="48.79686" lon="2.23952">
        <ele>110.5</ele>
        <time>2012-10-07T08:05:02Z</time>
      </trkpt>
      <trkpt lat="48.79686" lon="2.23952">
        <ele>110.5</ele>
        <time>2012-10-07T08:05:03Z</time>
      </trkpt>
      <trkpt lat="48.79686" lon="2.23952">
        <ele>110.5</ele>
        <time>2012-10-07T08:05:12Z</time>
      </trkpt>
      <trkpt lat="48.79686" lon="2.23952">
        <ele>110.5</ele>
        <time>2012-10-07T08:05:17Z</time>
      </trkpt>
      <trkpt lat="48.79686" lon="2.23952">
        <ele>110.8</ele>
        <time>2012-10-07T08:05:22Z</time>
      </trkpt>
      <trkpt lat="48.79686" lon="2.23952">
        <ele>110.8</ele>
        <time>2012-10-07T08:05:27Z</time>
      </trkpt>
      <trkpt lat="48.79686" lon="2.23952">
        <ele>110.8</ele>
        <time>2012-10-07T08:05:32Z</time>
      </trkpt>
      <trkpt lat="48.79686" lon="2.23952">
        <ele>110.8</ele>
        <time>2012-10-07T08:05:37Z</time>
      </trkpt>
      <trkpt lat="48.79686" lon="2.23952">
        <ele>110.8</ele>
        <time>2012-10-07T08:05:42Z</time>
      </trkpt>
      <trkpt lat="48.79686" lon="2.23952">
        <ele>110.8</ele>
        <time>2012-10-07T08:05:47Z</time>
      </trkpt>
      <trkpt lat="48.79686" lon="2.23952">
        <ele>110.8</ele>
        <time>2012-10-07T08:05:52Z</time>
      </trkpt>
      <trkpt lat="48.79685" lon="2.23953">
        <ele>110.1</ele>
        <time>2012-10-07T08:05:57Z</time>
      </trkpt>
      <trkpt lat="48.79686" lon="2.23952">
        <ele>111</ele>
        <time>2012-10-07T08:06:02Z</time>
      </trkpt>
      <trkpt lat="48.79686" lon="2.23952">
        <ele>111</ele>
        <time>2012-10-07T08:06:07Z</time>
      </trkpt>
      <trkpt lat="48.79686" lon="2.23952">
        <ele>111</ele>
        <time>2012-10-07T08:06:08Z</time>
      </trkpt>
      <trkpt lat="48.79687" lon="2.23952">
        <ele>110.5</ele>
        <time>2012-10-07T08:06:17Z</time>
      </trkpt>
      <trkpt lat="48.79687" lon="2.23952">
        <ele>110.5</ele>
        <time>2012-10-07T08:06:22Z</time>
      </trkpt>
      <trkpt lat="48.79687" lon="2.23952">
        <ele>110.5</ele>
        <time>2012-10-07T08:06:27Z</time>
      </trkpt>
      <trkpt lat="48.79688" lon="2.23951">
        <ele>109.5</ele>
        <time>2012-10-07T08:06:32Z</time>
      </trkpt>
      <trkpt lat="48.79688" lon="2.23951">
        <ele>109.5</ele>
        <time>2012-10-07T08:06:37Z</time>
      </trkpt>
      <trkpt lat="48.79688" lon="2.23951">
        <ele>109.5</ele>
        <time>2012-10-07T08:06:42Z</time>
      </trkpt>
      <trkpt lat="48.79689" lon="2.2395">
        <ele>109.6</ele>
        <time>2012-10-07T08:06:47Z</time>
      </trkpt>
      <trkpt lat="48.79691" lon="2.23949">
        <ele>108.5</ele>
        <time>2012-10-07T08:06:52Z</time>
      </trkpt>
      <trkpt lat="48.79691" lon="2.23947">
        <ele>107.6</ele>
        <time>2012-10-07T08:06:57Z</time>
      </trkpt>
      <trkpt lat="48.79691" lon="2.2394">
        <ele>105.5</ele>
        <time>2012-10-07T08:07:02Z</time>
      </trkpt>
      <trkpt lat="48.79692" lon="2.2393">
        <ele>108.8</ele>
        <time>2012-10-07T08:07:07Z</time>
      </trkpt>
      <trkpt lat="48.79687" lon="2.23922">
        <ele>109.3</ele>
        <time>2012-10-07T08:07:12Z</time>
      </trkpt>
      <trkpt lat="48.79687" lon="2.23922">
        <ele>109.3</ele>
        <time>2012-10-07T08:07:13Z</time>
      </trkpt>
      <trkpt lat="48.79685" lon="2.23912">
        <ele>110.3</ele>
        <time>2012-10-07T08:07:22Z</time>
      </trkpt>
      <trkpt lat="48.79681" lon="2.23896">
        <ele>109</ele>
        <time>2012-10-07T08:07:27Z</time>
      </trkpt>
      <trkpt lat="48.79681" lon="2.23887">
        <ele>109.1</ele>
        <time>2012-10-07T08:07:32Z</time>
      </trkpt>
      <trkpt lat="48.7968" lon="2.2388">
        <ele>109.4</ele>
        <time>2012-10-07T08:07:37Z</time>
      </trkpt>
      <trkpt lat="48.79678" lon="2.23875">
        <ele>111.5</ele>
        <time>2012-10-07T08:07:42Z</time>
      </trkpt>
      <trkpt lat="48.79679" lon="2.23864">
        <ele>111</ele>
        <time>2012-10-07T08:07:47Z</time>
      </trkpt>
      <trkpt lat="48.79676" lon="2.23864">
        <ele>108.9</ele>
        <time>2012-10-07T08:07:52Z</time>
      </trkpt>
      <trkpt lat="48.79674" lon="2.23852">
        <ele>110.3</ele>
        <time>2012-10-07T08:07:57Z</time>
      </trkpt>
      <trkpt lat="48.79671" lon="2.2384">
        <ele>106</ele>
        <time>2012-10-07T08:08:02Z</time>
      </trkpt>
      <trkpt lat="48.79671" lon="2.23836">
        <ele>107</ele>
        <time>2012-10-07T08:08:07Z</time>
      </trkpt>
      <trkpt lat="48.79672" lon="2.23828">
        <ele>104</ele>
        <time>2012-10-07T08:08:12Z</time>
      </trkpt>
      <trkpt lat="48.79669" lon="2.23821">
        <ele>105</ele>
        <time>2012-10-07T08:08:17Z</time>
      </trkpt>
      <trkpt lat="48.79669" lon="2.23819">
        <ele>104.8</ele>
        <time>2012-10-07T08:08:18Z</time>
      </trkpt>
      <trkpt lat="48.79669" lon="2.23811">
        <ele>102</ele>
        <time>2012-10-07T08:08:27Z</time>
      </trkpt>
      <trkpt lat="48.79673" lon="2.23806">
        <ele>102.1</ele>
        <time>2012-10-07T08:08:32Z</time>
      </trkpt>
      <trkpt lat="48.79673" lon="2.23806">
        <ele>102.1</ele>
        <time>2012-10-07T08:08:37Z</time>
      </trkpt>
      <trkpt lat="48.79674" lon="2.23805">
        <ele>101.8</ele>
        <time>2012-10-07T08:08:42Z</time>
      </trkpt>
      <trkpt lat="48.79675" lon="2.23804">
        <ele>101.9</ele>
        <time>2012-10-07T08:08:47Z</time>
      </trkpt>
      <trkpt lat="48.79675" lon="2.23803">
        <ele>101.4</ele>
        <time>2012-10-07T08:08:52Z</time>
      </trkpt>
      <trkpt lat="48.79675" lon="2.23803">
        <ele>101.4</ele>
        <time>2012-10-07T08:08:57Z</time>
      </trkpt>
      <trkpt lat="48.79675" lon="2.23803">
        <ele>101.4</ele>
        <time>2012-10-07T08:09:02Z</time>
      </trkpt>
      <trkpt lat="48.79675" lon="2.23803">
        <ele>101.4</ele>
        <time>2012-10-07T08:09:07Z</time>
      </trkpt>
      <trkpt lat="48.79675" lon="2.23803">
        <ele>101.4</ele>
        <time>2012-10-07T08:09:12Z</time>
      </trkpt>
      <trkpt lat="48.79675" lon="2.23803">
        <ele>101.4</ele>
        <time>2012-10-07T08:09:17Z</time>
      </trkpt>
      <trkpt lat="48.79675" lon="2.23803">
        <ele>101.4</ele>
        <time>2012-10-07T08:09:22Z</time>
      </trkpt>
      <trkpt lat="48.79675" lon="2.23803">
        <ele>101.4</ele>
        <time>2012-10-07T08:09:23Z</time>
      </trkpt>
      <trkpt lat="48.79675" lon="2.23803">
        <ele>101.4</ele>
        <time>2012-10-07T08:09:32Z</time>
      </trkpt>
      <trkpt lat="48.79675" lon="2.23803">
        <ele>101.4</ele>
        <time>2012-10-07T08:09:37Z</time>
      </trkpt>
      <trkpt lat="48.79675" lon="2.23803">
        <ele>101.4</ele>
        <time>2012-10-07T08:09:42Z</time>
      </trkpt>
      <trkpt lat="48.79672" lon="2.23799">
        <ele>101.1</ele>
        <time>2012-10-07T08:09:47Z</time>
      </trkpt>
      <trkpt lat="48.79669" lon="2.23791">
        <ele>102.3</ele>
        <time>2012-10-07T08:09:52Z</time>
      </trkpt>
      <trkpt lat="48.79663" lon="2.23786">
        <ele>103.9</ele>
        <time>2012-10-07T08:09:57Z</time>
      </trkpt>
      <trkpt lat="48.79655" lon="2.2378">
        <ele>105.6</ele>
        <time>2012-10-07T08:10:02Z</time>
      </trkpt>
      <trkpt lat="48.79648" lon="2.23776">
        <ele>108.3</ele>
        <time>2012-10-07T08:10:07Z</time>
      </trkpt>
      <trkpt lat="48.79645" lon="2.23771">
        <ele>108</ele>
        <time>2012-10-07T08:10:12Z</time>
      </trkpt>
      <trkpt lat="48.79642" lon="2.23762">
        <ele>108.8</ele>
        <time>2012-10-07T08:10:17Z</time>
      </trkpt>
      <trkpt lat="48.79633" lon="2.23756">
        <ele>111.4</ele>
        <time>2012-10-07T08:10:22Z</time>
      </trkpt>
      <trkpt lat="48.79632" lon="2.23754">
        <ele>112.3</ele>
        <time>2012-10-07T08:10:27Z</time>
      </trkpt>
      <trkpt lat="48.79631" lon="2.23752">
        <ele>112.8</ele>
        <time>2012-10-07T08:10:28Z</time>
      </trkpt>
      <trkpt lat="48.79623" lon="2.23738">
        <ele>113.3</ele>
        <time>2012-10-07T08:10:37Z</time>
      </trkpt>
      <trkpt lat="48.79615" lon="2.23726">
        <ele>113.5</ele>
        <time>2012-10-07T08:10:42Z</time>
      </trkpt>
      <trkpt lat="48.7961" lon="2.23717">
        <ele>114.5</ele>
        <time>2012-10-07T08:10:47Z</time>
      </trkpt>
      <trkpt lat="48.79601" lon="2.23711">
        <ele>117.4</ele>
        <time>2012-10-07T08:10:52Z</time>
      </trkpt>
      <trkpt lat="48.79593" lon="2.23708">
        <ele>118.5</ele>
        <time>2012-10-07T08:10:57Z</time>
      </trkpt>
      <trkpt lat="48.79584" lon="2.23702">
        <ele>121.1</ele>
        <time>2012-10-07T08:11:02Z</time>
      </trkpt>
      <trkpt lat="48.7958" lon="2.23699">
        <ele>122.1</ele>
        <time>2012-10-07T08:11:07Z</time>
      </trkpt>
      <trkpt lat="48.79578" lon="2.23686">
        <ele>122.6</ele>
        <time>2012-10-07T08:11:12Z</time>
      </trkpt>
      <trkpt lat="48.79574" lon="2.23678">
        <ele>123.4</ele>
        <time>2012-10-07T08:11:17Z</time>
      </trkpt>
      <trkpt lat="48.79569" lon="2.23665">
        <ele>122.5</ele>
        <time>2012-10-07T08:11:22Z</time>
      </trkpt>
      <trkpt lat="48.79568" lon="2.23656">
        <ele>122.8</ele>
        <time>2012-10-07T08:11:27Z</time>
      </trkpt>
      <trkpt lat="48.79563" lon="2.23652">
        <ele>121.9</ele>
        <time>2012-10-07T08:11:32Z</time>
      </trkpt>
      <trkpt lat="48.79562" lon="2.23651">
        <ele>122</ele>
        <time>2012-10-07T08:11:33Z</time>
      </trkpt>
      <trkpt lat="48.79555" lon="2.23643">
        <ele>122.5</ele>
        <time>2012-10-07T08:11:42Z</time>
      </trkpt>
      <trkpt lat="48.79553" lon="2.23639">
        <ele>122.4</ele>
        <time>2012-10-07T08:11:47Z</time>
      </trkpt>
      <trkpt lat="48.79553" lon="2.23639">
        <ele>122.4</ele>
        <time>2012-10-07T08:11:52Z</time>
      </trkpt>
      <trkpt lat="48.79553" lon="2.23636">
        <ele>121.1</ele>
        <time>2012-10-07T08:11:57Z</time>
      </trkpt>
      <trkpt lat="48.79553" lon="2.23636">
        <ele>120</ele>
        <time>2012-10-07T08:12:02Z</time>
      </trkpt>
      <trkpt lat="48.79552" lon="2.23636">
        <ele>119</ele>
        <time>2012-10-07T08:12:07Z</time>
      </trkpt>
      <trkpt lat="48.79552" lon="2.23636">
        <ele>119</ele>
        <time>2012-10-07T08:12:12Z</time>
      </trkpt>
      <trkpt lat="48.79552" lon="2.23636">
        <ele>119</ele>
        <time>2012-10-07T08:12:17Z</time>
      </trkpt>
      <trkpt lat="48.79552" lon="2.23636">
        <ele>119</ele>
        <time>2012-10-07T08:12:22Z</time>
      </trkpt>
      <trkpt lat="48.79552" lon="2.23636">
        <ele>119</ele>
        <time>2012-10-07T08:12:27Z</time>
      </trkpt>
      <trkpt lat="48.79552" lon="2.23636">
        <ele>119</ele>
        <time>2012-10-07T08:12:32Z</time>
      </trkpt>
      <trkpt lat="48.79552" lon="2.23636">
        <ele>119</ele>
        <time>2012-10-07T08:12:37Z</time>
      </trkpt>
      <trkpt lat="48.79552" lon="2.23636">
        <ele>119</ele>
        <time>2012-10-07T08:12:38Z</time>
      </trkpt>
      <trkpt lat="48.79552" lon="2.23636">
        <ele>119</ele>
        <time>2012-10-07T08:12:47Z</time>
      </trkpt>
      <trkpt lat="48.79552" lon="2.23636">
        <ele>119.4</ele>
        <time>2012-10-07T08:12:52Z</time>
      </trkpt>
      <trkpt lat="48.79552" lon="2.23636">
        <ele>119.4</ele>
        <time>2012-10-07T08:12:57Z</time>
      </trkpt>
      <trkpt lat="48.79552" lon="2.23636">
        <ele>119.4</ele>
        <time>2012-10-07T08:13:02Z</time>
      </trkpt>
      <trkpt lat="48.79551" lon="2.23636">
        <ele>117.5</ele>
        <time>2012-10-07T08:13:07Z</time>
      </trkpt>
      <trkpt lat="48.79551" lon="2.23636">
        <ele>117.5</ele>
        <time>2012-10-07T08:13:12Z</time>
      </trkpt>
      <trkpt lat="48.79551" lon="2.23636">
        <ele>117.5</ele>
        <time>2012-10-07T08:13:17Z</time>
      </trkpt>
      <trkpt lat="48.79551" lon="2.23636">
        <ele>116.4</ele>
        <time>2012-10-07T08:13:22Z</time>
      </trkpt>
      <trkpt lat="48.79551" lon="2.23636">
        <ele>115.8</ele>
        <time>2012-10-07T08:13:27Z</time>
      </trkpt>
      <trkpt lat="48.79551" lon="2.23636">
        <ele>115.8</ele>
        <time>2012-10-07T08:13:32Z</time>
      </trkpt>
      <trkpt lat="48.79551" lon="2.23636">
        <ele>115.8</ele>
        <time>2012-10-07T08:13:37Z</time>
      </trkpt>
      <trkpt lat="48.79551" lon="2.23636">
        <ele>115.8</ele>
        <time>2012-10-07T08:13:42Z</time>
      </trkpt>
      <trkpt lat="48.79551" lon="2.23636">
        <ele>115.8</ele>
        <time>2012-10-07T08:13:43Z</time>
      </trkpt>
      <trkpt lat="48.79552" lon="2.23636">
        <ele>116</ele>
        <time>2012-10-07T08:13:52Z</time>
      </trkpt>
      <trkpt lat="48.79552" lon="2.23636">
        <ele>116</ele>
        <time>2012-10-07T08:13:57Z</time>
      </trkpt>
      <trkpt lat="48.79552" lon="2.23636">
        <ele>116</ele>
        <time>2012-10-07T08:14:02Z</time>
      </trkpt>
      <trkpt lat="48.79552" lon="2.23637">
        <ele>115.6</ele>
        <time>2012-10-07T08:14:07Z</time>
      </trkpt>
      <trkpt lat="48.79552" lon="2.23637">
        <ele>115.6</ele>
        <time>2012-10-07T08:14:12Z</time>
      </trkpt>
      <trkpt lat="48.79553" lon="2.23637">
        <ele>116.8</ele>
        <time>2012-10-07T08:14:17Z</time>
      </trkpt>
      <trkpt lat="48.79554" lon="2.23637">
        <ele>116.8</ele>
        <time>2012-10-07T08:14:22Z</time>
      </trkpt>
      <trkpt lat="48.79554" lon="2.23637">
        <ele>116.8</ele>
        <time>2012-10-07T08:14:27Z</time>
      </trkpt>
      <trkpt lat="48.79554" lon="2.23637">
        <ele>116.8</ele>
        <time>2012-10-07T08:14:32Z</time>
      </trkpt>
      <trkpt lat="48.79554" lon="2.23637">
        <ele>116.8</ele>
        <time>2012-10-07T08:14:37Z</time>
      </trkpt>
      <trkpt lat="48.79553" lon="2.23639">
        <ele>114.6</ele>
        <time>2012-10-07T08:14:42Z</time>
      </trkpt>
      <trkpt lat="48.79554" lon="2.2364">
        <ele>113</ele>
        <time>2012-10-07T08:14:47Z</time>
      </trkpt>
      <trkpt lat="48.79554" lon="2.2364">
        <ele>113</ele>
        <time>2012-10-07T08:14:48Z</time>
      </trkpt>
      <trkpt lat="48.79554" lon="2.2364">
        <ele>113</ele>
        <time>2012-10-07T08:14:57Z</time>
      </trkpt>
      <trkpt lat="48.79554" lon="2.2364">
        <ele>113</ele>
        <time>2012-10-07T08:15:02Z</time>
      </trkpt>
      <trkpt lat="48.79554" lon="2.2364">
        <ele>113</ele>
        <time>2012-10-07T08:15:07Z</time>
      </trkpt>
      <trkpt lat="48.79554" lon="2.23639">
        <ele>111.1</ele>
        <time>2012-10-07T08:15:12Z</time>
      </trkpt>
      <trkpt lat="48.79554" lon="2.23639">
        <ele>109.9</ele>
        <time>2012-10-07T08:15:17Z</time>
      </trkpt>
      <trkpt lat="48.79555" lon="2.23639">
        <ele>109.6</ele>
        <time>2012-10-07T08:15:22Z</time>
      </trkpt>
      <trkpt lat="48.79555" lon="2.23639">
        <ele>109.4</ele>
        <time>2012-10-07T08:15:27Z</time>
      </trkpt>
      <trkpt lat="48.79556" lon="2.23638">
        <ele>110.6</ele>
        <time>2012-10-07T08:15:32Z</time>
      </trkpt>
      <trkpt lat="48.79556" lon="2.23638">
        <ele>110</ele>
        <time>2012-10-07T08:15:37Z</time>
      </trkpt>
      <trkpt lat="48.79554" lon="2.2364">
        <ele>107.9</ele>
        <time>2012-10-07T08:15:42Z</time>
      </trkpt>
      <trkpt lat="48.79553" lon="2.23641">
        <ele>107.4</ele>
        <time>2012-10-07T08:15:47Z</time>
      </trkpt>
      <trkpt lat="48.79554" lon="2.23638">
        <ele>107</ele>
        <time>2012-10-07T08:15:52Z</time>
      </trkpt>
      <trkpt lat="48.79555" lon="2.23636">
        <ele>107</ele>
        <time>2012-10-07T08:15:53Z</time>
      </trkpt>
      <trkpt lat="48.7955" lon="2.23623">
        <ele>107.6</ele>
        <time>2012-10-07T08:16:02Z</time>
      </trkpt>
      <trkpt lat="48.79547" lon="2.23614">
        <ele>108.6</ele>
        <time>2012-10-07T08:16:07Z</time>
      </trkpt>
      <trkpt lat="48.79544" lon="2.23604">
        <ele>108.1</ele>
        <time>2012-10-07T08:16:12Z</time>
      </trkpt>
      <trkpt lat="48.79543" lon="2.23597">
        <ele>110.4</ele>
        <time>2012-10-07T08:16:17Z</time>
      </trkpt>
      <trkpt lat="48.79543" lon="2.23588">
        <ele>109.9</ele>
        <time>2012-10-07T08:16:22Z</time>
      </trkpt>
      <trkpt lat="48.79544" lon="2.23575">
        <ele>109.9</ele>
        <time>2012-10-07T08:16:27Z</time>
      </trkpt>
      <trkpt lat="48.79544" lon="2.23567">
        <ele>109.9</ele>
        <time>2012-10-07T08:16:32Z</time>
      </trkpt>
      <trkpt lat="48.79542" lon="2.23556">
        <ele>109.6</ele>
        <time>2012-10-07T08:16:37Z</time>
      </trkpt>
      <trkpt lat="48.7954" lon="2.23544">
        <ele>110.1</ele>
        <time>2012-10-07T08:16:42Z</time>
      </trkpt>
      <trkpt lat="48.79542" lon="2.23533">
        <ele>113.3</ele>
        <time>2012-10-07T08:16:47Z</time>
      </trkpt>
      <trkpt lat="48.79542" lon="2.23526">
        <ele>113.3</ele>
        <time>2012-10-07T08:16:52Z</time>
      </trkpt>
      <trkpt lat="48.79542" lon="2.23516">
        <ele>113</ele>
        <time>2012-10-07T08:16:57Z</time>
      </trkpt>
      <trkpt lat="48.79542" lon="2.23515">
        <ele>112.8</ele>
        <time>2012-10-07T08:16:58Z</time>
      </trkpt>
      <trkpt lat="48.79538" lon="2.23497">
        <ele>110.5</ele>
        <time>2012-10-07T08:17:07Z</time>
      </trkpt>
      <trkpt lat="48.79536" lon="2.23486">
        <ele>109.3</ele>
        <time>2012-10-07T08:17:12Z</time>
      </trkpt>
      <trkpt lat="48.79529" lon="2.23477">
        <ele>109.1</ele>
        <time>2012-10-07T08:17:17Z</time>
      </trkpt>
      <trkpt lat="48.79525" lon="2.23469">
        <ele>108.8</ele>
        <time>2012-10-07T08:17:22Z</time>
      </trkpt>
      <trkpt lat="48.7952" lon="2.23463">
        <ele>108.4</ele>
        <time>2012-10-07T08:17:27Z</time>
      </trkpt>
      <trkpt lat="48.79513" lon="2.23454">
        <ele>109.3</ele>
        <time>2012-10-07T08:17:32Z</time>
      </trkpt>
      <trkpt lat="48.79508" lon="2.23444">
        <ele>109.8</ele>
        <time>2012-10-07T08:17:37Z</time>
      </trkpt>
      <trkpt lat="48.79505" lon="2.23442">
        <ele>109.8</ele>
        <time>2012-10-07T08:17:42Z</time>
      </trkpt>
      <trkpt lat="48.79503" lon="2.23439">
        <ele>109.6</ele>
        <time>2012-10-07T08:17:47Z</time>
      </trkpt>
      <trkpt lat="48.79495" lon="2.23441">
        <ele>110.3</ele>
        <time>2012-10-07T08:17:52Z</time>
      </trkpt>
      <trkpt lat="48.7949" lon="2.23439">
        <ele>110</ele>
        <time>2012-10-07T08:17:57Z</time>
      </trkpt>
      <trkpt lat="48.79483" lon="2.23437">
        <ele>113.8</ele>
        <time>2012-10-07T08:18:02Z</time>
      </trkpt>
      <trkpt lat="48.79482" lon="2.23437">
        <ele>114.1</ele>
        <time>2012-10-07T08:18:03Z</time>
      </trkpt>
      <trkpt lat="48.79469" lon="2.23433">
        <ele>114.5</ele>
        <time>2012-10-07T08:18:12Z</time>
      </trkpt>
      <trkpt lat="48.79462" lon="2.23432">
        <ele>113.9</ele>
        <time>2012-10-07T08:18:17Z</time>
      </trkpt>
      <trkpt lat="48.79451" lon="2.23432">
        <ele>115.8</ele>
        <time>2012-10-07T08:18:22Z</time>
      </trkpt>
      <trkpt lat="48.79447" lon="2.2343">
        <ele>116</ele>
        <time>2012-10-07T08:18:27Z</time>
      </trkpt>
      <trkpt lat="48.79437" lon="2.23428">
        <ele>113.9</ele>
        <time>2012-10-07T08:18:32Z</time>
      </trkpt>
      <trkpt lat="48.79434" lon="2.2343">
        <ele>112.5</ele>
        <time>2012-10-07T08:18:37Z</time>
      </trkpt>
      <trkpt lat="48.79435" lon="2.23428">
        <ele>111.4</ele>
        <time>2012-10-07T08:18:42Z</time>
      </trkpt>
      <trkpt lat="48.79434" lon="2.23426">
        <ele>111.5</ele>
        <time>2012-10-07T08:18:47Z</time>
      </trkpt>
      <trkpt lat="48.79426" lon="2.23421">
        <ele>112</ele>
        <time>2012-10-07T08:18:52Z</time>
      </trkpt>
      <trkpt lat="48.7942" lon="2.23415">
        <ele>112.4</ele>
        <time>2012-10-07T08:18:57Z</time>
      </trkpt>
      <trkpt lat="48.79416" lon="2.23408">
        <ele>110.9</ele>
        <time>2012-10-07T08:19:02Z</time>
      </trkpt>
      <trkpt lat="48.7941" lon="2.23399">
        <ele>111.5</ele>
        <time>2012-10-07T08:19:07Z</time>
      </trkpt>
      <trkpt lat="48.7941" lon="2.23399">
        <ele>111.5</ele>
        <time>2012-10-07T08:19:08Z</time>
      </trkpt>
      <trkpt lat="48.79408" lon="2.23382">
        <ele>111.3</ele>
        <time>2012-10-07T08:19:17Z</time>
      </trkpt>
      <trkpt lat="48.79411" lon="2.2337">
        <ele>109.3</ele>
        <time>2012-10-07T08:19:22Z</time>
      </trkpt>
      <trkpt lat="48.79411" lon="2.23367">
        <ele>108.5</ele>
        <time>2012-10-07T08:19:27Z</time>
      </trkpt>
      <trkpt lat="48.79412" lon="2.23365">
        <ele>108.1</ele>
        <time>2012-10-07T08:19:32Z</time>
      </trkpt>
      <trkpt lat="48.79417" lon="2.23359">
        <ele>108.8</ele>
        <time>2012-10-07T08:19:37Z</time>
      </trkpt>
      <trkpt lat="48.79422" lon="2.23351">
        <ele>109</ele>
        <time>2012-10-07T08:19:42Z</time>
      </trkpt>
      <trkpt lat="48.79427" lon="2.23345">
        <ele>110</ele>
        <time>2012-10-07T08:19:47Z</time>
      </trkpt>
      <trkpt lat="48.79429" lon="2.23335">
        <ele>108.9</ele>
        <time>2012-10-07T08:19:52Z</time>
      </trkpt>
      <trkpt lat="48.79436" lon="2.23326">
        <ele>109</ele>
        <time>2012-10-07T08:19:57Z</time>
      </trkpt>
      <trkpt lat="48.7944" lon="2.2332">
        <ele>107.3</ele>
        <time>2012-10-07T08:20:02Z</time>
      </trkpt>
      <trkpt lat="48.7944" lon="2.23315">
        <ele>107.3</ele>
        <time>2012-10-07T08:20:07Z</time>
      </trkpt>
      <trkpt lat="48.79442" lon="2.23305">
        <ele>105.4</ele>
        <time>2012-10-07T08:20:12Z</time>
      </trkpt>
      <trkpt lat="48.79442" lon="2.23304">
        <ele>105.1</ele>
        <time>2012-10-07T08:20:13Z</time>
      </trkpt>
      <trkpt lat="48.79446" lon="2.23292">
        <ele>105.9</ele>
        <time>2012-10-07T08:20:22Z</time>
      </trkpt>
      <trkpt lat="48.79455" lon="2.23284">
        <ele>106.4</ele>
        <time>2012-10-07T08:20:27Z</time>
      </trkpt>
      <trkpt lat="48.79459" lon="2.2328">
        <ele>106.3</ele>
        <time>2012-10-07T08:20:32Z</time>
      </trkpt>
      <trkpt lat="48.79465" lon="2.23278">
        <ele>106.8</ele>
        <time>2012-10-07T08:20:37Z</time>
      </trkpt>
      <trkpt lat="48.79471" lon="2.23275">
        <ele>108.9</ele>
        <time>2012-10-07T08:20:42Z</time>
      </trkpt>
      <trkpt lat="48.79476" lon="2.23275">
        <ele>109.6</ele>
        <time>2012-10-07T08:20:47Z</time>
      </trkpt>
      <trkpt lat="48.7948" lon="2.23272">
        <ele>110.6</ele>
        <time>2012-10-07T08:20:52Z</time>
      </trkpt>
      <trkpt lat="48.79486" lon="2.23269">
        <ele>110.1</ele>
        <time>2012-10-07T08:20:57Z</time>
      </trkpt>
      <trkpt lat="48.7949" lon="2.23266">
        <ele>111</ele>
        <time>2012-10-07T08:21:02Z</time>
      </trkpt>
      <trkpt lat="48.79491" lon="2.23264">
        <ele>110.9</ele>
        <time>2012-10-07T08:21:07Z</time>
      </trkpt>
      <trkpt lat="48.79494" lon="2.2326">
        <ele>106.9</ele>
        <time>2012-10-07T08:21:12Z</time>
      </trkpt>
      <trkpt lat="48.79496" lon="2.23257">
        <ele>106.5</ele>
        <time>2012-10-07T08:21:17Z</time>
      </trkpt>
      <trkpt lat="48.79496" lon="2.23257">
        <ele>106.5</ele>
        <time>2012-10-07T08:21:18Z</time>
      </trkpt>
      <trkpt lat="48.79496" lon="2.23257">
        <ele>106.5</ele>
        <time>2012-10-07T08:21:27Z</time>
      </trkpt>
      <trkpt lat="48.79496" lon="2.23257">
        <ele>106.5</ele>
        <time>2012-10-07T08:21:32Z</time>
      </trkpt>
      <trkpt lat="48.79497" lon="2.23253">
        <ele>109.9</ele>
        <time>2012-10-07T08:21:37Z</time>
      </trkpt>
      <trkpt lat="48.79497" lon="2.23253">
        <ele>109.9</ele>
        <time>2012-10-07T08:21:42Z</time>
      </trkpt>
      <trkpt lat="48.79497" lon="2.23253">
        <ele>109.9</ele>
        <time>2012-10-07T08:21:47Z</time>
      </trkpt>
      <trkpt lat="48.79497" lon="2.23253">
        <ele>109.9</ele>
        <time>2012-10-07T08:21:52Z</time>
      </trkpt>
      <trkpt lat="48.79497" lon="2.23251">
        <ele>109.9</ele>
        <time>2012-10-07T08:21:57Z</time>
      </trkpt>
      <trkpt lat="48.79498" lon="2.23246">
        <ele>110.1</ele>
        <time>2012-10-07T08:22:02Z</time>
      </trkpt>
      <trkpt lat="48.79506" lon="2.23233">
        <ele>110.8</ele>
        <time>2012-10-07T08:22:07Z</time>
      </trkpt>
      <trkpt lat="48.7951" lon="2.23225">
        <ele>111.1</ele>
        <time>2012-10-07T08:22:12Z</time>
      </trkpt>
      <trkpt lat="48.79514" lon="2.23214">
        <ele>111.5</ele>
        <time>2012-10-07T08:22:17Z</time>
      </trkpt>
      <trkpt lat="48.79517" lon="2.23207">
        <ele>112.4</ele>
        <time>2012-10-07T08:22:22Z</time>
      </trkpt>
      <trkpt lat="48.79519" lon="2.23205">
        <ele>112.1</ele>
        <time>2012-10-07T08:22:23Z</time>
      </trkpt>
      <trkpt lat="48.79531" lon="2.23184">
        <ele>113</ele>
        <time>2012-10-07T08:22:32Z</time>
      </trkpt>
      <trkpt lat="48.79532" lon="2.23181">
        <ele>114.9</ele>
        <time>2012-10-07T08:22:37Z</time>
      </trkpt>
      <trkpt lat="48.79532" lon="2.23179">
        <ele>115.5</ele>
        <time>2012-10-07T08:22:42Z</time>
      </trkpt>
      <trkpt lat="48.79533" lon="2.23177">
        <ele>115.5</ele>
        <time>2012-10-07T08:22:47Z</time>
      </trkpt>
      <trkpt lat="48.79537" lon="2.23171">
        <ele>119</ele>
        <time>2012-10-07T08:22:52Z</time>
      </trkpt>
      <trkpt lat="48.79538" lon="2.23164">
        <ele>122</ele>
        <time>2012-10-07T08:22:57Z</time>
      </trkpt>
      <trkpt lat="48.79539" lon="2.2316">
        <ele>123</ele>
        <time>2012-10-07T08:23:02Z</time>
      </trkpt>
      <trkpt lat="48.79541" lon="2.23154">
        <ele>123.5</ele>
        <time>2012-10-07T08:23:07Z</time>
      </trkpt>
      <trkpt lat="48.79543" lon="2.23143">
        <ele>126</ele>
        <time>2012-10-07T08:23:12Z</time>
      </trkpt>
      <trkpt lat="48.79541" lon="2.23136">
        <ele>127.5</ele>
        <time>2012-10-07T08:23:17Z</time>
      </trkpt>
      <trkpt lat="48.79544" lon="2.2313">
        <ele>127.6</ele>
        <time>2012-10-07T08:23:22Z</time>
      </trkpt>
      <trkpt lat="48.79546" lon="2.2312">
        <ele>129.1</ele>
        <time>2012-10-07T08:23:27Z</time>
      </trkpt>
      <trkpt lat="48.79546" lon="2.23118">
        <ele>130.1</ele>
        <time>2012-10-07T08:23:28Z</time>
      </trkpt>
      <trkpt lat="48.79547" lon="2.23112">
        <ele>131.1</ele>
        <time>2012-10-07T08:23:37Z</time>
      </trkpt>
      <trkpt lat="48.79548" lon="2.23104">
        <ele>132.3</ele>
        <time>2012-10-07T08:23:42Z</time>
      </trkpt>
      <trkpt lat="48.79549" lon="2.23097">
        <ele>133</ele>
        <time>2012-10-07T08:23:47Z</time>
      </trkpt>
      <trkpt lat="48.79548" lon="2.2309">
        <ele>132.1</ele>
        <time>2012-10-07T08:23:52Z</time>
      </trkpt>
      <trkpt lat="48.79549" lon="2.23082">
        <ele>133.3</ele>
        <time>2012-10-07T08:23:57Z</time>
      </trkpt>
      <trkpt lat="48.79552" lon="2.23072">
        <ele>133.8</ele>
        <time>2012-10-07T08:24:02Z</time>
      </trkpt>
      <trkpt lat="48.79554" lon="2.23069">
        <ele>134.3</ele>
        <time>2012-10-07T08:24:07Z</time>
      </trkpt>
      <trkpt lat="48.79553" lon="2.2306">
        <ele>136.3</ele>
        <time>2012-10-07T08:24:12Z</time>
      </trkpt>
      <trkpt lat="48.79557" lon="2.2305">
        <ele>136.5</ele>
        <time>2012-10-07T08:24:17Z</time>
      </trkpt>
      <trkpt lat="48.79558" lon="2.23044">
        <ele>136.6</ele>
        <time>2012-10-07T08:24:22Z</time>
      </trkpt>
      <trkpt lat="48.7956" lon="2.23036">
        <ele>137.1</ele>
        <time>2012-10-07T08:24:27Z</time>
      </trkpt>
      <trkpt lat="48.79562" lon="2.23029">
        <ele>138.1</ele>
        <time>2012-10-07T08:24:32Z</time>
      </trkpt>
      <trkpt lat="48.79563" lon="2.23027">
        <ele>138.3</ele>
        <time>2012-10-07T08:24:33Z</time>
      </trkpt>
      <trkpt lat="48.79565" lon="2.23014">
        <ele>140.1</ele>
        <time>2012-10-07T08:24:42Z</time>
      </trkpt>
      <trkpt lat="48.79567" lon="2.23">
        <ele>140.5</ele>
        <time>2012-10-07T08:24:47Z</time>
      </trkpt>
      <trkpt lat="48.79567" lon="2.2299">
        <ele>140.1</ele>
        <time>2012-10-07T08:24:52Z</time>
      </trkpt>
      <trkpt lat="48.79569" lon="2.22986">
        <ele>139.6</ele>
        <time>2012-10-07T08:24:57Z</time>
      </trkpt>
      <trkpt lat="48.79571" lon="2.2298">
        <ele>139.6</ele>
        <time>2012-10-07T08:25:02Z</time>
      </trkpt>
      <trkpt lat="48.79578" lon="2.22972">
        <ele>138.8</ele>
        <time>2012-10-07T08:25:07Z</time>
      </trkpt>
      <trkpt lat="48.79582" lon="2.22959">
        <ele>141</ele>
        <time>2012-10-07T08:25:12Z</time>
      </trkpt>
      <trkpt lat="48.79586" lon="2.22948">
        <ele>142</ele>
        <time>2012-10-07T08:25:17Z</time>
      </trkpt>
      <trkpt lat="48.7959" lon="2.22936">
        <ele>142.1</ele>
        <time>2012-10-07T08:25:22Z</time>
      </trkpt>
      <trkpt lat="48.79593" lon="2.22929">
        <ele>140</ele>
        <time>2012-10-07T08:25:27Z</time>
      </trkpt>
      <trkpt lat="48.79593" lon="2.22917">
        <ele>137.8</ele>
        <time>2012-10-07T08:25:32Z</time>
      </trkpt>
      <trkpt lat="48.79593" lon="2.22909">
        <ele>140.1</ele>
        <time>2012-10-07T08:25:37Z</time>
      </trkpt>
      <trkpt lat="48.79594" lon="2.22908">
        <ele>140.6</ele>
        <time>2012-10-07T08:25:38Z</time>
      </trkpt>
      <trkpt lat="48.79596" lon="2.22897">
        <ele>141</ele>
        <time>2012-10-07T08:25:47Z</time>
      </trkpt>
      <trkpt lat="48.79598" lon="2.22891">
        <ele>140.6</ele>
        <time>2012-10-07T08:25:52Z</time>
      </trkpt>
      <trkpt lat="48.79598" lon="2.22888">
        <ele>139.8</ele>
        <time>2012-10-07T08:25:57Z</time>
      </trkpt>
      <trkpt lat="48.79602" lon="2.22873">
        <ele>140.1</ele>
        <time>2012-10-07T08:26:02Z</time>
      </trkpt>
      <trkpt lat="48.79603" lon="2.22862">
        <ele>139.6</ele>
        <time>2012-10-07T08:26:07Z</time>
      </trkpt>
      <trkpt lat="48.79604" lon="2.22852">
        <ele>139.1</ele>
        <time>2012-10-07T08:26:12Z</time>
      </trkpt>
      <trkpt lat="48.7961" lon="2.22841">
        <ele>139.6</ele>
        <time>2012-10-07T08:26:17Z</time>
      </trkpt>
      <trkpt lat="48.79613" lon="2.22837">
        <ele>140.5</ele>
        <time>2012-10-07T08:26:22Z</time>
      </trkpt>
      <trkpt lat="48.79615" lon="2.22834">
        <ele>137.6</ele>
        <time>2012-10-07T08:26:27Z</time>
      </trkpt>
      <trkpt lat="48.79618" lon="2.22832">
        <ele>137.1</ele>
        <time>2012-10-07T08:26:32Z</time>
      </trkpt>
      <trkpt lat="48.79618" lon="2.22832">
        <ele>137.1</ele>
        <time>2012-10-07T08:26:37Z</time>
      </trkpt>
      <trkpt lat="48.79618" lon="2.22832">
        <ele>137.1</ele>
        <time>2012-10-07T08:26:42Z</time>
      </trkpt>
      <trkpt lat="48.79618" lon="2.22832">
        <ele>137.1</ele>
        <time>2012-10-07T08:26:43Z</time>
      </trkpt>
      <trkpt lat="48.79618" lon="2.22833">
        <ele>136.3</ele>
        <time>2012-10-07T08:26:52Z</time>
      </trkpt>
      <trkpt lat="48.79619" lon="2.22833">
        <ele>135.8</ele>
        <time>2012-10-07T08:26:57Z</time>
      </trkpt>
      <trkpt lat="48.79619" lon="2.22832">
        <ele>135.8</ele>
        <time>2012-10-07T08:27:02Z</time>
      </trkpt>
      <trkpt lat="48.79622" lon="2.22836">
        <ele>133.8</ele>
        <time>2012-10-07T08:27:07Z</time>
      </trkpt>
      <trkpt lat="48.79621" lon="2.22835">
        <ele>132</ele>
        <time>2012-10-07T08:27:12Z</time>
      </trkpt>
      <trkpt lat="48.79621" lon="2.22835">
        <ele>132.3</ele>
        <time>2012-10-07T08:27:17Z</time>
      </trkpt>
      <trkpt lat="48.79621" lon="2.22835">
        <ele>132.3</ele>
        <time>2012-10-07T08:27:22Z</time>
      </trkpt>
      <trkpt lat="48.79621" lon="2.22836">
        <ele>131.8</ele>
        <time>2012-10-07T08:27:27Z</time>
      </trkpt>
      <trkpt lat="48.79621" lon="2.22836">
        <ele>131.5</ele>
        <time>2012-10-07T08:27:32Z</time>
      </trkpt>
      <trkpt lat="48.79623" lon="2.22836">
        <ele>132.6</ele>
        <time>2012-10-07T08:27:37Z</time>
      </trkpt>
      <trkpt lat="48.79623" lon="2.22835">
        <ele>132.6</ele>
        <time>2012-10-07T08:27:42Z</time>
      </trkpt>
      <trkpt lat="48.79622" lon="2.22835">
        <ele>132.3</ele>
        <time>2012-10-07T08:27:47Z</time>
      </trkpt>
      <trkpt lat="48.7962" lon="2.22836">
        <ele>131.6</ele>
        <time>2012-10-07T08:27:48Z</time>
      </trkpt>
      <trkpt lat="48.79615" lon="2.22837">
        <ele>132.1</ele>
        <time>2012-10-07T08:27:57Z</time>
      </trkpt>
      <trkpt lat="48.79614" lon="2.22838">
        <ele>132</ele>
        <time>2012-10-07T08:28:02Z</time>
      </trkpt>
      <trkpt lat="48.79613" lon="2.22839">
        <ele>131.6</ele>
        <time>2012-10-07T08:28:07Z</time>
      </trkpt>
      <trkpt lat="48.79613" lon="2.22836">
        <ele>132.5</ele>
        <time>2012-10-07T08:28:12Z</time>
      </trkpt>
      <trkpt lat="48.79613" lon="2.22833">
        <ele>131.3</ele>
        <time>2012-10-07T08:28:17Z</time>
      </trkpt>
      <trkpt lat="48.79612" lon="2.22832">
        <ele>131.1</ele>
        <time>2012-10-07T08:28:22Z</time>
      </trkpt>
      <trkpt lat="48.79611" lon="2.22829">
        <ele>132</ele>
        <time>2012-10-07T08:28:27Z</time>
      </trkpt>
      <trkpt lat="48.7961" lon="2.2283">
        <ele>131.5</ele>
        <time>2012-10-07T08:28:32Z</time>
      </trkpt>
      <trkpt lat="48.7961" lon="2.2283">
        <ele>132.3</ele>
        <time>2012-10-07T08:28:37Z</time>
      </trkpt>
      <trkpt lat="48.7961" lon="2.2283">
        <ele>131.1</ele>
        <time>2012-10-07T08:28:42Z</time>
      </trkpt>
      <trkpt lat="48.7961" lon="2.2283">
        <ele>131.3</ele>
        <time>2012-10-07T08:28:47Z</time>
      </trkpt>
      <trkpt lat="48.79611" lon="2.22832">
        <ele>130.8</ele>
        <time>2012-10-07T08:28:52Z</time>
      </trkpt>
      <trkpt lat="48.79611" lon="2.22832">
        <ele>130.8</ele>
        <time>2012-10-07T08:28:53Z</time>
      </trkpt>
      <trkpt lat="48.79613" lon="2.22835">
        <ele>130</ele>
        <time>2012-10-07T08:29:02Z</time>
      </trkpt>
      <trkpt lat="48.79613" lon="2.22833">
        <ele>128.3</ele>
        <time>2012-10-07T08:29:07Z</time>
      </trkpt>
      <trkpt lat="48.79613" lon="2.22831">
        <ele>126.5</ele>
        <time>2012-10-07T08:29:12Z</time>
      </trkpt>
      <trkpt lat="48.79613" lon="2.22831">
        <ele>126.5</ele>
        <time>2012-10-07T08:29:17Z</time>
      </trkpt>
      <trkpt lat="48.79613" lon="2.22829">
        <ele>125.6</ele>
        <time>2012-10-07T08:29:22Z</time>
      </trkpt>
      <trkpt lat="48.79615" lon="2.22825">
        <ele>126.6</ele>
        <time>2012-10-07T08:29:27Z</time>
      </trkpt>
      <trkpt lat="48.79615" lon="2.22825">
        <ele>126.9</ele>
        <time>2012-10-07T08:29:32Z</time>
      </trkpt>
      <trkpt lat="48.79615" lon="2.22827">
        <ele>127.3</ele>
        <time>2012-10-07T08:29:37Z</time>
      </trkpt>
      <trkpt lat="48.79615" lon="2.22827">
        <ele>128.3</ele>
        <time>2012-10-07T08:29:42Z</time>
      </trkpt>
      <trkpt lat="48.79616" lon="2.22827">
        <ele>126.1</ele>
        <time>2012-10-07T08:29:47Z</time>
      </trkpt>
      <trkpt lat="48.79619" lon="2.22824">
        <ele>126</ele>
        <time>2012-10-07T08:29:52Z</time>
      </trkpt>
      <trkpt lat="48.79618" lon="2.2282">
        <ele>124.5</ele>
        <time>2012-10-07T08:29:57Z</time>
      </trkpt>
      <trkpt lat="48.79619" lon="2.22817">
        <ele>124.3</ele>
        <time>2012-10-07T08:29:58Z</time>
      </trkpt>
      <trkpt lat="48.79625" lon="2.22804">
        <ele>124.5</ele>
        <time>2012-10-07T08:30:07Z</time>
      </trkpt>
      <trkpt lat="48.79626" lon="2.22794">
        <ele>125.3</ele>
        <time>2012-10-07T08:30:12Z</time>
      </trkpt>
      <trkpt lat="48.79627" lon="2.22786">
        <ele>126.8</ele>
        <time>2012-10-07T08:30:17Z</time>
      </trkpt>
      <trkpt lat="48.79627" lon="2.22782">
        <ele>127.5</ele>
        <time>2012-10-07T08:30:22Z</time>
      </trkpt>
      <trkpt lat="48.79626" lon="2.22777">
        <ele>128</ele>
        <time>2012-10-07T08:30:27Z</time>
      </trkpt>
      <trkpt lat="48.79626" lon="2.22771">
        <ele>125.6</ele>
        <time>2012-10-07T08:30:32Z</time>
      </trkpt>
      <trkpt lat="48.79629" lon="2.22766">
        <ele>125.8</ele>
        <time>2012-10-07T08:30:37Z</time>
      </trkpt>
      <trkpt lat="48.79634" lon="2.22758">
        <ele>125</ele>
        <time>2012-10-07T08:30:42Z</time>
      </trkpt>
      <trkpt lat="48.79635" lon="2.22751">
        <ele>123.8</ele>
        <time>2012-10-07T08:30:47Z</time>
      </trkpt>
      <trkpt lat="48.79637" lon="2.22747">
        <ele>122.8</ele>
        <time>2012-10-07T08:30:52Z</time>
      </trkpt>
      <trkpt lat="48.79638" lon="2.22744">
        <ele>121.6</ele>
        <time>2012-10-07T08:30:57Z</time>
      </trkpt>
      <trkpt lat="48.79641" lon="2.22736">
        <ele>121</ele>
        <time>2012-10-07T08:31:02Z</time>
      </trkpt>
      <trkpt lat="48.79641" lon="2.22735">
        <ele>121.4</ele>
        <time>2012-10-07T08:31:03Z</time>
      </trkpt>
      <trkpt lat="48.79639" lon="2.22724">
        <ele>120</ele>
        <time>2012-10-07T08:31:12Z</time>
      </trkpt>
      <trkpt lat="48.79641" lon="2.22717">
        <ele>121.9</ele>
        <time>2012-10-07T08:31:17Z</time>
      </trkpt>
      <trkpt lat="48.79642" lon="2.22706">
        <ele>122.5</ele>
        <time>2012-10-07T08:31:22Z</time>
      </trkpt>
      <trkpt lat="48.7964" lon="2.22699">
        <ele>123.5</ele>
        <time>2012-10-07T08:31:27Z</time>
      </trkpt>
      <trkpt lat="48.79642" lon="2.22688">
        <ele>124.1</ele>
        <time>2012-10-07T08:31:32Z</time>
      </trkpt>
      <trkpt lat="48.79642" lon="2.22678">
        <ele>125.5</ele>
        <time>2012-10-07T08:31:37Z</time>
      </trkpt>
      <trkpt lat="48.79644" lon="2.22671">
        <ele>124.6</ele>
        <time>2012-10-07T08:31:42Z</time>
      </trkpt>
      <trkpt lat="48.79648" lon="2.22664">
        <ele>125.3</ele>
        <time>2012-10-07T08:31:47Z</time>
      </trkpt>
      <trkpt lat="48.7965" lon="2.22659">
        <ele>125.5</ele>
        <time>2012-10-07T08:31:52Z</time>
      </trkpt>
      <trkpt lat="48.79652" lon="2.22652">
        <ele>125</ele>
        <time>2012-10-07T08:31:57Z</time>
      </trkpt>
      <trkpt lat="48.79657" lon="2.22642">
        <ele>125.3</ele>
        <time>2012-10-07T08:32:02Z</time>
      </trkpt>
      <trkpt lat="48.7966" lon="2.22633">
        <ele>125.8</ele>
        <time>2012-10-07T08:32:07Z</time>
      </trkpt>
      <trkpt lat="48.79661" lon="2.22631">
        <ele>126</ele>
        <time>2012-10-07T08:32:08Z</time>
      </trkpt>
      <trkpt lat="48.79669" lon="2.22614">
        <ele>127</ele>
        <time>2012-10-07T08:32:17Z</time>
      </trkpt>
      <trkpt lat="48.7967" lon="2.22601">
        <ele>126.9</ele>
        <time>2012-10-07T08:32:22Z</time>
      </trkpt>
      <trkpt lat="48.79673" lon="2.22586">
        <ele>125.4</ele>
        <time>2012-10-07T08:32:27Z</time>
      </trkpt>
      <trkpt lat="48.79674" lon="2.22579">
        <ele>125.6</ele>
        <time>2012-10-07T08:32:32Z</time>
      </trkpt>
      <trkpt lat="48.79674" lon="2.22576">
        <ele>126</ele>
        <time>2012-10-07T08:32:37Z</time>
      </trkpt>
      <trkpt lat="48.79675" lon="2.22569">
        <ele>126.5</ele>
        <time>2012-10-07T08:32:42Z</time>
      </trkpt>
      <trkpt lat="48.79677" lon="2.22561">
        <ele>127</ele>
        <time>2012-10-07T08:32:47Z</time>
      </trkpt>
      <trkpt lat="48.79679" lon="2.22557">
        <ele>126.5</ele>
        <time>2012-10-07T08:32:52Z</time>
      </trkpt>
      <trkpt lat="48.7968" lon="2.22548">
        <ele>125.5</ele>
        <time>2012-10-07T08:32:57Z</time>
      </trkpt>
      <trkpt lat="48.79677" lon="2.22537">
        <ele>125.1</ele>
        <time>2012-10-07T08:33:02Z</time>
      </trkpt>
      <trkpt lat="48.79677" lon="2.22533">
        <ele>125</ele>
        <time>2012-10-07T08:33:07Z</time>
      </trkpt>
      <trkpt lat="48.7968" lon="2.22529">
        <ele>125.8</ele>
        <time>2012-10-07T08:33:12Z</time>
      </trkpt>
      <trkpt lat="48.7968" lon="2.22529">
        <ele>125.8</ele>
        <time>2012-10-07T08:33:13Z</time>
      </trkpt>
      <trkpt lat="48.79682" lon="2.22523">
        <ele>125.9</ele>
        <time>2012-10-07T08:33:22Z</time>
      </trkpt>
      <trkpt lat="48.79687" lon="2.22517">
        <ele>125.8</ele>
        <time>2012-10-07T08:33:27Z</time>
      </trkpt>
      <trkpt lat="48.79687" lon="2.22517">
        <ele>125.8</ele>
        <time>2012-10-07T08:33:32Z</time>
      </trkpt>
      <trkpt lat="48.79687" lon="2.22517">
        <ele>125.8</ele>
        <time>2012-10-07T08:33:37Z</time>
      </trkpt>
      <trkpt lat="48.79688" lon="2.22514">
        <ele>126.1</ele>
        <time>2012-10-07T08:33:42Z</time>
      </trkpt>
      <trkpt lat="48.79689" lon="2.2251">
        <ele>128</ele>
        <time>2012-10-07T08:33:47Z</time>
      </trkpt>
      <trkpt lat="48.7969" lon="2.22501">
        <ele>129.3</ele>
        <time>2012-10-07T08:33:52Z</time>
      </trkpt>
      <trkpt lat="48.79692" lon="2.22499">
        <ele>128.8</ele>
        <time>2012-10-07T08:33:57Z</time>
      </trkpt>
      <trkpt lat="48.79692" lon="2.22497">
        <ele>129.3</ele>
        <time>2012-10-07T08:34:02Z</time>
      </trkpt>
      <trkpt lat="48.79692" lon="2.22493">
        <ele>130</ele>
        <time>2012-10-07T08:34:07Z</time>
      </trkpt>
      <trkpt lat="48.79693" lon="2.2249">
        <ele>130.8</ele>
        <time>2012-10-07T08:34:12Z</time>
      </trkpt>
      <trkpt lat="48.79696" lon="2.2248">
        <ele>131.5</ele>
        <time>2012-10-07T08:34:17Z</time>
      </trkpt>
      <trkpt lat="48.79696" lon="2.2248">
        <ele>131.5</ele>
        <time>2012-10-07T08:34:18Z</time>
      </trkpt>
      <trkpt lat="48.79696" lon="2.22479">
        <ele>132.1</ele>
        <time>2012-10-07T08:34:27Z</time>
      </trkpt>
      <trkpt lat="48.79696" lon="2.22478">
        <ele>131.1</ele>
        <time>2012-10-07T08:34:32Z</time>
      </trkpt>
      <trkpt lat="48.79697" lon="2.22478">
        <ele>133.1</ele>
        <time>2012-10-07T08:34:37Z</time>
      </trkpt>
      <trkpt lat="48.79699" lon="2.22477">
        <ele>131.8</ele>
        <time>2012-10-07T08:34:42Z</time>
      </trkpt>
      <trkpt lat="48.797" lon="2.22476">
        <ele>132.1</ele>
        <time>2012-10-07T08:34:47Z</time>
      </trkpt>
      <trkpt lat="48.79701" lon="2.22476">
        <ele>132.3</ele>
        <time>2012-10-07T08:34:52Z</time>
      </trkpt>
      <trkpt lat="48.79703" lon="2.22475">
        <ele>132.3</ele>
        <time>2012-10-07T08:34:57Z</time>
      </trkpt>
      <trkpt lat="48.79704" lon="2.22476">
        <ele>131.8</ele>
        <time>2012-10-07T08:35:02Z</time>
      </trkpt>
      <trkpt lat="48.79707" lon="2.22477">
        <ele>130.6</ele>
        <time>2012-10-07T08:35:07Z</time>
      </trkpt>
      <trkpt lat="48.7971" lon="2.2248">
        <ele>128.8</ele>
        <time>2012-10-07T08:35:12Z</time>
      </trkpt>
      <trkpt lat="48.79711" lon="2.2248">
        <ele>128.6</ele>
        <time>2012-10-07T08:35:17Z</time>
      </trkpt>
      <trkpt lat="48.79714" lon="2.22481">
        <ele>128.5</ele>
        <time>2012-10-07T08:35:22Z</time>
      </trkpt>
      <trkpt lat="48.79714" lon="2.22481">
        <ele>128.5</ele>
        <time>2012-10-07T08:35:23Z</time>
      </trkpt>
      <trkpt lat="48.79725" lon="2.22478">
        <ele>129</ele>
        <time>2012-10-07T08:35:32Z</time>
      </trkpt>
      <trkpt lat="48.79729" lon="2.22477">
        <ele>129.8</ele>
        <time>2012-10-07T08:35:37Z</time>
      </trkpt>
      <trkpt lat="48.7973" lon="2.22476">
        <ele>130.3</ele>
        <time>2012-10-07T08:35:42Z</time>
      </trkpt>
      <trkpt lat="48.7973" lon="2.22476">
        <ele>130.1</ele>
        <time>2012-10-07T08:35:47Z</time>
      </trkpt>
      <trkpt lat="48.7973" lon="2.22475">
        <ele>129.3</ele>
        <time>2012-10-07T08:35:52Z</time>
      </trkpt>
      <trkpt lat="48.7973" lon="2.22475">
        <ele>129.3</ele>
        <time>2012-10-07T08:35:57Z</time>
      </trkpt>
      <trkpt lat="48.7973" lon="2.22475">
        <ele>129</ele>
        <time>2012-10-07T08:36:02Z</time>
      </trkpt>
      <trkpt lat="48.79732" lon="2.22474">
        <ele>129.3</ele>
        <time>2012-10-07T08:36:07Z</time>
      </trkpt>
      <trkpt lat="48.79733" lon="2.22473">
        <ele>129.5</ele>
        <time>2012-10-07T08:36:12Z</time>
      </trkpt>
      <trkpt lat="48.79733" lon="2.22472">
        <ele>130.1</ele>
        <time>2012-10-07T08:36:17Z</time>
      </trkpt>
      <trkpt lat="48.79733" lon="2.22472">
        <ele>130.1</ele>
        <time>2012-10-07T08:36:22Z</time>
      </trkpt>
      <trkpt lat="48.79733" lon="2.22472">
        <ele>130.1</ele>
        <time>2012-10-07T08:36:27Z</time>
      </trkpt>
      <trkpt lat="48.79733" lon="2.22473">
        <ele>130.1</ele>
        <time>2012-10-07T08:36:28Z</time>
      </trkpt>
      <trkpt lat="48.79732" lon="2.22471">
        <ele>130.1</ele>
        <time>2012-10-07T08:36:37Z</time>
      </trkpt>
      <trkpt lat="48.79733" lon="2.22469">
        <ele>129.5</ele>
        <time>2012-10-07T08:36:42Z</time>
      </trkpt>
      <trkpt lat="48.79733" lon="2.22469">
        <ele>130.6</ele>
        <time>2012-10-07T08:36:47Z</time>
      </trkpt>
      <trkpt lat="48.79733" lon="2.22469">
        <ele>130.6</ele>
        <time>2012-10-07T08:36:52Z</time>
      </trkpt>
      <trkpt lat="48.79733" lon="2.22469">
        <ele>130.6</ele>
        <time>2012-10-07T08:36:57Z</time>
      </trkpt>
      <trkpt lat="48.79733" lon="2.22469">
        <ele>131.8</ele>
        <time>2012-10-07T08:37:02Z</time>
      </trkpt>
      <trkpt lat="48.79732" lon="2.22468">
        <ele>131.3</ele>
        <time>2012-10-07T08:37:07Z</time>
      </trkpt>
      <trkpt lat="48.79731" lon="2.22468">
        <ele>130.8</ele>
        <time>2012-10-07T08:37:12Z</time>
      </trkpt>
      <trkpt lat="48.79733" lon="2.2247">
        <ele>131.8</ele>
        <time>2012-10-07T08:37:17Z</time>
      </trkpt>
      <trkpt lat="48.79733" lon="2.2247">
        <ele>132</ele>
        <time>2012-10-07T08:37:22Z</time>
      </trkpt>
      <trkpt lat="48.79732" lon="2.22472">
        <ele>135.3</ele>
        <time>2012-10-07T08:37:27Z</time>
      </trkpt>
      <trkpt lat="48.79732" lon="2.22472">
        <ele>135.3</ele>
        <time>2012-10-07T08:37:32Z</time>
      </trkpt>
      <trkpt lat="48.79733" lon="2.22472">
        <ele>135.3</ele>
        <time>2012-10-07T08:37:33Z</time>
      </trkpt>
      <trkpt lat="48.79731" lon="2.22464">
        <ele>134.3</ele>
        <time>2012-10-07T08:37:42Z</time>
      </trkpt>
      <trkpt lat="48.79735" lon="2.22456">
        <ele>133.6</ele>
        <time>2012-10-07T08:37:47Z</time>
      </trkpt>
      <trkpt lat="48.79735" lon="2.22447">
        <ele>129.1</ele>
        <time>2012-10-07T08:37:52Z</time>
      </trkpt>
      <trkpt lat="48.79739" lon="2.22434">
        <ele>125.5</ele>
        <time>2012-10-07T08:37:57Z</time>
      </trkpt>
      <trkpt lat="48.79741" lon="2.2243">
        <ele>125.8</ele>
        <time>2012-10-07T08:38:02Z</time>
      </trkpt>
      <trkpt lat="48.79738" lon="2.22425">
        <ele>126.5</ele>
        <time>2012-10-07T08:38:07Z</time>
      </trkpt>
      <trkpt lat="48.79737" lon="2.22422">
        <ele>125.8</ele>
        <time>2012-10-07T08:38:12Z</time>
      </trkpt>
      <trkpt lat="48.79736" lon="2.22414">
        <ele>127</ele>
        <time>2012-10-07T08:38:17Z</time>
      </trkpt>
      <trkpt lat="48.79736" lon="2.22406">
        <ele>127.9</ele>
        <time>2012-10-07T08:38:22Z</time>
      </trkpt>
      <trkpt lat="48.79738" lon="2.22393">
        <ele>128.1</ele>
        <time>2012-10-07T08:38:27Z</time>
      </trkpt>
      <trkpt lat="48.7974" lon="2.22381">
        <ele>127.4</ele>
        <time>2012-10-07T08:38:32Z</time>
      </trkpt>
      <trkpt lat="48.7974" lon="2.22378">
        <ele>128.6</ele>
        <time>2012-10-07T08:38:37Z</time>
      </trkpt>
      <trkpt lat="48.79739" lon="2.22377">
        <ele>128.8</ele>
        <time>2012-10-07T08:38:38Z</time>
      </trkpt>
      <trkpt lat="48.79737" lon="2.22362">
        <ele>133.1</ele>
        <time>2012-10-07T08:38:47Z</time>
      </trkpt>
      <trkpt lat="48.79736" lon="2.22359">
        <ele>136.6</ele>
        <time>2012-10-07T08:38:52Z</time>
      </trkpt>
      <trkpt lat="48.79733" lon="2.22356">
        <ele>137.8</ele>
        <time>2012-10-07T08:38:57Z</time>
      </trkpt>
      <trkpt lat="48.79733" lon="2.22356">
        <ele>138.8</ele>
        <time>2012-10-07T08:39:02Z</time>
      </trkpt>
      <trkpt lat="48.79733" lon="2.22356">
        <ele>138.8</ele>
        <time>2012-10-07T08:39:07Z</time>
      </trkpt>
      <trkpt lat="48.79733" lon="2.22355">
        <ele>138.8</ele>
        <time>2012-10-07T08:39:12Z</time>
      </trkpt>
      <trkpt lat="48.79734" lon="2.22352">
        <ele>138.8</ele>
        <time>2012-10-07T08:39:17Z</time>
      </trkpt>
      <trkpt lat="48.79734" lon="2.22348">
        <ele>138</ele>
        <time>2012-10-07T08:39:22Z</time>
      </trkpt>
      <trkpt lat="48.79735" lon="2.22337">
        <ele>137.6</ele>
        <time>2012-10-07T08:39:27Z</time>
      </trkpt>
      <trkpt lat="48.79728" lon="2.22327">
        <ele>136.6</ele>
        <time>2012-10-07T08:39:32Z</time>
      </trkpt>
      <trkpt lat="48.79729" lon="2.22327">
        <ele>135.8</ele>
        <time>2012-10-07T08:39:37Z</time>
      </trkpt>
      <trkpt lat="48.79731" lon="2.22326">
        <ele>134.6</ele>
        <time>2012-10-07T08:39:42Z</time>
      </trkpt>
      <trkpt lat="48.79731" lon="2.22326">
        <ele>134.3</ele>
        <time>2012-10-07T08:39:43Z</time>
      </trkpt>
      <trkpt lat="48.79731" lon="2.22324">
        <ele>134</ele>
        <time>2012-10-07T08:39:52Z</time>
      </trkpt>
      <trkpt lat="48.79727" lon="2.22321">
        <ele>133.5</ele>
        <time>2012-10-07T08:39:57Z</time>
      </trkpt>
      <trkpt lat="48.7972" lon="2.22314">
        <ele>133.6</ele>
        <time>2012-10-07T08:40:02Z</time>
      </trkpt>
      <trkpt lat="48.79717" lon="2.22309">
        <ele>136.3</ele>
        <time>2012-10-07T08:40:07Z</time>
      </trkpt>
      <trkpt lat="48.79715" lon="2.22302">
        <ele>138.3</ele>
        <time>2012-10-07T08:40:12Z</time>
      </trkpt>
      <trkpt lat="48.79717" lon="2.22298">
        <ele>138.5</ele>
        <time>2012-10-07T08:40:17Z</time>
      </trkpt>
      <trkpt lat="48.79719" lon="2.22288">
        <ele>138.5</ele>
        <time>2012-10-07T08:40:22Z</time>
      </trkpt>
      <trkpt lat="48.79721" lon="2.22281">
        <ele>140.3</ele>
        <time>2012-10-07T08:40:27Z</time>
      </trkpt>
      <trkpt lat="48.79717" lon="2.22275">
        <ele>144.1</ele>
        <time>2012-10-07T08:40:32Z</time>
      </trkpt>
      <trkpt lat="48.79717" lon="2.22269">
        <ele>143</ele>
        <time>2012-10-07T08:40:37Z</time>
      </trkpt>
      <trkpt lat="48.79716" lon="2.22259">
        <ele>144.3</ele>
        <time>2012-10-07T08:40:42Z</time>
      </trkpt>
      <trkpt lat="48.7971" lon="2.22251">
        <ele>142.8</ele>
        <time>2012-10-07T08:40:47Z</time>
      </trkpt>
      <trkpt lat="48.7971" lon="2.22251">
        <ele>142.8</ele>
        <time>2012-10-07T08:40:48Z</time>
      </trkpt>
      <trkpt lat="48.79706" lon="2.22237">
        <ele>144.3</ele>
        <time>2012-10-07T08:40:57Z</time>
      </trkpt>
      <trkpt lat="48.79706" lon="2.22234">
        <ele>143.6</ele>
        <time>2012-10-07T08:41:02Z</time>
      </trkpt>
      <trkpt lat="48.79703" lon="2.22231">
        <ele>144.6</ele>
        <time>2012-10-07T08:41:07Z</time>
      </trkpt>
      <trkpt lat="48.79703" lon="2.2222">
        <ele>143.1</ele>
        <time>2012-10-07T08:41:12Z</time>
      </trkpt>
      <trkpt lat="48.79708" lon="2.22214">
        <ele>143.6</ele>
        <time>2012-10-07T08:41:17Z</time>
      </trkpt>
      <trkpt lat="48.79708" lon="2.22214">
        <ele>143.6</ele>
        <time>2012-10-07T08:41:22Z</time>
      </trkpt>
      <trkpt lat="48.79708" lon="2.22213">
        <ele>144.3</ele>
        <time>2012-10-07T08:41:27Z</time>
      </trkpt>
      <trkpt lat="48.7971" lon="2.22213">
        <ele>144.1</ele>
        <time>2012-10-07T08:41:32Z</time>
      </trkpt>
      <trkpt lat="48.7971" lon="2.2221">
        <ele>145.1</ele>
        <time>2012-10-07T08:41:37Z</time>
      </trkpt>
      <trkpt lat="48.7971" lon="2.2221">
        <ele>145.1</ele>
        <time>2012-10-07T08:41:42Z</time>
      </trkpt>
      <trkpt lat="48.7971" lon="2.2221">
        <ele>145.1</ele>
        <time>2012-10-07T08:41:47Z</time>
      </trkpt>
      <trkpt lat="48.7971" lon="2.22208">
        <ele>145</ele>
        <time>2012-10-07T08:41:52Z</time>
      </trkpt>
      <trkpt lat="48.7971" lon="2.22208">
        <ele>145</ele>
        <time>2012-10-07T08:41:53Z</time>
      </trkpt>
      <trkpt lat="48.7971" lon="2.22207">
        <ele>144.3</ele>
        <time>2012-10-07T08:42:02Z</time>
      </trkpt>
      <trkpt lat="48.7971" lon="2.22207">
        <ele>144.6</ele>
        <time>2012-10-07T08:42:07Z</time>
      </trkpt>
      <trkpt lat="48.7971" lon="2.22208">
        <ele>145.1</ele>
        <time>2012-10-07T08:42:12Z</time>
      </trkpt>
      <trkpt lat="48.7971" lon="2.22208">
        <ele>145.1</ele>
        <time>2012-10-07T08:42:17Z</time>
      </trkpt>
      <trkpt lat="48.7971" lon="2.22208">
        <ele>145.1</ele>
        <time>2012-10-07T08:42:22Z</time>
      </trkpt>
      <trkpt lat="48.79711" lon="2.22206">
        <ele>145.8</ele>
        <time>2012-10-07T08:42:27Z</time>
      </trkpt>
      <trkpt lat="48.79711" lon="2.22207">
        <ele>147.3</ele>
        <time>2012-10-07T08:42:32Z</time>
      </trkpt>
      <trkpt lat="48.79711" lon="2.22207">
        <ele>147.3</ele>
        <time>2012-10-07T08:42:37Z</time>
      </trkpt>
      <trkpt lat="48.79711" lon="2.22207">
        <ele>147.3</ele>
        <time>2012-10-07T08:42:42Z</time>
      </trkpt>
      <trkpt lat="48.79712" lon="2.22201">
        <ele>144.8</ele>
        <time>2012-10-07T08:42:47Z</time>
      </trkpt>
      <trkpt lat="48.79712" lon="2.222">
        <ele>144.6</ele>
        <time>2012-10-07T08:42:52Z</time>
      </trkpt>
      <trkpt lat="48.79712" lon="2.222">
        <ele>144.6</ele>
        <time>2012-10-07T08:42:57Z</time>
      </trkpt>
      <trkpt lat="48.79712" lon="2.222">
        <ele>144.6</ele>
        <time>2012-10-07T08:42:58Z</time>
      </trkpt>
      <trkpt lat="48.79712" lon="2.222">
        <ele>144.8</ele>
        <time>2012-10-07T08:43:07Z</time>
      </trkpt>
      <trkpt lat="48.79713" lon="2.222">
        <ele>143.3</ele>
        <time>2012-10-07T08:43:12Z</time>
      </trkpt>
      <trkpt lat="48.79712" lon="2.22201">
        <ele>144</ele>
        <time>2012-10-07T08:43:17Z</time>
      </trkpt>
      <trkpt lat="48.79712" lon="2.22201">
        <ele>144</ele>
        <time>2012-10-07T08:43:22Z</time>
      </trkpt>
      <trkpt lat="48.79712" lon="2.22201">
        <ele>144</ele>
        <time>2012-10-07T08:43:27Z</time>
      </trkpt>
      <trkpt lat="48.79712" lon="2.22201">
        <ele>144</ele>
        <time>2012-10-07T08:43:32Z</time>
      </trkpt>
      <trkpt lat="48.79713" lon="2.22199">
        <ele>143.8</ele>
        <time>2012-10-07T08:43:37Z</time>
      </trkpt>
      <trkpt lat="48.79712" lon="2.22199">
        <ele>142.8</ele>
        <time>2012-10-07T08:43:42Z</time>
      </trkpt>
      <trkpt lat="48.79711" lon="2.22199">
        <ele>141.1</ele>
        <time>2012-10-07T08:43:47Z</time>
      </trkpt>
      <trkpt lat="48.79711" lon="2.22199">
        <ele>141.1</ele>
        <time>2012-10-07T08:43:52Z</time>
      </trkpt>
      <trkpt lat="48.79711" lon="2.22199">
        <ele>141.1</ele>
        <time>2012-10-07T08:43:57Z</time>
      </trkpt>
      <trkpt lat="48.79713" lon="2.22197">
        <ele>141.6</ele>
        <time>2012-10-07T08:44:02Z</time>
      </trkpt>
      <trkpt lat="48.79713" lon="2.22197">
        <ele>141.6</ele>
        <time>2012-10-07T08:44:03Z</time>
      </trkpt>
      <trkpt lat="48.79713" lon="2.22197">
        <ele>141.1</ele>
        <time>2012-10-07T08:44:12Z</time>
      </trkpt>
      <trkpt lat="48.79713" lon="2.22197">
        <ele>141.1</ele>
        <time>2012-10-07T08:44:17Z</time>
      </trkpt>
      <trkpt lat="48.79713" lon="2.22197">
        <ele>141.1</ele>
        <time>2012-10-07T08:44:22Z</time>
      </trkpt>
      <trkpt lat="48.79713" lon="2.22197">
        <ele>141.1</ele>
        <time>2012-10-07T08:44:27Z</time>
      </trkpt>
      <trkpt lat="48.79713" lon="2.22197">
        <ele>141.1</ele>
        <time>2012-10-07T08:44:32Z</time>
      </trkpt>
      <trkpt lat="48.79713" lon="2.22197">
        <ele>141.1</ele>
        <time>2012-10-07T08:44:37Z</time>
      </trkpt>
      <trkpt lat="48.79713" lon="2.22197">
        <ele>141.1</ele>
        <time>2012-10-07T08:44:42Z</time>
      </trkpt>
      <trkpt lat="48.79713" lon="2.22197">
        <ele>141.1</ele>
        <time>2012-10-07T08:44:47Z</time>
      </trkpt>
      <trkpt lat="48.79713" lon="2.22197">
        <ele>141.1</ele>
        <time>2012-10-07T08:44:52Z</time>
      </trkpt>
      <trkpt lat="48.79711" lon="2.22196">
        <ele>140.8</ele>
        <time>2012-10-07T08:44:57Z</time>
      </trkpt>
      <trkpt lat="48.79711" lon="2.22196">
        <ele>140.8</ele>
        <time>2012-10-07T08:45:02Z</time>
      </trkpt>
      <trkpt lat="48.79711" lon="2.22196">
        <ele>140.8</ele>
        <time>2012-10-07T08:45:07Z</time>
      </trkpt>
      <trkpt lat="48.79711" lon="2.22196">
        <ele>140.8</ele>
        <time>2012-10-07T08:45:08Z</time>
      </trkpt>
      <trkpt lat="48.79712" lon="2.22195">
        <ele>141.1</ele>
        <time>2012-10-07T08:45:17Z</time>
      </trkpt>
      <trkpt lat="48.79712" lon="2.22195">
        <ele>141.1</ele>
        <time>2012-10-07T08:45:22Z</time>
      </trkpt>
      <trkpt lat="48.79712" lon="2.22195">
        <ele>140.3</ele>
        <time>2012-10-07T08:45:27Z</time>
      </trkpt>
      <trkpt lat="48.79712" lon="2.22195">
        <ele>140.3</ele>
        <time>2012-10-07T08:45:32Z</time>
      </trkpt>
      <trkpt lat="48.79712" lon="2.22195">
        <ele>140.3</ele>
        <time>2012-10-07T08:45:37Z</time>
      </trkpt>
      <trkpt lat="48.79712" lon="2.22194">
        <ele>139.8</ele>
        <time>2012-10-07T08:45:42Z</time>
      </trkpt>
      <trkpt lat="48.79711" lon="2.22193">
        <ele>139.8</ele>
        <time>2012-10-07T08:45:47Z</time>
      </trkpt>
      <trkpt lat="48.79711" lon="2.22193">
        <ele>139.8</ele>
        <time>2012-10-07T08:45:52Z</time>
      </trkpt>
      <trkpt lat="48.79711" lon="2.22193">
        <ele>139.8</ele>
        <time>2012-10-07T08:45:57Z</time>
      </trkpt>
      <trkpt lat="48.79712" lon="2.22191">
        <ele>141</ele>
        <time>2012-10-07T08:46:02Z</time>
      </trkpt>
      <trkpt lat="48.79712" lon="2.22191">
        <ele>141</ele>
        <time>2012-10-07T08:46:07Z</time>
      </trkpt>
      <trkpt lat="48.79712" lon="2.22191">
        <ele>141</ele>
        <time>2012-10-07T08:46:12Z</time>
      </trkpt>
      <trkpt lat="48.79712" lon="2.22191">
        <ele>141</ele>
        <time>2012-10-07T08:46:13Z</time>
      </trkpt>
      <trkpt lat="48.79712" lon="2.22191">
        <ele>141</ele>
        <time>2012-10-07T08:46:22Z</time>
      </trkpt>
      <trkpt lat="48.79712" lon="2.22191">
        <ele>141</ele>
        <time>2012-10-07T08:46:27Z</time>
      </trkpt>
      <trkpt lat="48.79712" lon="2.22191">
        <ele>141</ele>
        <time>2012-10-07T08:46:32Z</time>
      </trkpt>
      <trkpt lat="48.79712" lon="2.22191">
        <ele>141</ele>
        <time>2012-10-07T08:46:37Z</time>
      </trkpt>
      <trkpt lat="48.79712" lon="2.22191">
        <ele>141</ele>
        <time>2012-10-07T08:46:42Z</time>
      </trkpt>
      <trkpt lat="48.79713" lon="2.22192">
        <ele>140.1</ele>
        <time>2012-10-07T08:46:47Z</time>
      </trkpt>
      <trkpt lat="48.79709" lon="2.22192">
        <ele>138.3</ele>
        <time>2012-10-07T08:46:52Z</time>
      </trkpt>
      <trkpt lat="48.79709" lon="2.22191">
        <ele>138.5</ele>
        <time>2012-10-07T08:46:57Z</time>
      </trkpt>
      <trkpt lat="48.79711" lon="2.22189">
        <ele>137.6</ele>
        <time>2012-10-07T08:47:02Z</time>
      </trkpt>
      <trkpt lat="48.79711" lon="2.22189">
        <ele>137.6</ele>
        <time>2012-10-07T08:47:07Z</time>
      </trkpt>
      <trkpt lat="48.79711" lon="2.22189">
        <ele>137.6</ele>
        <time>2012-10-07T08:47:12Z</time>
      </trkpt>
      <trkpt lat="48.79711" lon="2.22189">
        <ele>137.6</ele>
        <time>2012-10-07T08:47:17Z</time>
      </trkpt>
      <trkpt lat="48.79711" lon="2.22189">
        <ele>137.8</ele>
        <time>2012-10-07T08:47:18Z</time>
      </trkpt>
      <trkpt lat="48.79714" lon="2.22186">
        <ele>139.6</ele>
        <time>2012-10-07T08:47:27Z</time>
      </trkpt>
      <trkpt lat="48.79714" lon="2.22186">
        <ele>139.6</ele>
        <time>2012-10-07T08:47:32Z</time>
      </trkpt>
      <trkpt lat="48.79714" lon="2.22183">
        <ele>140</ele>
        <time>2012-10-07T08:47:37Z</time>
      </trkpt>
      <trkpt lat="48.79716" lon="2.22186">
        <ele>141</ele>
        <time>2012-10-07T08:47:42Z</time>
      </trkpt>
      <trkpt lat="48.79713" lon="2.22189">
        <ele>141.8</ele>
        <time>2012-10-07T08:47:47Z</time>
      </trkpt>
      <trkpt lat="48.79707" lon="2.22191">
        <ele>142.3</ele>
        <time>2012-10-07T08:47:52Z</time>
      </trkpt>
      <trkpt lat="48.79704" lon="2.2219">
        <ele>142</ele>
        <time>2012-10-07T08:47:57Z</time>
      </trkpt>
      <trkpt lat="48.79699" lon="2.22188">
        <ele>142.8</ele>
        <time>2012-10-07T08:48:02Z</time>
      </trkpt>
      <trkpt lat="48.79699" lon="2.2219">
        <ele>143.3</ele>
        <time>2012-10-07T08:48:07Z</time>
      </trkpt>
      <trkpt lat="48.79699" lon="2.22193">
        <ele>143.8</ele>
        <time>2012-10-07T08:48:12Z</time>
      </trkpt>
      <trkpt lat="48.79698" lon="2.22189">
        <ele>143.8</ele>
        <time>2012-10-07T08:48:17Z</time>
      </trkpt>
      <trkpt lat="48.79697" lon="2.22192">
        <ele>144.6</ele>
        <time>2012-10-07T08:48:22Z</time>
      </trkpt>
      <trkpt lat="48.79697" lon="2.22192">
        <ele>144.6</ele>
        <time>2012-10-07T08:48:23Z</time>
      </trkpt>
      <trkpt lat="48.79699" lon="2.22191">
        <ele>146</ele>
        <time>2012-10-07T08:48:32Z</time>
      </trkpt>
      <trkpt lat="48.79699" lon="2.22191">
        <ele>146</ele>
        <time>2012-10-07T08:48:37Z</time>
      </trkpt>
      <trkpt lat="48.797" lon="2.22191">
        <ele>146.3</ele>
        <time>2012-10-07T08:48:42Z</time>
      </trkpt>
      <trkpt lat="48.797" lon="2.22191">
        <ele>145.3</ele>
        <time>2012-10-07T08:48:47Z</time>
      </trkpt>
      <trkpt lat="48.797" lon="2.22191">
        <ele>145.3</ele>
        <time>2012-10-07T08:48:52Z</time>
      </trkpt>
      <trkpt lat="48.79697" lon="2.22192">
        <ele>145.6</ele>
        <time>2012-10-07T08:48:57Z</time>
      </trkpt>
      <trkpt lat="48.79697" lon="2.22191">
        <ele>145.3</ele>
        <time>2012-10-07T08:49:02Z</time>
      </trkpt>
      <trkpt lat="48.79684" lon="2.22187">
        <ele>145.3</ele>
        <time>2012-10-07T08:49:07Z</time>
      </trkpt>
      <trkpt lat="48.79676" lon="2.22188">
        <ele>146.3</ele>
        <time>2012-10-07T08:49:12Z</time>
      </trkpt>
      <trkpt lat="48.79675" lon="2.22189">
        <ele>146.8</ele>
        <time>2012-10-07T08:49:17Z</time>
      </trkpt>
      <trkpt lat="48.79674" lon="2.22192">
        <ele>148.1</ele>
        <time>2012-10-07T08:49:22Z</time>
      </trkpt>
      <trkpt lat="48.79672" lon="2.22192">
        <ele>149.1</ele>
        <time>2012-10-07T08:49:27Z</time>
      </trkpt>
      <trkpt lat="48.79672" lon="2.22192">
        <ele>149.1</ele>
        <time>2012-10-07T08:49:28Z</time>
      </trkpt>
      <trkpt lat="48.79671" lon="2.22194">
        <ele>150.6</ele>
        <time>2012-10-07T08:49:37Z</time>
      </trkpt>
      <trkpt lat="48.79664" lon="2.22199">
        <ele>151.6</ele>
        <time>2012-10-07T08:49:42Z</time>
      </trkpt>
      <trkpt lat="48.79658" lon="2.22201">
        <ele>152.1</ele>
        <time>2012-10-07T08:49:47Z</time>
      </trkpt>
      <trkpt lat="48.79652" lon="2.22205">
        <ele>152.6</ele>
        <time>2012-10-07T08:49:52Z</time>
      </trkpt>
      <trkpt lat="48.79651" lon="2.2221">
        <ele>153.3</ele>
        <time>2012-10-07T08:49:57Z</time>
      </trkpt>
      <trkpt lat="48.79649" lon="2.22211">
        <ele>153.5</ele>
        <time>2012-10-07T08:50:02Z</time>
      </trkpt>
      <trkpt lat="48.79647" lon="2.22213">
        <ele>153.6</ele>
        <time>2012-10-07T08:50:07Z</time>
      </trkpt>
      <trkpt lat="48.79644" lon="2.22213">
        <ele>153.5</ele>
        <time>2012-10-07T08:50:12Z</time>
      </trkpt>
      <trkpt lat="48.79643" lon="2.22216">
        <ele>154.8</ele>
        <time>2012-10-07T08:50:17Z</time>
      </trkpt>
      <trkpt lat="48.7964" lon="2.22219">
        <ele>156.3</ele>
        <time>2012-10-07T08:50:22Z</time>
      </trkpt>
      <trkpt lat="48.79638" lon="2.22224">
        <ele>157.1</ele>
        <time>2012-10-07T08:50:27Z</time>
      </trkpt>
      <trkpt lat="48.79635" lon="2.22227">
        <ele>157.3</ele>
        <time>2012-10-07T08:50:32Z</time>
      </trkpt>
      <trkpt lat="48.79635" lon="2.22227">
        <ele>157.3</ele>
        <time>2012-10-07T08:50:33Z</time>
      </trkpt>
      <trkpt lat="48.79629" lon="2.22239">
        <ele>158.1</ele>
        <time>2012-10-07T08:50:42Z</time>
      </trkpt>
      <trkpt lat="48.79625" lon="2.22247">
        <ele>161</ele>
        <time>2012-10-07T08:50:47Z</time>
      </trkpt>
      <trkpt lat="48.79619" lon="2.22251">
        <ele>160.1</ele>
        <time>2012-10-07T08:50:52Z</time>
      </trkpt>
      <trkpt lat="48.79614" lon="2.22259">
        <ele>161.3</ele>
        <time>2012-10-07T08:50:57Z</time>
      </trkpt>
      <trkpt lat="48.7961" lon="2.22268">
        <ele>162.3</ele>
        <time>2012-10-07T08:51:02Z</time>
      </trkpt>
      <trkpt lat="48.7961" lon="2.22273">
        <ele>162.8</ele>
        <time>2012-10-07T08:51:07Z</time>
      </trkpt>
      <trkpt lat="48.79603" lon="2.22278">
        <ele>163.8</ele>
        <time>2012-10-07T08:51:12Z</time>
      </trkpt>
      <trkpt lat="48.79601" lon="2.22278">
        <ele>163.3</ele>
        <time>2012-10-07T08:51:17Z</time>
      </trkpt>
      <trkpt lat="48.796" lon="2.22279">
        <ele>162.5</ele>
        <time>2012-10-07T08:51:22Z</time>
      </trkpt>
      <trkpt lat="48.79593" lon="2.22284">
        <ele>162.8</ele>
        <time>2012-10-07T08:51:27Z</time>
      </trkpt>
      <trkpt lat="48.79591" lon="2.22287">
        <ele>163</ele>
        <time>2012-10-07T08:51:32Z</time>
      </trkpt>
      <trkpt lat="48.79588" lon="2.22291">
        <ele>163.3</ele>
        <time>2012-10-07T08:51:37Z</time>
      </trkpt>
      <trkpt lat="48.79586" lon="2.22293">
        <ele>163.1</ele>
        <time>2012-10-07T08:51:38Z</time>
      </trkpt>
      <trkpt lat="48.79578" lon="2.223">
        <ele>161.1</ele>
        <time>2012-10-07T08:51:47Z</time>
      </trkpt>
      <trkpt lat="48.79572" lon="2.22305">
        <ele>160.8</ele>
        <time>2012-10-07T08:51:52Z</time>
      </trkpt>
      <trkpt lat="48.79567" lon="2.22316">
        <ele>162.1</ele>
        <time>2012-10-07T08:51:57Z</time>
      </trkpt>
      <trkpt lat="48.79563" lon="2.22324">
        <ele>161.1</ele>
        <time>2012-10-07T08:52:02Z</time>
      </trkpt>
      <trkpt lat="48.79558" lon="2.22333">
        <ele>161.8</ele>
        <time>2012-10-07T08:52:07Z</time>
      </trkpt>
      <trkpt lat="48.79555" lon="2.22341">
        <ele>161.6</ele>
        <time>2012-10-07T08:52:12Z</time>
      </trkpt>
      <trkpt lat="48.79551" lon="2.22348">
        <ele>162.3</ele>
        <time>2012-10-07T08:52:17Z</time>
      </trkpt>
      <trkpt lat="48.79549" lon="2.22353">
        <ele>161.3</ele>
        <time>2012-10-07T08:52:22Z</time>
      </trkpt>
      <trkpt lat="48.79547" lon="2.2236">
        <ele>160.8</ele>
        <time>2012-10-07T08:52:27Z</time>
      </trkpt>
      <trkpt lat="48.79544" lon="2.22369">
        <ele>159.8</ele>
        <time>2012-10-07T08:52:32Z</time>
      </trkpt>
      <trkpt lat="48.79542" lon="2.22375">
        <ele>160</ele>
        <time>2012-10-07T08:52:37Z</time>
      </trkpt>
      <trkpt lat="48.79536" lon="2.22386">
        <ele>159.8</ele>
        <time>2012-10-07T08:52:42Z</time>
      </trkpt>
      <trkpt lat="48.79534" lon="2.22388">
        <ele>159.8</ele>
        <time>2012-10-07T08:52:43Z</time>
      </trkpt>
      <trkpt lat="48.79525" lon="2.224">
        <ele>159.6</ele>
        <time>2012-10-07T08:52:52Z</time>
      </trkpt>
      <trkpt lat="48.79525" lon="2.22404">
        <ele>159.8</ele>
        <time>2012-10-07T08:52:57Z</time>
      </trkpt>
      <trkpt lat="48.79525" lon="2.22407">
        <ele>159.3</ele>
        <time>2012-10-07T08:53:02Z</time>
      </trkpt>
      <trkpt lat="48.79524" lon="2.22411">
        <ele>160.6</ele>
        <time>2012-10-07T08:53:07Z</time>
      </trkpt>
      <trkpt lat="48.79523" lon="2.22414">
        <ele>161.1</ele>
        <time>2012-10-07T08:53:12Z</time>
      </trkpt>
      <trkpt lat="48.79523" lon="2.22418">
        <ele>160.3</ele>
        <time>2012-10-07T08:53:17Z</time>
      </trkpt>
      <trkpt lat="48.79527" lon="2.22427">
        <ele>159.1</ele>
        <time>2012-10-07T08:53:22Z</time>
      </trkpt>
      <trkpt lat="48.79522" lon="2.22436">
        <ele>158.3</ele>
        <time>2012-10-07T08:53:27Z</time>
      </trkpt>
      <trkpt lat="48.79521" lon="2.22445">
        <ele>157.5</ele>
        <time>2012-10-07T08:53:32Z</time>
      </trkpt>
      <trkpt lat="48.7952" lon="2.22452">
        <ele>156.3</ele>
        <time>2012-10-07T08:53:37Z</time>
      </trkpt>
      <trkpt lat="48.79516" lon="2.22458">
        <ele>156.5</ele>
        <time>2012-10-07T08:53:42Z</time>
      </trkpt>
      <trkpt lat="48.79515" lon="2.22464">
        <ele>155.6</ele>
        <time>2012-10-07T08:53:47Z</time>
      </trkpt>
      <trkpt lat="48.79514" lon="2.22467">
        <ele>155.5</ele>
        <time>2012-10-07T08:53:48Z</time>
      </trkpt>
      <trkpt lat="48.79512" lon="2.22474">
        <ele>155.5</ele>
        <time>2012-10-07T08:53:57Z</time>
      </trkpt>
      <trkpt lat="48.79506" lon="2.22484">
        <ele>154.3</ele>
        <time>2012-10-07T08:54:02Z</time>
      </trkpt>
      <trkpt lat="48.79501" lon="2.22493">
        <ele>155.1</ele>
        <time>2012-10-07T08:54:07Z</time>
      </trkpt>
      <trkpt lat="48.795" lon="2.22499">
        <ele>154.3</ele>
        <time>2012-10-07T08:54:12Z</time>
      </trkpt>
      <trkpt lat="48.79492" lon="2.22502">
        <ele>155.1</ele>
        <time>2012-10-07T08:54:17Z</time>
      </trkpt>
      <trkpt lat="48.79488" lon="2.22507">
        <ele>154.6</ele>
        <time>2012-10-07T08:54:22Z</time>
      </trkpt>
      <trkpt lat="48.79485" lon="2.22516">
        <ele>154.8</ele>
        <time>2012-10-07T08:54:27Z</time>
      </trkpt>
      <trkpt lat="48.79485" lon="2.22523">
        <ele>152.8</ele>
        <time>2012-10-07T08:54:32Z</time>
      </trkpt>
      <trkpt lat="48.79486" lon="2.2253">
        <ele>151.1</ele>
        <time>2012-10-07T08:54:37Z</time>
      </trkpt>
      <trkpt lat="48.79482" lon="2.2254">
        <ele>151.3</ele>
        <time>2012-10-07T08:54:42Z</time>
      </trkpt>
      <trkpt lat="48.79482" lon="2.2255">
        <ele>149.3</ele>
        <time>2012-10-07T08:54:47Z</time>
      </trkpt>
      <trkpt lat="48.79485" lon="2.22559">
        <ele>148.3</ele>
        <time>2012-10-07T08:54:52Z</time>
      </trkpt>
      <trkpt lat="48.79485" lon="2.2256">
        <ele>148.1</ele>
        <time>2012-10-07T08:54:53Z</time>
      </trkpt>
      <trkpt lat="48.79485" lon="2.22572">
        <ele>145.8</ele>
        <time>2012-10-07T08:55:02Z</time>
      </trkpt>
      <trkpt lat="48.7948" lon="2.22575">
        <ele>144.8</ele>
        <time>2012-10-07T08:55:07Z</time>
      </trkpt>
      <trkpt lat="48.79478" lon="2.22586">
        <ele>142.8</ele>
        <time>2012-10-07T08:55:12Z</time>
      </trkpt>
      <trkpt lat="48.79477" lon="2.22593">
        <ele>142.5</ele>
        <time>2012-10-07T08:55:17Z</time>
      </trkpt>
      <trkpt lat="48.79475" lon="2.226">
        <ele>140.1</ele>
        <time>2012-10-07T08:55:22Z</time>
      </trkpt>
      <trkpt lat="48.79474" lon="2.22606">
        <ele>140.3</ele>
        <time>2012-10-07T08:55:27Z</time>
      </trkpt>
      <trkpt lat="48.79475" lon="2.22616">
        <ele>138.5</ele>
        <time>2012-10-07T08:55:32Z</time>
      </trkpt>
      <trkpt lat="48.79476" lon="2.22624">
        <ele>135.6</ele>
        <time>2012-10-07T08:55:37Z</time>
      </trkpt>
      <trkpt lat="48.79473" lon="2.22629">
        <ele>132.8</ele>
        <time>2012-10-07T08:55:42Z</time>
      </trkpt>
      <trkpt lat="48.79471" lon="2.22636">
        <ele>132.8</ele>
        <time>2012-10-07T08:55:47Z</time>
      </trkpt>
      <trkpt lat="48.79471" lon="2.22637">
        <ele>133.1</ele>
        <time>2012-10-07T08:55:52Z</time>
      </trkpt>
      <trkpt lat="48.79471" lon="2.22637">
        <ele>133.1</ele>
        <time>2012-10-07T08:55:57Z</time>
      </trkpt>
      <trkpt lat="48.79471" lon="2.22637">
        <ele>133.1</ele>
        <time>2012-10-07T08:55:58Z</time>
      </trkpt>
      <trkpt lat="48.7947" lon="2.22638">
        <ele>132.6</ele>
        <time>2012-10-07T08:56:07Z</time>
      </trkpt>
      <trkpt lat="48.79469" lon="2.22644">
        <ele>131.6</ele>
        <time>2012-10-07T08:56:12Z</time>
      </trkpt>
      <trkpt lat="48.79465" lon="2.22653">
        <ele>133.5</ele>
        <time>2012-10-07T08:56:17Z</time>
      </trkpt>
      <trkpt lat="48.79465" lon="2.22656">
        <ele>133.1</ele>
        <time>2012-10-07T08:56:22Z</time>
      </trkpt>
      <trkpt lat="48.79464" lon="2.22658">
        <ele>133.8</ele>
        <time>2012-10-07T08:56:27Z</time>
      </trkpt>
      <trkpt lat="48.79458" lon="2.22668">
        <ele>134.8</ele>
        <time>2012-10-07T08:56:32Z</time>
      </trkpt>
      <trkpt lat="48.79456" lon="2.22669">
        <ele>135.1</ele>
        <time>2012-10-07T08:56:37Z</time>
      </trkpt>
      <trkpt lat="48.79448" lon="2.22675">
        <ele>136.6</ele>
        <time>2012-10-07T08:56:42Z</time>
      </trkpt>
      <trkpt lat="48.79447" lon="2.22678">
        <ele>137.8</ele>
        <time>2012-10-07T08:56:47Z</time>
      </trkpt>
      <trkpt lat="48.79447" lon="2.22687">
        <ele>138.5</ele>
        <time>2012-10-07T08:56:52Z</time>
      </trkpt>
      <trkpt lat="48.79445" lon="2.2269">
        <ele>138.3</ele>
        <time>2012-10-07T08:56:57Z</time>
      </trkpt>
      <trkpt lat="48.79447" lon="2.22692">
        <ele>137.3</ele>
        <time>2012-10-07T08:57:02Z</time>
      </trkpt>
      <trkpt lat="48.79447" lon="2.22692">
        <ele>137.3</ele>
        <time>2012-10-07T08:57:03Z</time>
      </trkpt>
      <trkpt lat="48.7944" lon="2.22695">
        <ele>137.8</ele>
        <time>2012-10-07T08:57:12Z</time>
      </trkpt>
      <trkpt lat="48.79441" lon="2.22703">
        <ele>137.8</ele>
        <time>2012-10-07T08:57:17Z</time>
      </trkpt>
      <trkpt lat="48.79437" lon="2.22709">
        <ele>138.5</ele>
        <time>2012-10-07T08:57:22Z</time>
      </trkpt>
      <trkpt lat="48.79435" lon="2.22713">
        <ele>138.1</ele>
        <time>2012-10-07T08:57:27Z</time>
      </trkpt>
      <trkpt lat="48.7943" lon="2.22718">
        <ele>138.3</ele>
        <time>2012-10-07T08:57:32Z</time>
      </trkpt>
      <trkpt lat="48.79428" lon="2.22724">
        <ele>139.6</ele>
        <time>2012-10-07T08:57:37Z</time>
      </trkpt>
      <trkpt lat="48.79426" lon="2.22729">
        <ele>140.6</ele>
        <time>2012-10-07T08:57:42Z</time>
      </trkpt>
      <trkpt lat="48.79428" lon="2.22733">
        <ele>140.3</ele>
        <time>2012-10-07T08:57:47Z</time>
      </trkpt>
      <trkpt lat="48.79427" lon="2.22736">
        <ele>142.1</ele>
        <time>2012-10-07T08:57:52Z</time>
      </trkpt>
      <trkpt lat="48.79423" lon="2.22742">
        <ele>142.5</ele>
        <time>2012-10-07T08:57:57Z</time>
      </trkpt>
      <trkpt lat="48.79419" lon="2.22744">
        <ele>143.1</ele>
        <time>2012-10-07T08:58:02Z</time>
      </trkpt>
      <trkpt lat="48.79416" lon="2.2275">
        <ele>144.1</ele>
        <time>2012-10-07T08:58:07Z</time>
      </trkpt>
      <trkpt lat="48.79414" lon="2.2275">
        <ele>143.6</ele>
        <time>2012-10-07T08:58:08Z</time>
      </trkpt>
      <trkpt lat="48.79398" lon="2.22759">
        <ele>142.6</ele>
        <time>2012-10-07T08:58:17Z</time>
      </trkpt>
      <trkpt lat="48.79397" lon="2.22763">
        <ele>143</ele>
        <time>2012-10-07T08:58:22Z</time>
      </trkpt>
      <trkpt lat="48.79394" lon="2.2277">
        <ele>143</ele>
        <time>2012-10-07T08:58:27Z</time>
      </trkpt>
      <trkpt lat="48.79394" lon="2.22774">
        <ele>144.1</ele>
        <time>2012-10-07T08:58:32Z</time>
      </trkpt>
      <trkpt lat="48.79392" lon="2.22777">
        <ele>144.3</ele>
        <time>2012-10-07T08:58:37Z</time>
      </trkpt>
      <trkpt lat="48.7939" lon="2.22787">
        <ele>145</ele>
        <time>2012-10-07T08:58:42Z</time>
      </trkpt>
      <trkpt lat="48.79391" lon="2.228">
        <ele>144.8</ele>
        <time>2012-10-07T08:58:47Z</time>
      </trkpt>
      <trkpt lat="48.79386" lon="2.22806">
        <ele>144.3</ele>
        <time>2012-10-07T08:58:52Z</time>
      </trkpt>
      <trkpt lat="48.79388" lon="2.22813">
        <ele>146.3</ele>
        <time>2012-10-07T08:58:57Z</time>
      </trkpt>
      <trkpt lat="48.79394" lon="2.22822">
        <ele>147.1</ele>
        <time>2012-10-07T08:59:02Z</time>
      </trkpt>
      <trkpt lat="48.79396" lon="2.22826">
        <ele>147.6</ele>
        <time>2012-10-07T08:59:07Z</time>
      </trkpt>
      <trkpt lat="48.79396" lon="2.22826">
        <ele>147.6</ele>
        <time>2012-10-07T08:59:12Z</time>
      </trkpt>
      <trkpt lat="48.79396" lon="2.22826">
        <ele>147.6</ele>
        <time>2012-10-07T08:59:13Z</time>
      </trkpt>
      <trkpt lat="48.79396" lon="2.22827">
        <ele>148.1</ele>
        <time>2012-10-07T08:59:22Z</time>
      </trkpt>
      <trkpt lat="48.79396" lon="2.22827">
        <ele>148.1</ele>
        <time>2012-10-07T08:59:27Z</time>
      </trkpt>
      <trkpt lat="48.79396" lon="2.22827">
        <ele>148.1</ele>
        <time>2012-10-07T08:59:32Z</time>
      </trkpt>
      <trkpt lat="48.79396" lon="2.22827">
        <ele>148.1</ele>
        <time>2012-10-07T08:59:37Z</time>
      </trkpt>
      <trkpt lat="48.79396" lon="2.22827">
        <ele>148.1</ele>
        <time>2012-10-07T08:59:42Z</time>
      </trkpt>
      <trkpt lat="48.79396" lon="2.22827">
        <ele>148.1</ele>
        <time>2012-10-07T08:59:47Z</time>
      </trkpt>
      <trkpt lat="48.79396" lon="2.22827">
        <ele>148.1</ele>
        <time>2012-10-07T08:59:52Z</time>
      </trkpt>
      <trkpt lat="48.79396" lon="2.22827">
        <ele>148.1</ele>
        <time>2012-10-07T08:59:57Z</time>
      </trkpt>
      <trkpt lat="48.79396" lon="2.22827">
        <ele>148.1</ele>
        <time>2012-10-07T09:00:02Z</time>
      </trkpt>
      <trkpt lat="48.79396" lon="2.22827">
        <ele>148.1</ele>
        <time>2012-10-07T09:00:07Z</time>
      </trkpt>
      <trkpt lat="48.79393" lon="2.22827">
        <ele>148.8</ele>
        <time>2012-10-07T09:00:12Z</time>
      </trkpt>
      <trkpt lat="48.79388" lon="2.22827">
        <ele>149</ele>
        <time>2012-10-07T09:00:17Z</time>
      </trkpt>
      <trkpt lat="48.79388" lon="2.22827">
        <ele>149</ele>
        <time>2012-10-07T09:00:18Z</time>
      </trkpt>
      <trkpt lat="48.79388" lon="2.22827">
        <ele>149</ele>
        <time>2012-10-07T09:00:27Z</time>
      </trkpt>
      <trkpt lat="48.79388" lon="2.22827">
        <ele>149</ele>
        <time>2012-10-07T09:00:32Z</time>
      </trkpt>
      <trkpt lat="48.79388" lon="2.22827">
        <ele>149.6</ele>
        <time>2012-10-07T09:00:37Z</time>
      </trkpt>
      <trkpt lat="48.79388" lon="2.22828">
        <ele>152</ele>
        <time>2012-10-07T09:00:42Z</time>
      </trkpt>
      <trkpt lat="48.79388" lon="2.22828">
        <ele>152</ele>
        <time>2012-10-07T09:00:47Z</time>
      </trkpt>
      <trkpt lat="48.79388" lon="2.22828">
        <ele>152</ele>
        <time>2012-10-07T09:00:52Z</time>
      </trkpt>
      <trkpt lat="48.79388" lon="2.22828">
        <ele>152</ele>
        <time>2012-10-07T09:00:57Z</time>
      </trkpt>
      <trkpt lat="48.79388" lon="2.22828">
        <ele>152</ele>
        <time>2012-10-07T09:01:02Z</time>
      </trkpt>
      <trkpt lat="48.79388" lon="2.22829">
        <ele>152.8</ele>
        <time>2012-10-07T09:01:07Z</time>
      </trkpt>
      <trkpt lat="48.79388" lon="2.22829">
        <ele>152.8</ele>
        <time>2012-10-07T09:01:12Z</time>
      </trkpt>
      <trkpt lat="48.79388" lon="2.22829">
        <ele>153.1</ele>
        <time>2012-10-07T09:01:17Z</time>
      </trkpt>
      <trkpt lat="48.79388" lon="2.2283">
        <ele>153.1</ele>
        <time>2012-10-07T09:01:22Z</time>
      </trkpt>
      <trkpt lat="48.79388" lon="2.2283">
        <ele>153.1</ele>
        <time>2012-10-07T09:01:23Z</time>
      </trkpt>
      <trkpt lat="48.79392" lon="2.2284">
        <ele>154</ele>
        <time>2012-10-07T09:01:32Z</time>
      </trkpt>
      <trkpt lat="48.79391" lon="2.22849">
        <ele>151</ele>
        <time>2012-10-07T09:01:37Z</time>
      </trkpt>
      <trkpt lat="48.7939" lon="2.22853">
        <ele>151.5</ele>
        <time>2012-10-07T09:01:42Z</time>
      </trkpt>
      <trkpt lat="48.79387" lon="2.22859">
        <ele>151.6</ele>
        <time>2012-10-07T09:01:47Z</time>
      </trkpt>
      <trkpt lat="48.79389" lon="2.22866">
        <ele>151.6</ele>
        <time>2012-10-07T09:01:52Z</time>
      </trkpt>
      <trkpt lat="48.79388" lon="2.22872">
        <ele>151.1</ele>
        <time>2012-10-07T09:01:57Z</time>
      </trkpt>
      <trkpt lat="48.79388" lon="2.22878">
        <ele>152.1</ele>
        <time>2012-10-07T09:02:02Z</time>
      </trkpt>
      <trkpt lat="48.79386" lon="2.22883">
        <ele>152.8</ele>
        <time>2012-10-07T09:02:07Z</time>
      </trkpt>
      <trkpt lat="48.79386" lon="2.2289">
        <ele>153.5</ele>
        <time>2012-10-07T09:02:12Z</time>
      </trkpt>
      <trkpt lat="48.79384" lon="2.22901">
        <ele>154.3</ele>
        <time>2012-10-07T09:02:17Z</time>
      </trkpt>
      <trkpt lat="48.79382" lon="2.22913">
        <ele>153.8</ele>
        <time>2012-10-07T09:02:22Z</time>
      </trkpt>
      <trkpt lat="48.7938" lon="2.22924">
        <ele>154.1</ele>
        <time>2012-10-07T09:02:27Z</time>
      </trkpt>
      <trkpt lat="48.79379" lon="2.22927">
        <ele>154.3</ele>
        <time>2012-10-07T09:02:28Z</time>
      </trkpt>
      <trkpt lat="48.79375" lon="2.22942">
        <ele>152.8</ele>
        <time>2012-10-07T09:02:37Z</time>
      </trkpt>
      <trkpt lat="48.79372" lon="2.22952">
        <ele>151.5</ele>
        <time>2012-10-07T09:02:42Z</time>
      </trkpt>
      <trkpt lat="48.79374" lon="2.22959">
        <ele>152.3</ele>
        <time>2012-10-07T09:02:47Z</time>
      </trkpt>
      <trkpt lat="48.79373" lon="2.2297">
        <ele>151.8</ele>
        <time>2012-10-07T09:02:52Z</time>
      </trkpt>
      <trkpt lat="48.79371" lon="2.22978">
        <ele>152.3</ele>
        <time>2012-10-07T09:02:57Z</time>
      </trkpt>
      <trkpt lat="48.79366" lon="2.22989">
        <ele>153.6</ele>
        <time>2012-10-07T09:03:02Z</time>
      </trkpt>
      <trkpt lat="48.79365" lon="2.22998">
        <ele>153</ele>
        <time>2012-10-07T09:03:07Z</time>
      </trkpt>
      <trkpt lat="48.79368" lon="2.23008">
        <ele>152</ele>
        <time>2012-10-07T09:03:12Z</time>
      </trkpt>
      <trkpt lat="48.79366" lon="2.23017">
        <ele>151.3</ele>
        <time>2012-10-07T09:03:17Z</time>
      </trkpt>
      <trkpt lat="48.79371" lon="2.23025">
        <ele>151.8</ele>
        <time>2012-10-07T09:03:22Z</time>
      </trkpt>
      <trkpt lat="48.79369" lon="2.23035">
        <ele>150.8</ele>
        <time>2012-10-07T09:03:27Z</time>
      </trkpt>
      <trkpt lat="48.7937" lon="2.23043">
        <ele>149.3</ele>
        <time>2012-10-07T09:03:32Z</time>
      </trkpt>
      <trkpt lat="48.7937" lon="2.23045">
        <ele>149</ele>
        <time>2012-10-07T09:03:33Z</time>
      </trkpt>
      <trkpt lat="48.79364" lon="2.23066">
        <ele>150.8</ele>
        <time>2012-10-07T09:03:42Z</time>
      </trkpt>
      <trkpt lat="48.79358" lon="2.23076">
        <ele>151.3</ele>
        <time>2012-10-07T09:03:47Z</time>
      </trkpt>
      <trkpt lat="48.79358" lon="2.23089">
        <ele>151.3</ele>
        <time>2012-10-07T09:03:52Z</time>
      </trkpt>
      <trkpt lat="48.79359" lon="2.23092">
        <ele>151.3</ele>
        <time>2012-10-07T09:03:57Z</time>
      </trkpt>
      <trkpt lat="48.79359" lon="2.23092">
        <ele>151.3</ele>
        <time>2012-10-07T09:04:02Z</time>
      </trkpt>
      <trkpt lat="48.79359" lon="2.23091">
        <ele>151.5</ele>
        <time>2012-10-07T09:04:07Z</time>
      </trkpt>
      <trkpt lat="48.79359" lon="2.23092">
        <ele>151.8</ele>
        <time>2012-10-07T09:04:12Z</time>
      </trkpt>
      <trkpt lat="48.79357" lon="2.23098">
        <ele>150.1</ele>
        <time>2012-10-07T09:04:17Z</time>
      </trkpt>
      <trkpt lat="48.79354" lon="2.23104">
        <ele>150.3</ele>
        <time>2012-10-07T09:04:22Z</time>
      </trkpt>
      <trkpt lat="48.79353" lon="2.23109">
        <ele>149.6</ele>
        <time>2012-10-07T09:04:27Z</time>
      </trkpt>
      <trkpt lat="48.79352" lon="2.23114">
        <ele>149.1</ele>
        <time>2012-10-07T09:04:32Z</time>
      </trkpt>
      <trkpt lat="48.79354" lon="2.23116">
        <ele>147.1</ele>
        <time>2012-10-07T09:04:37Z</time>
      </trkpt>
      <trkpt lat="48.79354" lon="2.23116">
        <ele>147.3</ele>
        <time>2012-10-07T09:04:38Z</time>
      </trkpt>
      <trkpt lat="48.7935" lon="2.2312">
        <ele>146.6</ele>
        <time>2012-10-07T09:04:47Z</time>
      </trkpt>
      <trkpt lat="48.79352" lon="2.23126">
        <ele>147.1</ele>
        <time>2012-10-07T09:04:52Z</time>
      </trkpt>
      <trkpt lat="48.79351" lon="2.23139">
        <ele>147.1</ele>
        <time>2012-10-07T09:04:57Z</time>
      </trkpt>
      <trkpt lat="48.79353" lon="2.23147">
        <ele>147.6</ele>
        <time>2012-10-07T09:05:02Z</time>
      </trkpt>
      <trkpt lat="48.79339" lon="2.23149">
        <ele>146.5</ele>
        <time>2012-10-07T09:05:07Z</time>
      </trkpt>
      <trkpt lat="48.79341" lon="2.23159">
        <ele>147.1</ele>
        <time>2012-10-07T09:05:12Z</time>
      </trkpt>
      <trkpt lat="48.7934" lon="2.2317">
        <ele>144.6</ele>
        <time>2012-10-07T09:05:17Z</time>
      </trkpt>
      <trkpt lat="48.7934" lon="2.23176">
        <ele>143</ele>
        <time>2012-10-07T09:05:22Z</time>
      </trkpt>
      <trkpt lat="48.79337" lon="2.23183">
        <ele>140.3</ele>
        <time>2012-10-07T09:05:27Z</time>
      </trkpt>
      <trkpt lat="48.79332" lon="2.23186">
        <ele>139.3</ele>
        <time>2012-10-07T09:05:32Z</time>
      </trkpt>
      <trkpt lat="48.79331" lon="2.23186">
        <ele>139</ele>
        <time>2012-10-07T09:05:37Z</time>
      </trkpt>
      <trkpt lat="48.79332" lon="2.23194">
        <ele>137.1</ele>
        <time>2012-10-07T09:05:42Z</time>
      </trkpt>
      <trkpt lat="48.79332" lon="2.23195">
        <ele>136</ele>
        <time>2012-10-07T09:05:43Z</time>
      </trkpt>
      <trkpt lat="48.79337" lon="2.23203">
        <ele>135.5</ele>
        <time>2012-10-07T09:05:52Z</time>
      </trkpt>
      <trkpt lat="48.79337" lon="2.23206">
        <ele>135.3</ele>
        <time>2012-10-07T09:05:57Z</time>
      </trkpt>
      <trkpt lat="48.79335" lon="2.23207">
        <ele>134.8</ele>
        <time>2012-10-07T09:06:02Z</time>
      </trkpt>
      <trkpt lat="48.79334" lon="2.23208">
        <ele>134.8</ele>
        <time>2012-10-07T09:06:07Z</time>
      </trkpt>
      <trkpt lat="48.79334" lon="2.2321">
        <ele>135.1</ele>
        <time>2012-10-07T09:06:12Z</time>
      </trkpt>
      <trkpt lat="48.79335" lon="2.23214">
        <ele>133.8</ele>
        <time>2012-10-07T09:06:17Z</time>
      </trkpt>
      <trkpt lat="48.79336" lon="2.23223">
        <ele>134.3</ele>
        <time>2012-10-07T09:06:22Z</time>
      </trkpt>
      <trkpt lat="48.79336" lon="2.23223">
        <ele>134.3</ele>
        <time>2012-10-07T09:06:27Z</time>
      </trkpt>
      <trkpt lat="48.79336" lon="2.23223">
        <ele>134.3</ele>
        <time>2012-10-07T09:06:32Z</time>
      </trkpt>
      <trkpt lat="48.79336" lon="2.23223">
        <ele>134.6</ele>
        <time>2012-10-07T09:06:37Z</time>
      </trkpt>
      <trkpt lat="48.79336" lon="2.23223">
        <ele>134.6</ele>
        <time>2012-10-07T09:06:42Z</time>
      </trkpt>
      <trkpt lat="48.79335" lon="2.23223">
        <ele>134.5</ele>
        <time>2012-10-07T09:06:47Z</time>
      </trkpt>
      <trkpt lat="48.79334" lon="2.23224">
        <ele>134.8</ele>
        <time>2012-10-07T09:06:48Z</time>
      </trkpt>
      <trkpt lat="48.79332" lon="2.23239">
        <ele>134.6</ele>
        <time>2012-10-07T09:06:57Z</time>
      </trkpt>
      <trkpt lat="48.79346" lon="2.2325">
        <ele>133.3</ele>
        <time>2012-10-07T09:07:02Z</time>
      </trkpt>
      <trkpt lat="48.79336" lon="2.2325">
        <ele>131.8</ele>
        <time>2012-10-07T09:07:07Z</time>
      </trkpt>
      <trkpt lat="48.79338" lon="2.23261">
        <ele>129</ele>
        <time>2012-10-07T09:07:12Z</time>
      </trkpt>
      <trkpt lat="48.79341" lon="2.23267">
        <ele>128.1</ele>
        <time>2012-10-07T09:07:17Z</time>
      </trkpt>
      <trkpt lat="48.79337" lon="2.23271">
        <ele>128.1</ele>
        <time>2012-10-07T09:07:22Z</time>
      </trkpt>
      <trkpt lat="48.79315" lon="2.23274">
        <ele>128.5</ele>
        <time>2012-10-07T09:07:27Z</time>
      </trkpt>
      <trkpt lat="48.79311" lon="2.23276">
        <ele>127</ele>
        <time>2012-10-07T09:07:32Z</time>
      </trkpt>
      <trkpt lat="48.79319" lon="2.23286">
        <ele>126</ele>
        <time>2012-10-07T09:07:37Z</time>
      </trkpt>
      <trkpt lat="48.79323" lon="2.23291">
        <ele>126</ele>
        <time>2012-10-07T09:07:42Z</time>
      </trkpt>
      <trkpt lat="48.79319" lon="2.23297">
        <ele>120.8</ele>
        <time>2012-10-07T09:07:47Z</time>
      </trkpt>
      <trkpt lat="48.79314" lon="2.23305">
        <ele>118.8</ele>
        <time>2012-10-07T09:07:52Z</time>
      </trkpt>
      <trkpt lat="48.79313" lon="2.23307">
        <ele>118.1</ele>
        <time>2012-10-07T09:07:53Z</time>
      </trkpt>
      <trkpt lat="48.79317" lon="2.23322">
        <ele>114</ele>
        <time>2012-10-07T09:08:02Z</time>
      </trkpt>
      <trkpt lat="48.79311" lon="2.23335">
        <ele>115</ele>
        <time>2012-10-07T09:08:07Z</time>
      </trkpt>
      <trkpt lat="48.79306" lon="2.23341">
        <ele>116.1</ele>
        <time>2012-10-07T09:08:12Z</time>
      </trkpt>
      <trkpt lat="48.79308" lon="2.23344">
        <ele>118.3</ele>
        <time>2012-10-07T09:08:17Z</time>
      </trkpt>
      <trkpt lat="48.79312" lon="2.2335">
        <ele>118.3</ele>
        <time>2012-10-07T09:08:22Z</time>
      </trkpt>
      <trkpt lat="48.79306" lon="2.23357">
        <ele>118.1</ele>
        <time>2012-10-07T09:08:27Z</time>
      </trkpt>
      <trkpt lat="48.79308" lon="2.23366">
        <ele>117.5</ele>
        <time>2012-10-07T09:08:32Z</time>
      </trkpt>
      <trkpt lat="48.7931" lon="2.23381">
        <ele>117.4</ele>
        <time>2012-10-07T09:08:37Z</time>
      </trkpt>
      <trkpt lat="48.79309" lon="2.23383">
        <ele>118.4</ele>
        <time>2012-10-07T09:08:42Z</time>
      </trkpt>
      <trkpt lat="48.79303" lon="2.23389">
        <ele>119.6</ele>
        <time>2012-10-07T09:08:47Z</time>
      </trkpt>
      <trkpt lat="48.793" lon="2.23403">
        <ele>123.5</ele>
        <time>2012-10-07T09:08:52Z</time>
      </trkpt>
      <trkpt lat="48.79297" lon="2.23403">
        <ele>123.9</ele>
        <time>2012-10-07T09:08:57Z</time>
      </trkpt>
      <trkpt lat="48.79297" lon="2.23403">
        <ele>123.9</ele>
        <time>2012-10-07T09:08:58Z</time>
      </trkpt>
      <trkpt lat="48.79283" lon="2.23422">
        <ele>127.5</ele>
        <time>2012-10-07T09:09:07Z</time>
      </trkpt>
      <trkpt lat="48.79283" lon="2.23427">
        <ele>129.8</ele>
        <time>2012-10-07T09:09:12Z</time>
      </trkpt>
      <trkpt lat="48.79287" lon="2.23429">
        <ele>129.3</ele>
        <time>2012-10-07T09:09:17Z</time>
      </trkpt>
      <trkpt lat="48.79291" lon="2.2343">
        <ele>130.6</ele>
        <time>2012-10-07T09:09:22Z</time>
      </trkpt>
      <trkpt lat="48.79294" lon="2.23432">
        <ele>132.1</ele>
        <time>2012-10-07T09:09:27Z</time>
      </trkpt>
      <trkpt lat="48.79295" lon="2.23432">
        <ele>133.1</ele>
        <time>2012-10-07T09:09:32Z</time>
      </trkpt>
      <trkpt lat="48.79291" lon="2.2343">
        <ele>134.1</ele>
        <time>2012-10-07T09:09:37Z</time>
      </trkpt>
      <trkpt lat="48.79296" lon="2.23433">
        <ele>134.5</ele>
        <time>2012-10-07T09:09:42Z</time>
      </trkpt>
      <trkpt lat="48.79296" lon="2.2343">
        <ele>135.1</ele>
        <time>2012-10-07T09:09:47Z</time>
      </trkpt>
      <trkpt lat="48.79299" lon="2.23431">
        <ele>135.1</ele>
        <time>2012-10-07T09:09:52Z</time>
      </trkpt>
      <trkpt lat="48.793" lon="2.23434">
        <ele>135.3</ele>
        <time>2012-10-07T09:09:57Z</time>
      </trkpt>
      <trkpt lat="48.79317" lon="2.23438">
        <ele>137</ele>
        <time>2012-10-07T09:10:02Z</time>
      </trkpt>
      <trkpt lat="48.79317" lon="2.23438">
        <ele>137</ele>
        <time>2012-10-07T09:10:03Z</time>
      </trkpt>
      <trkpt lat="48.79343" lon="2.23463">
        <ele>137.8</ele>
        <time>2012-10-07T09:10:12Z</time>
      </trkpt>
      <trkpt lat="48.79349" lon="2.23473">
        <ele>134.6</ele>
        <time>2012-10-07T09:10:17Z</time>
      </trkpt>
      <trkpt lat="48.79348" lon="2.23477">
        <ele>135.1</ele>
        <time>2012-10-07T09:10:22Z</time>
      </trkpt>
      <trkpt lat="48.7935" lon="2.2348">
        <ele>135.3</ele>
        <time>2012-10-07T09:10:27Z</time>
      </trkpt>
      <trkpt lat="48.79344" lon="2.23487">
        <ele>135.8</ele>
        <time>2012-10-07T09:10:32Z</time>
      </trkpt>
      <trkpt lat="48.79339" lon="2.23493">
        <ele>137.8</ele>
        <time>2012-10-07T09:10:37Z</time>
      </trkpt>
      <trkpt lat="48.79335" lon="2.23498">
        <ele>137</ele>
        <time>2012-10-07T09:10:42Z</time>
      </trkpt>
      <trkpt lat="48.79332" lon="2.23502">
        <ele>138.1</ele>
        <time>2012-10-07T09:10:47Z</time>
      </trkpt>
      <trkpt lat="48.7933" lon="2.23507">
        <ele>138.8</ele>
        <time>2012-10-07T09:10:52Z</time>
      </trkpt>
      <trkpt lat="48.79326" lon="2.23515">
        <ele>137.6</ele>
        <time>2012-10-07T09:10:57Z</time>
      </trkpt>
      <trkpt lat="48.79321" lon="2.23518">
        <ele>137</ele>
        <time>2012-10-07T09:11:02Z</time>
      </trkpt>
      <trkpt lat="48.79313" lon="2.23526">
        <ele>135.3</ele>
        <time>2012-10-07T09:11:07Z</time>
      </trkpt>
      <trkpt lat="48.79313" lon="2.23527">
        <ele>134.3</ele>
        <time>2012-10-07T09:11:08Z</time>
      </trkpt>
      <trkpt lat="48.79306" lon="2.23535">
        <ele>131.8</ele>
        <time>2012-10-07T09:11:17Z</time>
      </trkpt>
      <trkpt lat="48.79303" lon="2.2354">
        <ele>131.5</ele>
        <time>2012-10-07T09:11:22Z</time>
      </trkpt>
      <trkpt lat="48.79303" lon="2.23541">
        <ele>129.8</ele>
        <time>2012-10-07T09:11:27Z</time>
      </trkpt>
      <trkpt lat="48.79303" lon="2.23541">
        <ele>129.8</ele>
        <time>2012-10-07T09:11:32Z</time>
      </trkpt>
      <trkpt lat="48.79303" lon="2.23541">
        <ele>129.8</ele>
        <time>2012-10-07T09:11:37Z</time>
      </trkpt>
      <trkpt lat="48.79303" lon="2.23541">
        <ele>129.8</ele>
        <time>2012-10-07T09:11:42Z</time>
      </trkpt>
      <trkpt lat="48.79303" lon="2.23541">
        <ele>129.8</ele>
        <time>2012-10-07T09:11:47Z</time>
      </trkpt>
      <trkpt lat="48.79303" lon="2.23543">
        <ele>130.1</ele>
        <time>2012-10-07T09:11:52Z</time>
      </trkpt>
      <trkpt lat="48.79303" lon="2.23543">
        <ele>130.1</ele>
        <time>2012-10-07T09:11:57Z</time>
      </trkpt>
      <trkpt lat="48.79303" lon="2.23543">
        <ele>130.1</ele>
        <time>2012-10-07T09:12:02Z</time>
      </trkpt>
      <trkpt lat="48.79303" lon="2.23543">
        <ele>130.1</ele>
        <time>2012-10-07T09:12:07Z</time>
      </trkpt>
      <trkpt lat="48.79303" lon="2.23543">
        <ele>130.1</ele>
        <time>2012-10-07T09:12:12Z</time>
      </trkpt>
      <trkpt lat="48.79303" lon="2.23543">
        <ele>129.8</ele>
        <time>2012-10-07T09:12:13Z</time>
      </trkpt>
      <trkpt lat="48.79302" lon="2.23542">
        <ele>129.6</ele>
        <time>2012-10-07T09:12:22Z</time>
      </trkpt>
      <trkpt lat="48.79302" lon="2.23542">
        <ele>129.6</ele>
        <time>2012-10-07T09:12:27Z</time>
      </trkpt>
      <trkpt lat="48.79302" lon="2.23542">
        <ele>129.6</ele>
        <time>2012-10-07T09:12:32Z</time>
      </trkpt>
      <trkpt lat="48.79303" lon="2.23544">
        <ele>130.3</ele>
        <time>2012-10-07T09:12:37Z</time>
      </trkpt>
      <trkpt lat="48.79303" lon="2.23545">
        <ele>130.6</ele>
        <time>2012-10-07T09:12:42Z</time>
      </trkpt>
      <trkpt lat="48.79303" lon="2.23545">
        <ele>130.6</ele>
        <time>2012-10-07T09:12:47Z</time>
      </trkpt>
      <trkpt lat="48.79303" lon="2.23545">
        <ele>131.1</ele>
        <time>2012-10-07T09:12:52Z</time>
      </trkpt>
      <trkpt lat="48.79303" lon="2.23546">
        <ele>131.3</ele>
        <time>2012-10-07T09:12:57Z</time>
      </trkpt>
      <trkpt lat="48.79302" lon="2.23547">
        <ele>130.3</ele>
        <time>2012-10-07T09:13:02Z</time>
      </trkpt>
      <trkpt lat="48.79302" lon="2.23549">
        <ele>129.8</ele>
        <time>2012-10-07T09:13:07Z</time>
      </trkpt>
      <trkpt lat="48.79303" lon="2.23552">
        <ele>132.6</ele>
        <time>2012-10-07T09:13:12Z</time>
      </trkpt>
      <trkpt lat="48.79303" lon="2.23552">
        <ele>132</ele>
        <time>2012-10-07T09:13:17Z</time>
      </trkpt>
      <trkpt lat="48.79303" lon="2.23552">
        <ele>132</ele>
        <time>2012-10-07T09:13:18Z</time>
      </trkpt>
      <trkpt lat="48.79302" lon="2.23553">
        <ele>131.3</ele>
        <time>2012-10-07T09:13:27Z</time>
      </trkpt>
      <trkpt lat="48.79302" lon="2.23553">
        <ele>131.3</ele>
        <time>2012-10-07T09:13:32Z</time>
      </trkpt>
      <trkpt lat="48.79302" lon="2.23553">
        <ele>131.3</ele>
        <time>2012-10-07T09:13:37Z</time>
      </trkpt>
      <trkpt lat="48.79302" lon="2.23553">
        <ele>131.1</ele>
        <time>2012-10-07T09:13:42Z</time>
      </trkpt>
      <trkpt lat="48.79303" lon="2.23553">
        <ele>131</ele>
        <time>2012-10-07T09:13:47Z</time>
      </trkpt>
      <trkpt lat="48.79303" lon="2.23553">
        <ele>131</ele>
        <time>2012-10-07T09:13:52Z</time>
      </trkpt>
      <trkpt lat="48.79303" lon="2.23553">
        <ele>131</ele>
        <time>2012-10-07T09:13:57Z</time>
      </trkpt>
      <trkpt lat="48.79303" lon="2.23553">
        <ele>131.6</ele>
        <time>2012-10-07T09:14:02Z</time>
      </trkpt>
      <trkpt lat="48.79303" lon="2.23553">
        <ele>132.8</ele>
        <time>2012-10-07T09:14:07Z</time>
      </trkpt>
      <trkpt lat="48.79303" lon="2.23553">
        <ele>132.8</ele>
        <time>2012-10-07T09:14:12Z</time>
      </trkpt>
      <trkpt lat="48.79303" lon="2.23553">
        <ele>132.8</ele>
        <time>2012-10-07T09:14:17Z</time>
      </trkpt>
      <trkpt lat="48.79303" lon="2.23553">
        <ele>132.8</ele>
        <time>2012-10-07T09:14:22Z</time>
      </trkpt>
      <trkpt lat="48.79303" lon="2.23553">
        <ele>132.8</ele>
        <time>2012-10-07T09:14:23Z</time>
      </trkpt>
      <trkpt lat="48.79303" lon="2.23553">
        <ele>132.8</ele>
        <time>2012-10-07T09:14:32Z</time>
      </trkpt>
      <trkpt lat="48.79303" lon="2.23554">
        <ele>133.1</ele>
        <time>2012-10-07T09:14:37Z</time>
      </trkpt>
      <trkpt lat="48.79302" lon="2.23554">
        <ele>131.8</ele>
        <time>2012-10-07T09:14:42Z</time>
      </trkpt>
      <trkpt lat="48.79302" lon="2.23555">
        <ele>131.6</ele>
        <time>2012-10-07T09:14:47Z</time>
      </trkpt>
      <trkpt lat="48.79302" lon="2.23555">
        <ele>131.6</ele>
        <time>2012-10-07T09:14:52Z</time>
      </trkpt>
      <trkpt lat="48.79302" lon="2.23555">
        <ele>131.6</ele>
        <time>2012-10-07T09:14:57Z</time>
      </trkpt>
      <trkpt lat="48.79302" lon="2.23555">
        <ele>131.6</ele>
        <time>2012-10-07T09:15:02Z</time>
      </trkpt>
      <trkpt lat="48.79302" lon="2.23555">
        <ele>131.6</ele>
        <time>2012-10-07T09:15:07Z</time>
      </trkpt>
      <trkpt lat="48.79302" lon="2.23555">
        <ele>131.6</ele>
        <time>2012-10-07T09:15:12Z</time>
      </trkpt>
      <trkpt lat="48.79302" lon="2.23555">
        <ele>131.6</ele>
        <time>2012-10-07T09:15:17Z</time>
      </trkpt>
      <trkpt lat="48.79303" lon="2.23556">
        <ele>131.8</ele>
        <time>2012-10-07T09:15:22Z</time>
      </trkpt>
      <trkpt lat="48.79302" lon="2.23558">
        <ele>132.3</ele>
        <time>2012-10-07T09:15:27Z</time>
      </trkpt>
      <trkpt lat="48.79301" lon="2.23558">
        <ele>131.6</ele>
        <time>2012-10-07T09:15:28Z</time>
      </trkpt>
      <trkpt lat="48.79301" lon="2.23557">
        <ele>131.1</ele>
        <time>2012-10-07T09:15:37Z</time>
      </trkpt>
      <trkpt lat="48.79299" lon="2.23558">
        <ele>131.8</ele>
        <time>2012-10-07T09:15:42Z</time>
      </trkpt>
      <trkpt lat="48.79299" lon="2.23561">
        <ele>131.6</ele>
        <time>2012-10-07T09:15:47Z</time>
      </trkpt>
      <trkpt lat="48.79299" lon="2.23561">
        <ele>131.6</ele>
        <time>2012-10-07T09:15:52Z</time>
      </trkpt>
      <trkpt lat="48.79299" lon="2.23561">
        <ele>131.6</ele>
        <time>2012-10-07T09:15:57Z</time>
      </trkpt>
      <trkpt lat="48.79299" lon="2.23561">
        <ele>131.6</ele>
        <time>2012-10-07T09:16:02Z</time>
      </trkpt>
      <trkpt lat="48.79298" lon="2.23563">
        <ele>132.6</ele>
        <time>2012-10-07T09:16:07Z</time>
      </trkpt>
      <trkpt lat="48.79298" lon="2.23563">
        <ele>132.6</ele>
        <time>2012-10-07T09:16:12Z</time>
      </trkpt>
      <trkpt lat="48.79298" lon="2.23563">
        <ele>132.6</ele>
        <time>2012-10-07T09:16:17Z</time>
      </trkpt>
      <trkpt lat="48.79298" lon="2.23563">
        <ele>133.1</ele>
        <time>2012-10-07T09:16:22Z</time>
      </trkpt>
      <trkpt lat="48.79297" lon="2.23563">
        <ele>133.8</ele>
        <time>2012-10-07T09:16:27Z</time>
      </trkpt>
      <trkpt lat="48.79297" lon="2.23563">
        <ele>133.6</ele>
        <time>2012-10-07T09:16:32Z</time>
      </trkpt>
      <trkpt lat="48.79297" lon="2.23563">
        <ele>133.6</ele>
        <time>2012-10-07T09:16:33Z</time>
      </trkpt>
      <trkpt lat="48.79297" lon="2.23565">
        <ele>135.3</ele>
        <time>2012-10-07T09:16:42Z</time>
      </trkpt>
      <trkpt lat="48.79297" lon="2.23566">
        <ele>136</ele>
        <time>2012-10-07T09:16:47Z</time>
      </trkpt>
      <trkpt lat="48.79297" lon="2.23566">
        <ele>136</ele>
        <time>2012-10-07T09:16:52Z</time>
      </trkpt>
      <trkpt lat="48.79295" lon="2.23566">
        <ele>134.8</ele>
        <time>2012-10-07T09:16:57Z</time>
      </trkpt>
      <trkpt lat="48.79292" lon="2.23569">
        <ele>135</ele>
        <time>2012-10-07T09:17:02Z</time>
      </trkpt>
      <trkpt lat="48.79286" lon="2.23571">
        <ele>135.6</ele>
        <time>2012-10-07T09:17:07Z</time>
      </trkpt>
      <trkpt lat="48.79278" lon="2.23574">
        <ele>136.5</ele>
        <time>2012-10-07T09:17:12Z</time>
      </trkpt>
      <trkpt lat="48.79273" lon="2.23575">
        <ele>135.1</ele>
        <time>2012-10-07T09:17:17Z</time>
      </trkpt>
      <trkpt lat="48.79271" lon="2.23575">
        <ele>133.5</ele>
        <time>2012-10-07T09:17:22Z</time>
      </trkpt>
      <trkpt lat="48.7927" lon="2.23574">
        <ele>132.8</ele>
        <time>2012-10-07T09:17:27Z</time>
      </trkpt>
      <trkpt lat="48.79269" lon="2.23576">
        <ele>133.1</ele>
        <time>2012-10-07T09:17:32Z</time>
      </trkpt>
      <trkpt lat="48.79267" lon="2.23575">
        <ele>132.5</ele>
        <time>2012-10-07T09:17:37Z</time>
      </trkpt>
      <trkpt lat="48.79266" lon="2.23576">
        <ele>132.6</ele>
        <time>2012-10-07T09:17:38Z</time>
      </trkpt>
      <trkpt lat="48.79263" lon="2.23577">
        <ele>132.3</ele>
        <time>2012-10-07T09:17:47Z</time>
      </trkpt>
      <trkpt lat="48.79261" lon="2.23578">
        <ele>132.3</ele>
        <time>2012-10-07T09:17:52Z</time>
      </trkpt>
      <trkpt lat="48.7926" lon="2.23578">
        <ele>132.6</ele>
        <time>2012-10-07T09:17:57Z</time>
      </trkpt>
      <trkpt lat="48.79258" lon="2.23578">
        <ele>133.6</ele>
        <time>2012-10-07T09:18:02Z</time>
      </trkpt>
      <trkpt lat="48.79254" lon="2.23578">
        <ele>134.1</ele>
        <time>2012-10-07T09:18:07Z</time>
      </trkpt>
      <trkpt lat="48.7925" lon="2.2358">
        <ele>134.6</ele>
        <time>2012-10-07T09:18:12Z</time>
      </trkpt>
      <trkpt lat="48.79245" lon="2.23585">
        <ele>134.8</ele>
        <time>2012-10-07T09:18:17Z</time>
      </trkpt>
      <trkpt lat="48.79236" lon="2.23588">
        <ele>136.1</ele>
        <time>2012-10-07T09:18:22Z</time>
      </trkpt>
      <trkpt lat="48.79227" lon="2.23589">
        <ele>137.3</ele>
        <time>2012-10-07T09:18:27Z</time>
      </trkpt>
      <trkpt lat="48.79226" lon="2.23589">
        <ele>137.6</ele>
        <time>2012-10-07T09:18:32Z</time>
      </trkpt>
      <trkpt lat="48.79225" lon="2.23589">
        <ele>139</ele>
        <time>2012-10-07T09:18:37Z</time>
      </trkpt>
      <trkpt lat="48.79223" lon="2.2359">
        <ele>139.1</ele>
        <time>2012-10-07T09:18:42Z</time>
      </trkpt>
      <trkpt lat="48.79223" lon="2.2359">
        <ele>139.1</ele>
        <time>2012-10-07T09:18:43Z</time>
      </trkpt>
      <trkpt lat="48.79222" lon="2.23594">
        <ele>137.5</ele>
        <time>2012-10-07T09:18:52Z</time>
      </trkpt>
      <trkpt lat="48.79221" lon="2.236">
        <ele>138.3</ele>
        <time>2012-10-07T09:18:57Z</time>
      </trkpt>
      <trkpt lat="48.79221" lon="2.236">
        <ele>138.3</ele>
        <time>2012-10-07T09:19:02Z</time>
      </trkpt>
      <trkpt lat="48.79218" lon="2.23599">
        <ele>139.3</ele>
        <time>2012-10-07T09:19:07Z</time>
      </trkpt>
      <trkpt lat="48.79214" lon="2.23598">
        <ele>140.8</ele>
        <time>2012-10-07T09:19:12Z</time>
      </trkpt>
      <trkpt lat="48.79212" lon="2.23594">
        <ele>141.6</ele>
        <time>2012-10-07T09:19:17Z</time>
      </trkpt>
      <trkpt lat="48.79215" lon="2.23594">
        <ele>142.3</ele>
        <time>2012-10-07T09:19:22Z</time>
      </trkpt>
      <trkpt lat="48.79217" lon="2.23602">
        <ele>144.6</ele>
        <time>2012-10-07T09:19:27Z</time>
      </trkpt>
      <trkpt lat="48.7922" lon="2.2361">
        <ele>144.3</ele>
        <time>2012-10-07T09:19:32Z</time>
      </trkpt>
      <trkpt lat="48.79214" lon="2.23615">
        <ele>144.8</ele>
        <time>2012-10-07T09:19:37Z</time>
      </trkpt>
      <trkpt lat="48.79217" lon="2.2362">
        <ele>145.6</ele>
        <time>2012-10-07T09:19:42Z</time>
      </trkpt>
      <trkpt lat="48.79225" lon="2.23624">
        <ele>149.3</ele>
        <time>2012-10-07T09:19:47Z</time>
      </trkpt>
      <trkpt lat="48.79226" lon="2.23623">
        <ele>149.8</ele>
        <time>2012-10-07T09:19:48Z</time>
      </trkpt>
      <trkpt lat="48.7923" lon="2.23629">
        <ele>153.3</ele>
        <time>2012-10-07T09:19:57Z</time>
      </trkpt>
      <trkpt lat="48.79229" lon="2.23638">
        <ele>155.5</ele>
        <time>2012-10-07T09:20:02Z</time>
      </trkpt>
      <trkpt lat="48.79228" lon="2.23641">
        <ele>156.3</ele>
        <time>2012-10-07T09:20:07Z</time>
      </trkpt>
      <trkpt lat="48.79227" lon="2.23645">
        <ele>156.1</ele>
        <time>2012-10-07T09:20:12Z</time>
      </trkpt>
      <trkpt lat="48.79225" lon="2.23647">
        <ele>156.1</ele>
        <time>2012-10-07T09:20:17Z</time>
      </trkpt>
      <trkpt lat="48.79221" lon="2.23651">
        <ele>154.1</ele>
        <time>2012-10-07T09:20:22Z</time>
      </trkpt>
      <trkpt lat="48.79209" lon="2.23652">
        <ele>154.1</ele>
        <time>2012-10-07T09:20:27Z</time>
      </trkpt>
      <trkpt lat="48.79199" lon="2.23654">
        <ele>156.1</ele>
        <time>2012-10-07T09:20:32Z</time>
      </trkpt>
      <trkpt lat="48.79202" lon="2.2366">
        <ele>155.6</ele>
        <time>2012-10-07T09:20:37Z</time>
      </trkpt>
      <trkpt lat="48.792" lon="2.23665">
        <ele>156</ele>
        <time>2012-10-07T09:20:42Z</time>
      </trkpt>
      <trkpt lat="48.79196" lon="2.23667">
        <ele>158.5</ele>
        <time>2012-10-07T09:20:47Z</time>
      </trkpt>
      <trkpt lat="48.79189" lon="2.23667">
        <ele>159.8</ele>
        <time>2012-10-07T09:20:52Z</time>
      </trkpt>
      <trkpt lat="48.79189" lon="2.23667">
        <ele>159.8</ele>
        <time>2012-10-07T09:20:53Z</time>
      </trkpt>
      <trkpt lat="48.79181" lon="2.23679">
        <ele>156.8</ele>
        <time>2012-10-07T09:21:02Z</time>
      </trkpt>
      <trkpt lat="48.79173" lon="2.23679">
        <ele>155.6</ele>
        <time>2012-10-07T09:21:07Z</time>
      </trkpt>
      <trkpt lat="48.79162" lon="2.2368">
        <ele>156.3</ele>
        <time>2012-10-07T09:21:12Z</time>
      </trkpt>
      <trkpt lat="48.7916" lon="2.2368">
        <ele>157.3</ele>
        <time>2012-10-07T09:21:17Z</time>
      </trkpt>
      <trkpt lat="48.79156" lon="2.2368">
        <ele>157.6</ele>
        <time>2012-10-07T09:21:22Z</time>
      </trkpt>
      <trkpt lat="48.79148" lon="2.23681">
        <ele>156.6</ele>
        <time>2012-10-07T09:21:27Z</time>
      </trkpt>
      <trkpt lat="48.79146" lon="2.23686">
        <ele>154.1</ele>
        <time>2012-10-07T09:21:32Z</time>
      </trkpt>
      <trkpt lat="48.79133" lon="2.23686">
        <ele>152.1</ele>
        <time>2012-10-07T09:21:37Z</time>
      </trkpt>
      <trkpt lat="48.79122" lon="2.23688">
        <ele>151.8</ele>
        <time>2012-10-07T09:21:42Z</time>
      </trkpt>
      <trkpt lat="48.79117" lon="2.23689">
        <ele>152.8</ele>
        <time>2012-10-07T09:21:47Z</time>
      </trkpt>
      <trkpt lat="48.79109" lon="2.23693">
        <ele>154.5</ele>
        <time>2012-10-07T09:21:52Z</time>
      </trkpt>
      <trkpt lat="48.79108" lon="2.23694">
        <ele>154.6</ele>
        <time>2012-10-07T09:21:57Z</time>
      </trkpt>
      <trkpt lat="48.79108" lon="2.23694">
        <ele>154.6</ele>
        <time>2012-10-07T09:21:58Z</time>
      </trkpt>
      <trkpt lat="48.79108" lon="2.23703">
        <ele>152.8</ele>
        <time>2012-10-07T09:22:07Z</time>
      </trkpt>
      <trkpt lat="48.79101" lon="2.23702">
        <ele>153.3</ele>
        <time>2012-10-07T09:22:12Z</time>
      </trkpt>
      <trkpt lat="48.79096" lon="2.23705">
        <ele>154</ele>
        <time>2012-10-07T09:22:17Z</time>
      </trkpt>
      <trkpt lat="48.79091" lon="2.23706">
        <ele>154.8</ele>
        <time>2012-10-07T09:22:22Z</time>
      </trkpt>
      <trkpt lat="48.79084" lon="2.23711">
        <ele>154.6</ele>
        <time>2012-10-07T09:22:27Z</time>
      </trkpt>
      <trkpt lat="48.79075" lon="2.23717">
        <ele>153.8</ele>
        <time>2012-10-07T09:22:32Z</time>
      </trkpt>
      <trkpt lat="48.79073" lon="2.23719">
        <ele>155.3</ele>
        <time>2012-10-07T09:22:37Z</time>
      </trkpt>
      <trkpt lat="48.79067" lon="2.23728">
        <ele>156.8</ele>
        <time>2012-10-07T09:22:42Z</time>
      </trkpt>
      <trkpt lat="48.79071" lon="2.2373">
        <ele>159.6</ele>
        <time>2012-10-07T09:22:47Z</time>
      </trkpt>
      <trkpt lat="48.79068" lon="2.23739">
        <ele>163</ele>
        <time>2012-10-07T09:22:52Z</time>
      </trkpt>
      <trkpt lat="48.79066" lon="2.23743">
        <ele>161.6</ele>
        <time>2012-10-07T09:22:57Z</time>
      </trkpt>
      <trkpt lat="48.79067" lon="2.23744">
        <ele>162.1</ele>
        <time>2012-10-07T09:23:02Z</time>
      </trkpt>
      <trkpt lat="48.79067" lon="2.23744">
        <ele>162.1</ele>
        <time>2012-10-07T09:23:03Z</time>
      </trkpt>
      <trkpt lat="48.79067" lon="2.23744">
        <ele>162.8</ele>
        <time>2012-10-07T09:23:12Z</time>
      </trkpt>
      <trkpt lat="48.79069" lon="2.23745">
        <ele>162.8</ele>
        <time>2012-10-07T09:23:17Z</time>
      </trkpt>
      <trkpt lat="48.79069" lon="2.23745">
        <ele>162.8</ele>
        <time>2012-10-07T09:23:22Z</time>
      </trkpt>
      <trkpt lat="48.79067" lon="2.23744">
        <ele>162.8</ele>
        <time>2012-10-07T09:23:27Z</time>
      </trkpt>
      <trkpt lat="48.79068" lon="2.23743">
        <ele>164.1</ele>
        <time>2012-10-07T09:23:32Z</time>
      </trkpt>
      <trkpt lat="48.79073" lon="2.2375">
        <ele>165.6</ele>
        <time>2012-10-07T09:23:37Z</time>
      </trkpt>
      <trkpt lat="48.79077" lon="2.23755">
        <ele>165.6</ele>
        <time>2012-10-07T09:23:42Z</time>
      </trkpt>
      <trkpt lat="48.7908" lon="2.23762">
        <ele>164.8</ele>
        <time>2012-10-07T09:23:47Z</time>
      </trkpt>
      <trkpt lat="48.79089" lon="2.23764">
        <ele>166.3</ele>
        <time>2012-10-07T09:23:52Z</time>
      </trkpt>
      <trkpt lat="48.79091" lon="2.23765">
        <ele>167.3</ele>
        <time>2012-10-07T09:23:57Z</time>
      </trkpt>
      <trkpt lat="48.79098" lon="2.2377">
        <ele>167.6</ele>
        <time>2012-10-07T09:24:02Z</time>
      </trkpt>
      <trkpt lat="48.79104" lon="2.23772">
        <ele>167.8</ele>
        <time>2012-10-07T09:24:07Z</time>
      </trkpt>
      <trkpt lat="48.79104" lon="2.23772">
        <ele>167.8</ele>
        <time>2012-10-07T09:24:08Z</time>
      </trkpt>
      <trkpt lat="48.79105" lon="2.23773">
        <ele>169.6</ele>
        <time>2012-10-07T09:24:17Z</time>
      </trkpt>
      <trkpt lat="48.79109" lon="2.23773">
        <ele>169.5</ele>
        <time>2012-10-07T09:24:22Z</time>
      </trkpt>
      <trkpt lat="48.79113" lon="2.23776">
        <ele>169.6</ele>
        <time>2012-10-07T09:24:27Z</time>
      </trkpt>
      <trkpt lat="48.79116" lon="2.23778">
        <ele>169.6</ele>
        <time>2012-10-07T09:24:32Z</time>
      </trkpt>
      <trkpt lat="48.79121" lon="2.23782">
        <ele>169</ele>
        <time>2012-10-07T09:24:37Z</time>
      </trkpt>
      <trkpt lat="48.7913" lon="2.23787">
        <ele>168.8</ele>
        <time>2012-10-07T09:24:42Z</time>
      </trkpt>
      <trkpt lat="48.79131" lon="2.23788">
        <ele>169.5</ele>
        <time>2012-10-07T09:24:47Z</time>
      </trkpt>
      <trkpt lat="48.79132" lon="2.23787">
        <ele>169.8</ele>
        <time>2012-10-07T09:24:52Z</time>
      </trkpt>
      <trkpt lat="48.79132" lon="2.23787">
        <ele>170</ele>
        <time>2012-10-07T09:24:57Z</time>
      </trkpt>
      <trkpt lat="48.79135" lon="2.23782">
        <ele>170.6</ele>
        <time>2012-10-07T09:25:02Z</time>
      </trkpt>
      <trkpt lat="48.79135" lon="2.23783">
        <ele>171</ele>
        <time>2012-10-07T09:25:07Z</time>
      </trkpt>
      <trkpt lat="48.79138" lon="2.23787">
        <ele>172.1</ele>
        <time>2012-10-07T09:25:12Z</time>
      </trkpt>
      <trkpt lat="48.7914" lon="2.23788">
        <ele>172.1</ele>
        <time>2012-10-07T09:25:13Z</time>
      </trkpt>
      <trkpt lat="48.79155" lon="2.23782">
        <ele>172.6</ele>
        <time>2012-10-07T09:25:22Z</time>
      </trkpt>
      <trkpt lat="48.79165" lon="2.23786">
        <ele>172.1</ele>
        <time>2012-10-07T09:25:27Z</time>
      </trkpt>
      <trkpt lat="48.79165" lon="2.23785">
        <ele>172.6</ele>
        <time>2012-10-07T09:25:32Z</time>
      </trkpt>
      <trkpt lat="48.7918" lon="2.23789">
        <ele>172.1</ele>
        <time>2012-10-07T09:25:37Z</time>
      </trkpt>
      <trkpt lat="48.79182" lon="2.23782">
        <ele>170.3</ele>
        <time>2012-10-07T09:25:42Z</time>
      </trkpt>
      <trkpt lat="48.79189" lon="2.23781">
        <ele>169.8</ele>
        <time>2012-10-07T09:25:47Z</time>
      </trkpt>
      <trkpt lat="48.79192" lon="2.2378">
        <ele>168.6</ele>
        <time>2012-10-07T09:25:52Z</time>
      </trkpt>
      <trkpt lat="48.79201" lon="2.23779">
        <ele>166.3</ele>
        <time>2012-10-07T09:25:57Z</time>
      </trkpt>
      <trkpt lat="48.79201" lon="2.23779">
        <ele>166.3</ele>
        <time>2012-10-07T09:26:02Z</time>
      </trkpt>
      <trkpt lat="48.79206" lon="2.23782">
        <ele>165.6</ele>
        <time>2012-10-07T09:26:07Z</time>
      </trkpt>
      <trkpt lat="48.79211" lon="2.23781">
        <ele>163.8</ele>
        <time>2012-10-07T09:26:12Z</time>
      </trkpt>
      <trkpt lat="48.79216" lon="2.23785">
        <ele>162.1</ele>
        <time>2012-10-07T09:26:17Z</time>
      </trkpt>
      <trkpt lat="48.79218" lon="2.23787">
        <ele>162.3</ele>
        <time>2012-10-07T09:26:18Z</time>
      </trkpt>
      <trkpt lat="48.79225" lon="2.23805">
        <ele>160.8</ele>
        <time>2012-10-07T09:26:27Z</time>
      </trkpt>
      <trkpt lat="48.79226" lon="2.23809">
        <ele>160.6</ele>
        <time>2012-10-07T09:26:32Z</time>
      </trkpt>
      <trkpt lat="48.79231" lon="2.23815">
        <ele>160.8</ele>
        <time>2012-10-07T09:26:37Z</time>
      </trkpt>
      <trkpt lat="48.79232" lon="2.23818">
        <ele>162.3</ele>
        <time>2012-10-07T09:26:42Z</time>
      </trkpt>
      <trkpt lat="48.79232" lon="2.23818">
        <ele>162</ele>
        <time>2012-10-07T09:26:47Z</time>
      </trkpt>
      <trkpt lat="48.79235" lon="2.23821">
        <ele>161.3</ele>
        <time>2012-10-07T09:26:52Z</time>
      </trkpt>
      <trkpt lat="48.79238" lon="2.23821">
        <ele>161</ele>
        <time>2012-10-07T09:26:57Z</time>
      </trkpt>
      <trkpt lat="48.79238" lon="2.23821">
        <ele>161</ele>
        <time>2012-10-07T09:27:02Z</time>
      </trkpt>
      <trkpt lat="48.79239" lon="2.23824">
        <ele>160.8</ele>
        <time>2012-10-07T09:27:07Z</time>
      </trkpt>
      <trkpt lat="48.79239" lon="2.23826">
        <ele>161.5</ele>
        <time>2012-10-07T09:27:12Z</time>
      </trkpt>
      <trkpt lat="48.79239" lon="2.23826">
        <ele>161.5</ele>
        <time>2012-10-07T09:27:17Z</time>
      </trkpt>
      <trkpt lat="48.79239" lon="2.23827">
        <ele>162</ele>
        <time>2012-10-07T09:27:22Z</time>
      </trkpt>
      <trkpt lat="48.79239" lon="2.23827">
        <ele>162</ele>
        <time>2012-10-07T09:27:23Z</time>
      </trkpt>
      <trkpt lat="48.79238" lon="2.23833">
        <ele>162.3</ele>
        <time>2012-10-07T09:27:32Z</time>
      </trkpt>
      <trkpt lat="48.79239" lon="2.23837">
        <ele>161.1</ele>
        <time>2012-10-07T09:27:37Z</time>
      </trkpt>
      <trkpt lat="48.79241" lon="2.23842">
        <ele>160.8</ele>
        <time>2012-10-07T09:27:42Z</time>
      </trkpt>
      <trkpt lat="48.7924" lon="2.2385">
        <ele>158.6</ele>
        <time>2012-10-07T09:27:47Z</time>
      </trkpt>
      <trkpt lat="48.79241" lon="2.23853">
        <ele>158.8</ele>
        <time>2012-10-07T09:27:52Z</time>
      </trkpt>
      <trkpt lat="48.79243" lon="2.23854">
        <ele>159.3</ele>
        <time>2012-10-07T09:27:57Z</time>
      </trkpt>
      <trkpt lat="48.79251" lon="2.23862">
        <ele>158.1</ele>
        <time>2012-10-07T09:28:02Z</time>
      </trkpt>
      <trkpt lat="48.79251" lon="2.23863">
        <ele>158.1</ele>
        <time>2012-10-07T09:28:07Z</time>
      </trkpt>
      <trkpt lat="48.7925" lon="2.23867">
        <ele>158</ele>
        <time>2012-10-07T09:28:12Z</time>
      </trkpt>
      <trkpt lat="48.7925" lon="2.23867">
        <ele>158</ele>
        <time>2012-10-07T09:28:17Z</time>
      </trkpt>
      <trkpt lat="48.79251" lon="2.2387">
        <ele>157.8</ele>
        <time>2012-10-07T09:28:22Z</time>
      </trkpt>
      <trkpt lat="48.7925" lon="2.23872">
        <ele>157.1</ele>
        <time>2012-10-07T09:28:27Z</time>
      </trkpt>
      <trkpt lat="48.7925" lon="2.23872">
        <ele>157.1</ele>
        <time>2012-10-07T09:28:28Z</time>
      </trkpt>
      <trkpt lat="48.79256" lon="2.23884">
        <ele>157.1</ele>
        <time>2012-10-07T09:28:37Z</time>
      </trkpt>
      <trkpt lat="48.7926" lon="2.23895">
        <ele>157</ele>
        <time>2012-10-07T09:28:42Z</time>
      </trkpt>
      <trkpt lat="48.79264" lon="2.23895">
        <ele>157</ele>
        <time>2012-10-07T09:28:47Z</time>
      </trkpt>
      <trkpt lat="48.79264" lon="2.23896">
        <ele>158.3</ele>
        <time>2012-10-07T09:28:52Z</time>
      </trkpt>
      <trkpt lat="48.79272" lon="2.23901">
        <ele>158.6</ele>
        <time>2012-10-07T09:28:57Z</time>
      </trkpt>
      <trkpt lat="48.79285" lon="2.23903">
        <ele>160</ele>
        <time>2012-10-07T09:29:02Z</time>
      </trkpt>
      <trkpt lat="48.79282" lon="2.23902">
        <ele>158.8</ele>
        <time>2012-10-07T09:29:07Z</time>
      </trkpt>
      <trkpt lat="48.79287" lon="2.23904">
        <ele>152.6</ele>
        <time>2012-10-07T09:29:12Z</time>
      </trkpt>
      <trkpt lat="48.79289" lon="2.23908">
        <ele>152.6</ele>
        <time>2012-10-07T09:29:17Z</time>
      </trkpt>
      <trkpt lat="48.7929" lon="2.23908">
        <ele>151.8</ele>
        <time>2012-10-07T09:29:22Z</time>
      </trkpt>
      <trkpt lat="48.79293" lon="2.2391">
        <ele>150.1</ele>
        <time>2012-10-07T09:29:27Z</time>
      </trkpt>
      <trkpt lat="48.793" lon="2.23911">
        <ele>150.6</ele>
        <time>2012-10-07T09:29:32Z</time>
      </trkpt>
      <trkpt lat="48.793" lon="2.23911">
        <ele>150.6</ele>
        <time>2012-10-07T09:29:33Z</time>
      </trkpt>
      <trkpt lat="48.79313" lon="2.23912">
        <ele>155.5</ele>
        <time>2012-10-07T09:29:42Z</time>
      </trkpt>
      <trkpt lat="48.79315" lon="2.23912">
        <ele>154.1</ele>
        <time>2012-10-07T09:29:47Z</time>
      </trkpt>
      <trkpt lat="48.79317" lon="2.23913">
        <ele>153.3</ele>
        <time>2012-10-07T09:29:52Z</time>
      </trkpt>
      <trkpt lat="48.79316" lon="2.23913">
        <ele>153.3</ele>
        <time>2012-10-07T09:29:57Z</time>
      </trkpt>
      <trkpt lat="48.79323" lon="2.23914">
        <ele>152.8</ele>
        <time>2012-10-07T09:30:02Z</time>
      </trkpt>
      <trkpt lat="48.79322" lon="2.23916">
        <ele>150.6</ele>
        <time>2012-10-07T09:30:07Z</time>
      </trkpt>
      <trkpt lat="48.79327" lon="2.23911">
        <ele>150.5</ele>
        <time>2012-10-07T09:30:12Z</time>
      </trkpt>
      <trkpt lat="48.7933" lon="2.23912">
        <ele>148.6</ele>
        <time>2012-10-07T09:30:17Z</time>
      </trkpt>
      <trkpt lat="48.79332" lon="2.23912">
        <ele>147.8</ele>
        <time>2012-10-07T09:30:22Z</time>
      </trkpt>
      <trkpt lat="48.79333" lon="2.23912">
        <ele>147.5</ele>
        <time>2012-10-07T09:30:27Z</time>
      </trkpt>
      <trkpt lat="48.79333" lon="2.23912">
        <ele>147.5</ele>
        <time>2012-10-07T09:30:32Z</time>
      </trkpt>
      <trkpt lat="48.79341" lon="2.23915">
        <ele>147.6</ele>
        <time>2012-10-07T09:30:37Z</time>
      </trkpt>
      <trkpt lat="48.79344" lon="2.23916">
        <ele>148.5</ele>
        <time>2012-10-07T09:30:38Z</time>
      </trkpt>
      <trkpt lat="48.79346" lon="2.23916">
        <ele>148.6</ele>
        <time>2012-10-07T09:30:47Z</time>
      </trkpt>
      <trkpt lat="48.79348" lon="2.23915">
        <ele>148.3</ele>
        <time>2012-10-07T09:30:52Z</time>
      </trkpt>
      <trkpt lat="48.79359" lon="2.23917">
        <ele>150.6</ele>
        <time>2012-10-07T09:30:57Z</time>
      </trkpt>
      <trkpt lat="48.79366" lon="2.23913">
        <ele>147.6</ele>
        <time>2012-10-07T09:31:02Z</time>
      </trkpt>
      <trkpt lat="48.79375" lon="2.2391">
        <ele>144.1</ele>
        <time>2012-10-07T09:31:07Z</time>
      </trkpt>
      <trkpt lat="48.79381" lon="2.23909">
        <ele>141.8</ele>
        <time>2012-10-07T09:31:12Z</time>
      </trkpt>
      <trkpt lat="48.79388" lon="2.23906">
        <ele>142.3</ele>
        <time>2012-10-07T09:31:17Z</time>
      </trkpt>
      <trkpt lat="48.79394" lon="2.23902">
        <ele>143.1</ele>
        <time>2012-10-07T09:31:22Z</time>
      </trkpt>
      <trkpt lat="48.79399" lon="2.23902">
        <ele>143.5</ele>
        <time>2012-10-07T09:31:27Z</time>
      </trkpt>
      <trkpt lat="48.79405" lon="2.23902">
        <ele>141.8</ele>
        <time>2012-10-07T09:31:32Z</time>
      </trkpt>
      <trkpt lat="48.79414" lon="2.239">
        <ele>139.1</ele>
        <time>2012-10-07T09:31:37Z</time>
      </trkpt>
      <trkpt lat="48.79422" lon="2.23897">
        <ele>138.1</ele>
        <time>2012-10-07T09:31:42Z</time>
      </trkpt>
      <trkpt lat="48.79423" lon="2.23896">
        <ele>137.1</ele>
        <time>2012-10-07T09:31:43Z</time>
      </trkpt>
      <trkpt lat="48.79435" lon="2.23896">
        <ele>135.8</ele>
        <time>2012-10-07T09:31:52Z</time>
      </trkpt>
      <trkpt lat="48.79437" lon="2.23894">
        <ele>135.8</ele>
        <time>2012-10-07T09:31:57Z</time>
      </trkpt>
      <trkpt lat="48.7945" lon="2.23891">
        <ele>134.3</ele>
        <time>2012-10-07T09:32:02Z</time>
      </trkpt>
      <trkpt lat="48.79459" lon="2.2389">
        <ele>132.5</ele>
        <time>2012-10-07T09:32:07Z</time>
      </trkpt>
      <trkpt lat="48.7947" lon="2.23896">
        <ele>131</ele>
        <time>2012-10-07T09:32:12Z</time>
      </trkpt>
      <trkpt lat="48.79484" lon="2.23898">
        <ele>133.8</ele>
        <time>2012-10-07T09:32:17Z</time>
      </trkpt>
      <trkpt lat="48.79489" lon="2.23902">
        <ele>132.8</ele>
        <time>2012-10-07T09:32:22Z</time>
      </trkpt>
      <trkpt lat="48.79491" lon="2.23906">
        <ele>127.5</ele>
        <time>2012-10-07T09:32:27Z</time>
      </trkpt>
      <trkpt lat="48.79498" lon="2.23913">
        <ele>130.8</ele>
        <time>2012-10-07T09:32:32Z</time>
      </trkpt>
      <trkpt lat="48.79503" lon="2.23918">
        <ele>129.3</ele>
        <time>2012-10-07T09:32:37Z</time>
      </trkpt>
      <trkpt lat="48.79502" lon="2.2393">
        <ele>128.6</ele>
        <time>2012-10-07T09:32:42Z</time>
      </trkpt>
      <trkpt lat="48.79504" lon="2.23937">
        <ele>126.3</ele>
        <time>2012-10-07T09:32:47Z</time>
      </trkpt>
      <trkpt lat="48.79504" lon="2.23939">
        <ele>126.8</ele>
        <time>2012-10-07T09:32:48Z</time>
      </trkpt>
      <trkpt lat="48.79512" lon="2.23952">
        <ele>125.1</ele>
        <time>2012-10-07T09:32:57Z</time>
      </trkpt>
      <trkpt lat="48.7951" lon="2.23958">
        <ele>125.5</ele>
        <time>2012-10-07T09:33:02Z</time>
      </trkpt>
      <trkpt lat="48.79513" lon="2.23973">
        <ele>123.1</ele>
        <time>2012-10-07T09:33:07Z</time>
      </trkpt>
      <trkpt lat="48.79506" lon="2.23985">
        <ele>119</ele>
        <time>2012-10-07T09:33:12Z</time>
      </trkpt>
      <trkpt lat="48.79506" lon="2.23994">
        <ele>117.9</ele>
        <time>2012-10-07T09:33:17Z</time>
      </trkpt>
      <trkpt lat="48.79513" lon="2.24004">
        <ele>118.1</ele>
        <time>2012-10-07T09:33:22Z</time>
      </trkpt>
      <trkpt lat="48.7951" lon="2.24017">
        <ele>117.9</ele>
        <time>2012-10-07T09:33:27Z</time>
      </trkpt>
      <trkpt lat="48.79517" lon="2.24028">
        <ele>117.4</ele>
        <time>2012-10-07T09:33:32Z</time>
      </trkpt>
      <trkpt lat="48.79518" lon="2.2404">
        <ele>119.4</ele>
        <time>2012-10-07T09:33:37Z</time>
      </trkpt>
      <trkpt lat="48.79518" lon="2.24051">
        <ele>120.5</ele>
        <time>2012-10-07T09:33:42Z</time>
      </trkpt>
      <trkpt lat="48.79525" lon="2.24061">
        <ele>119.8</ele>
        <time>2012-10-07T09:33:47Z</time>
      </trkpt>
      <trkpt lat="48.79527" lon="2.24068">
        <ele>119.5</ele>
        <time>2012-10-07T09:33:52Z</time>
      </trkpt>
      <trkpt lat="48.79527" lon="2.2407">
        <ele>119.5</ele>
        <time>2012-10-07T09:33:53Z</time>
      </trkpt>
      <trkpt lat="48.79528" lon="2.24087">
        <ele>124</ele>
        <time>2012-10-07T09:34:02Z</time>
      </trkpt>
      <trkpt lat="48.79529" lon="2.24099">
        <ele>126.8</ele>
        <time>2012-10-07T09:34:07Z</time>
      </trkpt>
      <trkpt lat="48.79529" lon="2.24106">
        <ele>127.3</ele>
        <time>2012-10-07T09:34:12Z</time>
      </trkpt>
      <trkpt lat="48.79529" lon="2.24106">
        <ele>127.3</ele>
        <time>2012-10-07T09:34:17Z</time>
      </trkpt>
      <trkpt lat="48.79529" lon="2.24106">
        <ele>127.3</ele>
        <time>2012-10-07T09:34:22Z</time>
      </trkpt>
      <trkpt lat="48.79529" lon="2.24106">
        <ele>127.3</ele>
        <time>2012-10-07T09:34:27Z</time>
      </trkpt>
      <trkpt lat="48.79529" lon="2.24106">
        <ele>127.3</ele>
        <time>2012-10-07T09:34:32Z</time>
      </trkpt>
      <trkpt lat="48.79529" lon="2.24106">
        <ele>127.3</ele>
        <time>2012-10-07T09:34:37Z</time>
      </trkpt>
      <trkpt lat="48.7953" lon="2.24104">
        <ele>127.4</ele>
        <time>2012-10-07T09:34:42Z</time>
      </trkpt>
      <trkpt lat="48.7953" lon="2.24104">
        <ele>127.4</ele>
        <time>2012-10-07T09:34:47Z</time>
      </trkpt>
      <trkpt lat="48.7953" lon="2.24104">
        <ele>127.4</ele>
        <time>2012-10-07T09:34:52Z</time>
      </trkpt>
      <trkpt lat="48.7953" lon="2.24104">
        <ele>127.4</ele>
        <time>2012-10-07T09:34:57Z</time>
      </trkpt>
      <trkpt lat="48.7953" lon="2.24104">
        <ele>127.4</ele>
        <time>2012-10-07T09:34:58Z</time>
      </trkpt>
      <trkpt lat="48.79531" lon="2.24106">
        <ele>126.1</ele>
        <time>2012-10-07T09:35:07Z</time>
      </trkpt>
      <trkpt lat="48.79529" lon="2.24105">
        <ele>125.6</ele>
        <time>2012-10-07T09:35:12Z</time>
      </trkpt>
      <trkpt lat="48.79528" lon="2.24102">
        <ele>124.6</ele>
        <time>2012-10-07T09:35:17Z</time>
      </trkpt>
      <trkpt lat="48.79528" lon="2.24102">
        <ele>123.5</ele>
        <time>2012-10-07T09:35:22Z</time>
      </trkpt>
      <trkpt lat="48.79527" lon="2.24103">
        <ele>123.5</ele>
        <time>2012-10-07T09:35:27Z</time>
      </trkpt>
      <trkpt lat="48.79527" lon="2.24103">
        <ele>123.5</ele>
        <time>2012-10-07T09:35:32Z</time>
      </trkpt>
      <trkpt lat="48.79527" lon="2.24103">
        <ele>123.5</ele>
        <time>2012-10-07T09:35:37Z</time>
      </trkpt>
      <trkpt lat="48.79527" lon="2.24103">
        <ele>123.1</ele>
        <time>2012-10-07T09:35:42Z</time>
      </trkpt>
      <trkpt lat="48.79527" lon="2.24103">
        <ele>124.5</ele>
        <time>2012-10-07T09:35:47Z</time>
      </trkpt>
      <trkpt lat="48.79527" lon="2.24103">
        <ele>124</ele>
        <time>2012-10-07T09:35:52Z</time>
      </trkpt>
      <trkpt lat="48.79527" lon="2.24103">
        <ele>123.1</ele>
        <time>2012-10-07T09:35:57Z</time>
      </trkpt>
      <trkpt lat="48.79527" lon="2.24103">
        <ele>123.4</ele>
        <time>2012-10-07T09:36:02Z</time>
      </trkpt>
      <trkpt lat="48.79527" lon="2.24103">
        <ele>123.4</ele>
        <time>2012-10-07T09:36:03Z</time>
      </trkpt>
      <trkpt lat="48.79524" lon="2.24109">
        <ele>120.4</ele>
        <time>2012-10-07T09:36:12Z</time>
      </trkpt>
      <trkpt lat="48.79524" lon="2.2411">
        <ele>120.1</ele>
        <time>2012-10-07T09:36:17Z</time>
      </trkpt>
      <trkpt lat="48.79524" lon="2.2411">
        <ele>120.1</ele>
        <time>2012-10-07T09:36:22Z</time>
      </trkpt>
      <trkpt lat="48.79524" lon="2.2411">
        <ele>120.1</ele>
        <time>2012-10-07T09:36:27Z</time>
      </trkpt>
      <trkpt lat="48.79523" lon="2.2411">
        <ele>120</ele>
        <time>2012-10-07T09:36:32Z</time>
      </trkpt>
      <trkpt lat="48.79525" lon="2.2411">
        <ele>120.3</ele>
        <time>2012-10-07T09:36:37Z</time>
      </trkpt>
      <trkpt lat="48.79525" lon="2.2411">
        <ele>120.8</ele>
        <time>2012-10-07T09:36:42Z</time>
      </trkpt>
      <trkpt lat="48.79525" lon="2.24108">
        <ele>120.9</ele>
        <time>2012-10-07T09:36:47Z</time>
      </trkpt>
      <trkpt lat="48.79525" lon="2.24108">
        <ele>120.9</ele>
        <time>2012-10-07T09:36:52Z</time>
      </trkpt>
      <trkpt lat="48.79525" lon="2.24108">
        <ele>120.9</ele>
        <time>2012-10-07T09:36:57Z</time>
      </trkpt>
      <trkpt lat="48.79525" lon="2.24108">
        <ele>120.9</ele>
        <time>2012-10-07T09:37:02Z</time>
      </trkpt>
      <trkpt lat="48.79524" lon="2.24108">
        <ele>118.8</ele>
        <time>2012-10-07T09:37:07Z</time>
      </trkpt>
      <trkpt lat="48.79524" lon="2.24108">
        <ele>118.8</ele>
        <time>2012-10-07T09:37:08Z</time>
      </trkpt>
      <trkpt lat="48.79525" lon="2.24107">
        <ele>118.3</ele>
        <time>2012-10-07T09:37:17Z</time>
      </trkpt>
      <trkpt lat="48.79527" lon="2.24107">
        <ele>114</ele>
        <time>2012-10-07T09:37:22Z</time>
      </trkpt>
      <trkpt lat="48.79526" lon="2.24104">
        <ele>113.8</ele>
        <time>2012-10-07T09:37:27Z</time>
      </trkpt>
      <trkpt lat="48.79527" lon="2.24104">
        <ele>113.9</ele>
        <time>2012-10-07T09:37:32Z</time>
      </trkpt>
      <trkpt lat="48.79527" lon="2.24104">
        <ele>113.8</ele>
        <time>2012-10-07T09:37:37Z</time>
      </trkpt>
      <trkpt lat="48.79526" lon="2.24104">
        <ele>113.8</ele>
        <time>2012-10-07T09:37:42Z</time>
      </trkpt>
      <trkpt lat="48.79526" lon="2.24104">
        <ele>113.6</ele>
        <time>2012-10-07T09:37:47Z</time>
      </trkpt>
      <trkpt lat="48.79527" lon="2.24104">
        <ele>112.5</ele>
        <time>2012-10-07T09:37:52Z</time>
      </trkpt>
      <trkpt lat="48.79527" lon="2.24104">
        <ele>112.5</ele>
        <time>2012-10-07T09:37:57Z</time>
      </trkpt>
      <trkpt lat="48.79527" lon="2.24104">
        <ele>112.5</ele>
        <time>2012-10-07T09:38:02Z</time>
      </trkpt>
      <trkpt lat="48.79528" lon="2.24106">
        <ele>111</ele>
        <time>2012-10-07T09:38:07Z</time>
      </trkpt>
      <trkpt lat="48.79528" lon="2.24106">
        <ele>111</ele>
        <time>2012-10-07T09:38:12Z</time>
      </trkpt>
      <trkpt lat="48.79528" lon="2.24106">
        <ele>111</ele>
        <time>2012-10-07T09:38:13Z</time>
      </trkpt>
      <trkpt lat="48.79528" lon="2.24106">
        <ele>110.1</ele>
        <time>2012-10-07T09:38:22Z</time>
      </trkpt>
      <trkpt lat="48.79528" lon="2.24106">
        <ele>110.1</ele>
        <time>2012-10-07T09:38:27Z</time>
      </trkpt>
      <trkpt lat="48.79528" lon="2.24106">
        <ele>110.1</ele>
        <time>2012-10-07T09:38:32Z</time>
      </trkpt>
      <trkpt lat="48.79528" lon="2.24106">
        <ele>110.1</ele>
        <time>2012-10-07T09:38:37Z</time>
      </trkpt>
      <trkpt lat="48.79528" lon="2.24106">
        <ele>109.4</ele>
        <time>2012-10-07T09:38:42Z</time>
      </trkpt>
      <trkpt lat="48.79528" lon="2.24106">
        <ele>109.4</ele>
        <time>2012-10-07T09:38:47Z</time>
      </trkpt>
      <trkpt lat="48.79528" lon="2.24106">
        <ele>109.4</ele>
        <time>2012-10-07T09:38:52Z</time>
      </trkpt>
      <trkpt lat="48.79528" lon="2.24106">
        <ele>109.4</ele>
        <time>2012-10-07T09:38:57Z</time>
      </trkpt>
      <trkpt lat="48.79528" lon="2.24106">
        <ele>109.4</ele>
        <time>2012-10-07T09:39:02Z</time>
      </trkpt>
      <trkpt lat="48.79528" lon="2.24106">
        <ele>109.4</ele>
        <time>2012-10-07T09:39:07Z</time>
      </trkpt>
      <trkpt lat="48.79529" lon="2.24112">
        <ele>107.6</ele>
        <time>2012-10-07T09:39:12Z</time>
      </trkpt>
      <trkpt lat="48.79529" lon="2.24112">
        <ele>107.5</ele>
        <time>2012-10-07T09:39:17Z</time>
      </trkpt>
      <trkpt lat="48.79529" lon="2.24113">
        <ele>107.5</ele>
        <time>2012-10-07T09:39:18Z</time>
      </trkpt>
      <trkpt lat="48.79529" lon="2.24113">
        <ele>107.3</ele>
        <time>2012-10-07T09:39:27Z</time>
      </trkpt>
      <trkpt lat="48.79529" lon="2.24113">
        <ele>107.3</ele>
        <time>2012-10-07T09:39:32Z</time>
      </trkpt>
      <trkpt lat="48.7953" lon="2.24113">
        <ele>106.4</ele>
        <time>2012-10-07T09:39:37Z</time>
      </trkpt>
      <trkpt lat="48.7953" lon="2.24113">
        <ele>106.4</ele>
        <time>2012-10-07T09:39:42Z</time>
      </trkpt>
      <trkpt lat="48.79529" lon="2.24113">
        <ele>106.1</ele>
        <time>2012-10-07T09:39:47Z</time>
      </trkpt>
      <trkpt lat="48.79529" lon="2.24113">
        <ele>106.1</ele>
        <time>2012-10-07T09:39:52Z</time>
      </trkpt>
      <trkpt lat="48.7953" lon="2.24113">
        <ele>105.9</ele>
        <time>2012-10-07T09:39:57Z</time>
      </trkpt>
      <trkpt lat="48.7953" lon="2.24113">
        <ele>105.9</ele>
        <time>2012-10-07T09:40:02Z</time>
      </trkpt>
      <trkpt lat="48.7953" lon="2.24111">
        <ele>106</ele>
        <time>2012-10-07T09:40:07Z</time>
      </trkpt>
      <trkpt lat="48.7953" lon="2.24111">
        <ele>105.6</ele>
        <time>2012-10-07T09:40:12Z</time>
      </trkpt>
      <trkpt lat="48.79532" lon="2.24112">
        <ele>105.4</ele>
        <time>2012-10-07T09:40:17Z</time>
      </trkpt>
      <trkpt lat="48.79533" lon="2.24118">
        <ele>106</ele>
        <time>2012-10-07T09:40:22Z</time>
      </trkpt>
      <trkpt lat="48.79534" lon="2.2412">
        <ele>105.9</ele>
        <time>2012-10-07T09:40:23Z</time>
      </trkpt>
      <trkpt lat="48.79538" lon="2.24135">
        <ele>105.5</ele>
        <time>2012-10-07T09:40:32Z</time>
      </trkpt>
      <trkpt lat="48.7954" lon="2.24143">
        <ele>106.1</ele>
        <time>2012-10-07T09:40:37Z</time>
      </trkpt>
      <trkpt lat="48.79546" lon="2.24149">
        <ele>106.8</ele>
        <time>2012-10-07T09:40:42Z</time>
      </trkpt>
      <trkpt lat="48.79548" lon="2.24154">
        <ele>107.6</ele>
        <time>2012-10-07T09:40:47Z</time>
      </trkpt>
      <trkpt lat="48.79548" lon="2.24157">
        <ele>108</ele>
        <time>2012-10-07T09:40:52Z</time>
      </trkpt>
      <trkpt lat="48.7955" lon="2.24168">
        <ele>111.4</ele>
        <time>2012-10-07T09:40:57Z</time>
      </trkpt>
      <trkpt lat="48.7955" lon="2.24182">
        <ele>112.6</ele>
        <time>2012-10-07T09:41:02Z</time>
      </trkpt>
      <trkpt lat="48.79556" lon="2.24194">
        <ele>115</ele>
        <time>2012-10-07T09:41:07Z</time>
      </trkpt>
      <trkpt lat="48.79555" lon="2.24205">
        <ele>114.8</ele>
        <time>2012-10-07T09:41:12Z</time>
      </trkpt>
      <trkpt lat="48.79554" lon="2.24214">
        <ele>115.8</ele>
        <time>2012-10-07T09:41:17Z</time>
      </trkpt>
      <trkpt lat="48.79548" lon="2.2422">
        <ele>117.3</ele>
        <time>2012-10-07T09:41:22Z</time>
      </trkpt>
      <trkpt lat="48.79552" lon="2.24234">
        <ele>114.5</ele>
        <time>2012-10-07T09:41:27Z</time>
      </trkpt>
      <trkpt lat="48.79552" lon="2.24239">
        <ele>114</ele>
        <time>2012-10-07T09:41:28Z</time>
      </trkpt>
      <trkpt lat="48.79546" lon="2.24257">
        <ele>113.3</ele>
        <time>2012-10-07T09:41:37Z</time>
      </trkpt>
      <trkpt lat="48.79544" lon="2.2426">
        <ele>115</ele>
        <time>2012-10-07T09:41:42Z</time>
      </trkpt>
      <trkpt lat="48.79538" lon="2.2426">
        <ele>112.5</ele>
        <time>2012-10-07T09:41:47Z</time>
      </trkpt>
      <trkpt lat="48.79537" lon="2.24264">
        <ele>111.5</ele>
        <time>2012-10-07T09:41:52Z</time>
      </trkpt>
      <trkpt lat="48.79534" lon="2.24265">
        <ele>112.5</ele>
        <time>2012-10-07T09:41:57Z</time>
      </trkpt>
      <trkpt lat="48.79532" lon="2.24266">
        <ele>112.1</ele>
        <time>2012-10-07T09:42:02Z</time>
      </trkpt>
      <trkpt lat="48.79531" lon="2.24271">
        <ele>112.9</ele>
        <time>2012-10-07T09:42:07Z</time>
      </trkpt>
      <trkpt lat="48.79528" lon="2.24271">
        <ele>112.9</ele>
        <time>2012-10-07T09:42:12Z</time>
      </trkpt>
      <trkpt lat="48.79529" lon="2.24272">
        <ele>112</ele>
        <time>2012-10-07T09:42:17Z</time>
      </trkpt>
      <trkpt lat="48.79525" lon="2.24273">
        <ele>111.6</ele>
        <time>2012-10-07T09:42:22Z</time>
      </trkpt>
      <trkpt lat="48.79525" lon="2.24273">
        <ele>111.6</ele>
        <time>2012-10-07T09:42:27Z</time>
      </trkpt>
      <trkpt lat="48.79525" lon="2.24273">
        <ele>111.6</ele>
        <time>2012-10-07T09:42:32Z</time>
      </trkpt>
      <trkpt lat="48.79525" lon="2.24273">
        <ele>111.6</ele>
        <time>2012-10-07T09:42:33Z</time>
      </trkpt>
      <trkpt lat="48.79525" lon="2.24273">
        <ele>111.6</ele>
        <time>2012-10-07T09:42:42Z</time>
      </trkpt>
      <trkpt lat="48.79527" lon="2.24276">
        <ele>109.5</ele>
        <time>2012-10-07T09:42:47Z</time>
      </trkpt>
      <trkpt lat="48.79522" lon="2.2427">
        <ele>114.9</ele>
        <time>2012-10-07T09:42:52Z</time>
      </trkpt>
      <trkpt lat="48.79522" lon="2.2427">
        <ele>114.9</ele>
        <time>2012-10-07T09:42:57Z</time>
      </trkpt>
      <trkpt lat="48.79522" lon="2.24269">
        <ele>115.6</ele>
        <time>2012-10-07T09:43:02Z</time>
      </trkpt>
      <trkpt lat="48.79524" lon="2.24267">
        <ele>115.5</ele>
        <time>2012-10-07T09:43:07Z</time>
      </trkpt>
      <trkpt lat="48.79523" lon="2.24269">
        <ele>115.8</ele>
        <time>2012-10-07T09:43:12Z</time>
      </trkpt>
      <trkpt lat="48.79525" lon="2.2427">
        <ele>118.5</ele>
        <time>2012-10-07T09:43:17Z</time>
      </trkpt>
      <trkpt lat="48.79523" lon="2.24274">
        <ele>119</ele>
        <time>2012-10-07T09:43:22Z</time>
      </trkpt>
      <trkpt lat="48.79528" lon="2.24275">
        <ele>118.8</ele>
        <time>2012-10-07T09:43:27Z</time>
      </trkpt>
      <trkpt lat="48.79529" lon="2.24275">
        <ele>118</ele>
        <time>2012-10-07T09:43:32Z</time>
      </trkpt>
      <trkpt lat="48.79526" lon="2.24279">
        <ele>117</ele>
        <time>2012-10-07T09:43:37Z</time>
      </trkpt>
      <trkpt lat="48.79524" lon="2.24282">
        <ele>116.8</ele>
        <time>2012-10-07T09:43:38Z</time>
      </trkpt>
      <trkpt lat="48.79527" lon="2.24298">
        <ele>118.5</ele>
        <time>2012-10-07T09:43:47Z</time>
      </trkpt>
      <trkpt lat="48.79532" lon="2.2431">
        <ele>118.4</ele>
        <time>2012-10-07T09:43:52Z</time>
      </trkpt>
      <trkpt lat="48.79536" lon="2.24325">
        <ele>119.1</ele>
        <time>2012-10-07T09:43:57Z</time>
      </trkpt>
      <trkpt lat="48.79536" lon="2.24329">
        <ele>120.8</ele>
        <time>2012-10-07T09:44:02Z</time>
      </trkpt>
      <trkpt lat="48.79543" lon="2.24336">
        <ele>122.6</ele>
        <time>2012-10-07T09:44:07Z</time>
      </trkpt>
      <trkpt lat="48.79539" lon="2.24344">
        <ele>122.5</ele>
        <time>2012-10-07T09:44:12Z</time>
      </trkpt>
      <trkpt lat="48.7954" lon="2.2435">
        <ele>121.5</ele>
        <time>2012-10-07T09:44:17Z</time>
      </trkpt>
      <trkpt lat="48.79537" lon="2.24363">
        <ele>121.5</ele>
        <time>2012-10-07T09:44:22Z</time>
      </trkpt>
      <trkpt lat="48.79535" lon="2.24369">
        <ele>122</ele>
        <time>2012-10-07T09:44:27Z</time>
      </trkpt>
      <trkpt lat="48.79536" lon="2.24367">
        <ele>123.1</ele>
        <time>2012-10-07T09:44:32Z</time>
      </trkpt>
      <trkpt lat="48.79545" lon="2.24374">
        <ele>124.6</ele>
        <time>2012-10-07T09:44:37Z</time>
      </trkpt>
      <trkpt lat="48.79549" lon="2.24374">
        <ele>125</ele>
        <time>2012-10-07T09:44:42Z</time>
      </trkpt>
      <trkpt lat="48.79549" lon="2.24375">
        <ele>124.9</ele>
        <time>2012-10-07T09:44:43Z</time>
      </trkpt>
      <trkpt lat="48.79551" lon="2.24376">
        <ele>126.4</ele>
        <time>2012-10-07T09:44:52Z</time>
      </trkpt>
      <trkpt lat="48.79552" lon="2.24376">
        <ele>127</ele>
        <time>2012-10-07T09:44:57Z</time>
      </trkpt>
      <trkpt lat="48.79555" lon="2.24378">
        <ele>128.3</ele>
        <time>2012-10-07T09:45:02Z</time>
      </trkpt>
      <trkpt lat="48.79554" lon="2.24383">
        <ele>126</ele>
        <time>2012-10-07T09:45:07Z</time>
      </trkpt>
      <trkpt lat="48.79555" lon="2.24385">
        <ele>125.3</ele>
        <time>2012-10-07T09:45:12Z</time>
      </trkpt>
      <trkpt lat="48.79553" lon="2.24387">
        <ele>126.3</ele>
        <time>2012-10-07T09:45:17Z</time>
      </trkpt>
      <trkpt lat="48.79555" lon="2.24389">
        <ele>127.1</ele>
        <time>2012-10-07T09:45:22Z</time>
      </trkpt>
      <trkpt lat="48.79564" lon="2.24396">
        <ele>132.1</ele>
        <time>2012-10-07T09:45:27Z</time>
      </trkpt>
      <trkpt lat="48.79567" lon="2.24397">
        <ele>129.6</ele>
        <time>2012-10-07T09:45:32Z</time>
      </trkpt>
      <trkpt lat="48.79571" lon="2.244">
        <ele>133.3</ele>
        <time>2012-10-07T09:45:37Z</time>
      </trkpt>
      <trkpt lat="48.79571" lon="2.24401">
        <ele>133.3</ele>
        <time>2012-10-07T09:45:42Z</time>
      </trkpt>
      <trkpt lat="48.79574" lon="2.24403">
        <ele>134</ele>
        <time>2012-10-07T09:45:47Z</time>
      </trkpt>
      <trkpt lat="48.79576" lon="2.24405">
        <ele>134.8</ele>
        <time>2012-10-07T09:45:48Z</time>
      </trkpt>
      <trkpt lat="48.7958" lon="2.24407">
        <ele>135.1</ele>
        <time>2012-10-07T09:45:57Z</time>
      </trkpt>
      <trkpt lat="48.79581" lon="2.24409">
        <ele>135.6</ele>
        <time>2012-10-07T09:46:02Z</time>
      </trkpt>
      <trkpt lat="48.79591" lon="2.24414">
        <ele>137.3</ele>
        <time>2012-10-07T09:46:07Z</time>
      </trkpt>
      <trkpt lat="48.79595" lon="2.24417">
        <ele>140.5</ele>
        <time>2012-10-07T09:46:12Z</time>
      </trkpt>
      <trkpt lat="48.796" lon="2.24417">
        <ele>140.1</ele>
        <time>2012-10-07T09:46:17Z</time>
      </trkpt>
      <trkpt lat="48.79599" lon="2.24415">
        <ele>140.6</ele>
        <time>2012-10-07T09:46:22Z</time>
      </trkpt>
      <trkpt lat="48.79601" lon="2.24417">
        <ele>140.8</ele>
        <time>2012-10-07T09:46:27Z</time>
      </trkpt>
      <trkpt lat="48.79601" lon="2.24417">
        <ele>141.3</ele>
        <time>2012-10-07T09:46:32Z</time>
      </trkpt>
      <trkpt lat="48.79602" lon="2.24418">
        <ele>141.6</ele>
        <time>2012-10-07T09:46:37Z</time>
      </trkpt>
      <trkpt lat="48.79605" lon="2.2442">
        <ele>142.3</ele>
        <time>2012-10-07T09:46:42Z</time>
      </trkpt>
      <trkpt lat="48.79613" lon="2.24423">
        <ele>145.3</ele>
        <time>2012-10-07T09:46:47Z</time>
      </trkpt>
      <trkpt lat="48.79622" lon="2.24426">
        <ele>148.8</ele>
        <time>2012-10-07T09:46:52Z</time>
      </trkpt>
      <trkpt lat="48.79623" lon="2.24427">
        <ele>150</ele>
        <time>2012-10-07T09:46:53Z</time>
      </trkpt>
      <trkpt lat="48.79627" lon="2.24429">
        <ele>151.8</ele>
        <time>2012-10-07T09:47:02Z</time>
      </trkpt>
      <trkpt lat="48.79627" lon="2.24429">
        <ele>151.8</ele>
        <time>2012-10-07T09:47:07Z</time>
      </trkpt>
      <trkpt lat="48.79628" lon="2.24431">
        <ele>153.1</ele>
        <time>2012-10-07T09:47:12Z</time>
      </trkpt>
      <trkpt lat="48.79629" lon="2.24431">
        <ele>154.3</ele>
        <time>2012-10-07T09:47:17Z</time>
      </trkpt>
      <trkpt lat="48.79633" lon="2.24431">
        <ele>154.3</ele>
        <time>2012-10-07T09:47:22Z</time>
      </trkpt>
      <trkpt lat="48.79633" lon="2.24431">
        <ele>154.3</ele>
        <time>2012-10-07T09:47:27Z</time>
      </trkpt>
      <trkpt lat="48.79639" lon="2.24435">
        <ele>156</ele>
        <time>2012-10-07T09:47:32Z</time>
      </trkpt>
      <trkpt lat="48.79648" lon="2.2444">
        <ele>156.1</ele>
        <time>2012-10-07T09:47:37Z</time>
      </trkpt>
      <trkpt lat="48.79652" lon="2.24443">
        <ele>157.1</ele>
        <time>2012-10-07T09:47:42Z</time>
      </trkpt>
      <trkpt lat="48.79652" lon="2.24443">
        <ele>157.1</ele>
        <time>2012-10-07T09:47:47Z</time>
      </trkpt>
      <trkpt lat="48.79652" lon="2.24444">
        <ele>157.5</ele>
        <time>2012-10-07T09:47:52Z</time>
      </trkpt>
      <trkpt lat="48.79658" lon="2.24444">
        <ele>155.6</ele>
        <time>2012-10-07T09:47:57Z</time>
      </trkpt>
      <trkpt lat="48.79659" lon="2.24443">
        <ele>155.1</ele>
        <time>2012-10-07T09:47:58Z</time>
      </trkpt>
      <trkpt lat="48.79665" lon="2.24445">
        <ele>156.6</ele>
        <time>2012-10-07T09:48:07Z</time>
      </trkpt>
      <trkpt lat="48.79665" lon="2.24445">
        <ele>156.6</ele>
        <time>2012-10-07T09:48:12Z</time>
      </trkpt>
      <trkpt lat="48.79674" lon="2.24449">
        <ele>156.5</ele>
        <time>2012-10-07T09:48:17Z</time>
      </trkpt>
      <trkpt lat="48.79679" lon="2.24447">
        <ele>157.8</ele>
        <time>2012-10-07T09:48:22Z</time>
      </trkpt>
      <trkpt lat="48.79684" lon="2.24446">
        <ele>159.3</ele>
        <time>2012-10-07T09:48:27Z</time>
      </trkpt>
      <trkpt lat="48.79689" lon="2.24445">
        <ele>160.1</ele>
        <time>2012-10-07T09:48:32Z</time>
      </trkpt>
      <trkpt lat="48.79689" lon="2.24443">
        <ele>157.8</ele>
        <time>2012-10-07T09:48:37Z</time>
      </trkpt>
      <trkpt lat="48.79691" lon="2.24442">
        <ele>159.3</ele>
        <time>2012-10-07T09:48:42Z</time>
      </trkpt>
      <trkpt lat="48.79692" lon="2.24443">
        <ele>163.1</ele>
        <time>2012-10-07T09:48:47Z</time>
      </trkpt>
      <trkpt lat="48.79695" lon="2.24441">
        <ele>164.3</ele>
        <time>2012-10-07T09:48:52Z</time>
      </trkpt>
      <trkpt lat="48.79697" lon="2.2444">
        <ele>167.1</ele>
        <time>2012-10-07T09:48:57Z</time>
      </trkpt>
      <trkpt lat="48.797" lon="2.24437">
        <ele>166.1</ele>
        <time>2012-10-07T09:49:02Z</time>
      </trkpt>
      <trkpt lat="48.79703" lon="2.24436">
        <ele>165.6</ele>
        <time>2012-10-07T09:49:03Z</time>
      </trkpt>
      <trkpt lat="48.79709" lon="2.2444">
        <ele>162.8</ele>
        <time>2012-10-07T09:49:12Z</time>
      </trkpt>
      <trkpt lat="48.79721" lon="2.24451">
        <ele>164.5</ele>
        <time>2012-10-07T09:49:17Z</time>
      </trkpt>
      <trkpt lat="48.79722" lon="2.24453">
        <ele>165.1</ele>
        <time>2012-10-07T09:49:22Z</time>
      </trkpt>
      <trkpt lat="48.79729" lon="2.24456">
        <ele>170.1</ele>
        <time>2012-10-07T09:49:27Z</time>
      </trkpt>
      <trkpt lat="48.79729" lon="2.24455">
        <ele>170.1</ele>
        <time>2012-10-07T09:49:32Z</time>
      </trkpt>
      <trkpt lat="48.79729" lon="2.24455">
        <ele>170.1</ele>
        <time>2012-10-07T09:49:37Z</time>
      </trkpt>
      <trkpt lat="48.79729" lon="2.24456">
        <ele>169.8</ele>
        <time>2012-10-07T09:49:42Z</time>
      </trkpt>
      <trkpt lat="48.79728" lon="2.24456">
        <ele>169.8</ele>
        <time>2012-10-07T09:49:47Z</time>
      </trkpt>
      <trkpt lat="48.79728" lon="2.24456">
        <ele>169.8</ele>
        <time>2012-10-07T09:49:52Z</time>
      </trkpt>
      <trkpt lat="48.7973" lon="2.24457">
        <ele>169.3</ele>
        <time>2012-10-07T09:49:57Z</time>
      </trkpt>
      <trkpt lat="48.79735" lon="2.24464">
        <ele>170.8</ele>
        <time>2012-10-07T09:50:02Z</time>
      </trkpt>
      <trkpt lat="48.7974" lon="2.24469">
        <ele>175.3</ele>
        <time>2012-10-07T09:50:07Z</time>
      </trkpt>
      <trkpt lat="48.79742" lon="2.2447">
        <ele>175.8</ele>
        <time>2012-10-07T09:50:08Z</time>
      </trkpt>
      <trkpt lat="48.79747" lon="2.24474">
        <ele>176.3</ele>
        <time>2012-10-07T09:50:17Z</time>
      </trkpt>
      <trkpt lat="48.79748" lon="2.24476">
        <ele>177.8</ele>
        <time>2012-10-07T09:50:22Z</time>
      </trkpt>
      <trkpt lat="48.7975" lon="2.24478">
        <ele>177.3</ele>
        <time>2012-10-07T09:50:27Z</time>
      </trkpt>
      <trkpt lat="48.79758" lon="2.24486">
        <ele>179.8</ele>
        <time>2012-10-07T09:50:32Z</time>
      </trkpt>
      <trkpt lat="48.79764" lon="2.24492">
        <ele>180.8</ele>
        <time>2012-10-07T09:50:37Z</time>
      </trkpt>
      <trkpt lat="48.7977" lon="2.24498">
        <ele>184.6</ele>
        <time>2012-10-07T09:50:42Z</time>
      </trkpt>
      <trkpt lat="48.79775" lon="2.24505">
        <ele>186</ele>
        <time>2012-10-07T09:50:47Z</time>
      </trkpt>
      <trkpt lat="48.79779" lon="2.24509">
        <ele>185.6</ele>
        <time>2012-10-07T09:50:52Z</time>
      </trkpt>
      <trkpt lat="48.79781" lon="2.24516">
        <ele>185.6</ele>
        <time>2012-10-07T09:50:57Z</time>
      </trkpt>
      <trkpt lat="48.79783" lon="2.24519">
        <ele>186</ele>
        <time>2012-10-07T09:51:02Z</time>
      </trkpt>
      <trkpt lat="48.79792" lon="2.2453">
        <ele>189.1</ele>
        <time>2012-10-07T09:51:07Z</time>
      </trkpt>
      <trkpt lat="48.79795" lon="2.24535">
        <ele>188.5</ele>
        <time>2012-10-07T09:51:12Z</time>
      </trkpt>
      <trkpt lat="48.79796" lon="2.24536">
        <ele>187.8</ele>
        <time>2012-10-07T09:51:13Z</time>
      </trkpt>
      <trkpt lat="48.79805" lon="2.24556">
        <ele>187.3</ele>
        <time>2012-10-07T09:51:22Z</time>
      </trkpt>
      <trkpt lat="48.79807" lon="2.24565">
        <ele>187.3</ele>
        <time>2012-10-07T09:51:27Z</time>
      </trkpt>
      <trkpt lat="48.79809" lon="2.24578">
        <ele>190.3</ele>
        <time>2012-10-07T09:51:32Z</time>
      </trkpt>
      <trkpt lat="48.79814" lon="2.24585">
        <ele>189.3</ele>
        <time>2012-10-07T09:51:37Z</time>
      </trkpt>
      <trkpt lat="48.79816" lon="2.2459">
        <ele>190</ele>
        <time>2012-10-07T09:51:42Z</time>
      </trkpt>
      <trkpt lat="48.79818" lon="2.246">
        <ele>187.6</ele>
        <time>2012-10-07T09:51:47Z</time>
      </trkpt>
      <trkpt lat="48.79817" lon="2.24607">
        <ele>190.1</ele>
        <time>2012-10-07T09:51:52Z</time>
      </trkpt>
      <trkpt lat="48.79816" lon="2.24609">
        <ele>190.1</ele>
        <time>2012-10-07T09:51:57Z</time>
      </trkpt>
      <trkpt lat="48.79817" lon="2.24612">
        <ele>189.1</ele>
        <time>2012-10-07T09:52:02Z</time>
      </trkpt>
      <trkpt lat="48.79822" lon="2.24623">
        <ele>186.8</ele>
        <time>2012-10-07T09:52:07Z</time>
      </trkpt>
      <trkpt lat="48.79823" lon="2.24629">
        <ele>183.6</ele>
        <time>2012-10-07T09:52:12Z</time>
      </trkpt>
      <trkpt lat="48.79826" lon="2.24633">
        <ele>183.8</ele>
        <time>2012-10-07T09:52:17Z</time>
      </trkpt>
      <trkpt lat="48.79827" lon="2.24634">
        <ele>183.8</ele>
        <time>2012-10-07T09:52:18Z</time>
      </trkpt>
      <trkpt lat="48.79828" lon="2.24635">
        <ele>183.5</ele>
        <time>2012-10-07T09:52:27Z</time>
      </trkpt>
      <trkpt lat="48.79828" lon="2.24635">
        <ele>183.5</ele>
        <time>2012-10-07T09:52:32Z</time>
      </trkpt>
      <trkpt lat="48.79827" lon="2.24638">
        <ele>183</ele>
        <time>2012-10-07T09:52:37Z</time>
      </trkpt>
      <trkpt lat="48.79827" lon="2.24638">
        <ele>183</ele>
        <time>2012-10-07T09:52:42Z</time>
      </trkpt>
      <trkpt lat="48.79827" lon="2.24638">
        <ele>183</ele>
        <time>2012-10-07T09:52:47Z</time>
      </trkpt>
      <trkpt lat="48.79827" lon="2.24638">
        <ele>183</ele>
        <time>2012-10-07T09:52:52Z</time>
      </trkpt>
      <trkpt lat="48.79827" lon="2.24638">
        <ele>183</ele>
        <time>2012-10-07T09:52:57Z</time>
      </trkpt>
      <trkpt lat="48.79827" lon="2.24638">
        <ele>182.6</ele>
        <time>2012-10-07T09:53:02Z</time>
      </trkpt>
      <trkpt lat="48.79827" lon="2.24641">
        <ele>182.8</ele>
        <time>2012-10-07T09:53:07Z</time>
      </trkpt>
      <trkpt lat="48.79827" lon="2.2464">
        <ele>182.8</ele>
        <time>2012-10-07T09:53:12Z</time>
      </trkpt>
      <trkpt lat="48.79827" lon="2.24641">
        <ele>183.1</ele>
        <time>2012-10-07T09:53:17Z</time>
      </trkpt>
      <trkpt lat="48.79827" lon="2.24641">
        <ele>183.1</ele>
        <time>2012-10-07T09:53:22Z</time>
      </trkpt>
      <trkpt lat="48.79827" lon="2.24641">
        <ele>183.1</ele>
        <time>2012-10-07T09:53:23Z</time>
      </trkpt>
      <trkpt lat="48.79827" lon="2.24641">
        <ele>183.1</ele>
        <time>2012-10-07T09:53:32Z</time>
      </trkpt>
      <trkpt lat="48.79828" lon="2.24642">
        <ele>183.8</ele>
        <time>2012-10-07T09:53:37Z</time>
      </trkpt>
      <trkpt lat="48.79828" lon="2.24645">
        <ele>183.1</ele>
        <time>2012-10-07T09:53:42Z</time>
      </trkpt>
      <trkpt lat="48.79828" lon="2.24645">
        <ele>183.1</ele>
        <time>2012-10-07T09:53:47Z</time>
      </trkpt>
      <trkpt lat="48.79827" lon="2.24644">
        <ele>181.8</ele>
        <time>2012-10-07T09:53:52Z</time>
      </trkpt>
      <trkpt lat="48.79827" lon="2.24644">
        <ele>181.8</ele>
        <time>2012-10-07T09:53:57Z</time>
      </trkpt>
      <trkpt lat="48.79827" lon="2.24644">
        <ele>181.8</ele>
        <time>2012-10-07T09:54:02Z</time>
      </trkpt>
      <trkpt lat="48.79827" lon="2.24646">
        <ele>179.6</ele>
        <time>2012-10-07T09:54:07Z</time>
      </trkpt>
      <trkpt lat="48.79827" lon="2.24646">
        <ele>179.6</ele>
        <time>2012-10-07T09:54:12Z</time>
      </trkpt>
      <trkpt lat="48.79828" lon="2.24646">
        <ele>178.6</ele>
        <time>2012-10-07T09:54:17Z</time>
      </trkpt>
      <trkpt lat="48.79828" lon="2.24646">
        <ele>178.6</ele>
        <time>2012-10-07T09:54:22Z</time>
      </trkpt>
      <trkpt lat="48.79828" lon="2.24646">
        <ele>178.6</ele>
        <time>2012-10-07T09:54:27Z</time>
      </trkpt>
      <trkpt lat="48.79828" lon="2.24646">
        <ele>178.6</ele>
        <time>2012-10-07T09:54:28Z</time>
      </trkpt>
      <trkpt lat="48.79827" lon="2.24647">
        <ele>178.6</ele>
        <time>2012-10-07T09:54:37Z</time>
      </trkpt>
      <trkpt lat="48.79827" lon="2.24648">
        <ele>179.3</ele>
        <time>2012-10-07T09:54:42Z</time>
      </trkpt>
      <trkpt lat="48.79827" lon="2.24649">
        <ele>178.3</ele>
        <time>2012-10-07T09:54:47Z</time>
      </trkpt>
      <trkpt lat="48.79827" lon="2.24649">
        <ele>178.3</ele>
        <time>2012-10-07T09:54:52Z</time>
      </trkpt>
      <trkpt lat="48.79827" lon="2.24649">
        <ele>177.8</ele>
        <time>2012-10-07T09:54:57Z</time>
      </trkpt>
      <trkpt lat="48.79827" lon="2.24649">
        <ele>177.8</ele>
        <time>2012-10-07T09:55:02Z</time>
      </trkpt>
      <trkpt lat="48.79828" lon="2.2465">
        <ele>178.3</ele>
        <time>2012-10-07T09:55:07Z</time>
      </trkpt>
      <trkpt lat="48.79828" lon="2.2465">
        <ele>178.3</ele>
        <time>2012-10-07T09:55:12Z</time>
      </trkpt>
      <trkpt lat="48.79828" lon="2.24651">
        <ele>179.5</ele>
        <time>2012-10-07T09:55:17Z</time>
      </trkpt>
      <trkpt lat="48.79828" lon="2.24651">
        <ele>179.5</ele>
        <time>2012-10-07T09:55:22Z</time>
      </trkpt>
      <trkpt lat="48.79828" lon="2.24652">
        <ele>179.5</ele>
        <time>2012-10-07T09:55:27Z</time>
      </trkpt>
      <trkpt lat="48.79829" lon="2.24652">
        <ele>178.8</ele>
        <time>2012-10-07T09:55:32Z</time>
      </trkpt>
      <trkpt lat="48.79829" lon="2.24652">
        <ele>178.8</ele>
        <time>2012-10-07T09:55:33Z</time>
      </trkpt>
      <trkpt lat="48.79829" lon="2.24653">
        <ele>178.1</ele>
        <time>2012-10-07T09:55:42Z</time>
      </trkpt>
      <trkpt lat="48.79829" lon="2.24653">
        <ele>178.1</ele>
        <time>2012-10-07T09:55:47Z</time>
      </trkpt>
      <trkpt lat="48.79829" lon="2.24653">
        <ele>178.1</ele>
        <time>2012-10-07T09:55:52Z</time>
      </trkpt>
      <trkpt lat="48.79829" lon="2.24653">
        <ele>178.1</ele>
        <time>2012-10-07T09:55:57Z</time>
      </trkpt>
      <trkpt lat="48.79829" lon="2.24654">
        <ele>177.8</ele>
        <time>2012-10-07T09:56:02Z</time>
      </trkpt>
      <trkpt lat="48.79829" lon="2.24654">
        <ele>177.8</ele>
        <time>2012-10-07T09:56:07Z</time>
      </trkpt>
      <trkpt lat="48.79829" lon="2.24654">
        <ele>176.8</ele>
        <time>2012-10-07T09:56:12Z</time>
      </trkpt>
      <trkpt lat="48.79829" lon="2.24654">
        <ele>176.6</ele>
        <time>2012-10-07T09:56:14Z</time>
      </trkpt>
      <trkpt lat="48.79829" lon="2.24654">
        <ele>176.6</ele>
        <time>2012-10-07T09:56:14Z</time>
      </trkpt>
    </trkseg>
  </trk>
</gpx>